Darstellungsparameter: Aktuell verwendete Einstellungen:
Skalierung der Graphiken ... ?
xyx+y,   Skalierungsfaktor:      Skalierung: Modus: x, Faktor: 1
Darstellungszeitraum ... ?
Vom - - bis: - -   Zeitraum: 02.12.2019 - 30.12.2019
Min/Max/Avg-Anzeige ... ?
Zeige MMA aktuell
Zeige MMA Monat
Zeige MMA alles
Zeige --A aktuell
Zeige --A Monat
Zeige --A alles
Keine MMA-Anzeige
MMA:
Average (ber die Originaldaten)
MMA-Basis: 02.12.2019 - 30.12.2019
Quicknavigation für Darstellung... ?
Tage:      1T, 2T, 3T, 5T -1T -2T -3T -5T +1T +2T +3T +5T
Wochen: 1W, 2W, 3W -1W -2W -3W +1W +2W +3W
Monate: 1M, 3M, 6M -1M -3M -6M +1M +3M +6M
Jahre:    1J, 3J, 5J, 10J -1J -3J -5J -10J +1J +3J +5J +10J
Nutze für die Darstellung ... ?
Originaldaten oder Mittelwerte auf ...
Stundenbasis Tagesbasis Wochenbasis
Monatsbasis Jahresbasis      Datenbasis: Original-Daten
Darstellen als:
Statistik (Auto) Statistik J:M      Darstellung:
Zur Graphik,    zurück zur Übersicht aller Sensoren.
 
Tabellarische Datenbersicht: ?
 
Sensor: Nr:Datum:Temp:Abs-Feuchte:Windchill:Wind:
Aussen-T/F 1 02-12-2019 00:00:00 0.9 C 4.69 g/m*3 0.9 C 0 km/h
2 02-12-2019 00:05:00 0.9 C 4.69 g/m*3 0.9 C 1.6 km/h
3 02-12-2019 00:10:00 0.8 C 4.66 g/m*3 0.8 C 0 km/h
4 02-12-2019 00:15:00 0.8 C 4.71 g/m*3 0.8 C 1.6 km/h
5 02-12-2019 00:20:00 0.7 C 4.68 g/m*3 0.7 C 1.6 km/h
6 02-12-2019 00:25:00 0.7 C 4.68 g/m*3 0.7 C 0 km/h
7 02-12-2019 00:30:00 0.7 C 4.68 g/m*3 0.7 C 1.6 km/h
8 02-12-2019 00:35:00 0.7 C 4.68 g/m*3 0.7 C 1.6 km/h
9 02-12-2019 00:40:00 0.7 C 4.68 g/m*3 0.7 C 0 km/h
10 02-12-2019 00:45:00 0.8 C 4.76 g/m*3 0.8 C 0 km/h
11 02-12-2019 00:50:00 0.8 C 4.76 g/m*3 0.8 C 0 km/h
12 02-12-2019 00:55:00 0.8 C 4.76 g/m*3 0.8 C 0 km/h
13 02-12-2019 01:00:00 0.8 C 4.76 g/m*3 0.8 C 0 km/h
14 02-12-2019 01:05:00 0.8 C 4.76 g/m*3 0.8 C 0 km/h
15 02-12-2019 01:10:00 0.8 C 4.76 g/m*3 0.8 C 0 km/h
16 02-12-2019 01:15:00 0.7 C 4.73 g/m*3 0.7 C 0 km/h
17 02-12-2019 01:20:00 0.7 C 4.73 g/m*3 0.7 C 0 km/h
18 02-12-2019 01:25:00 0.7 C 4.73 g/m*3 0.7 C 0 km/h
19 02-12-2019 01:30:00 0.7 C 4.73 g/m*3 0.7 C 1.6 km/h
20 02-12-2019 01:35:00 0.6 C 4.7 g/m*3 0.6 C 0 km/h
21 02-12-2019 01:40:00 0.6 C 4.7 g/m*3 0.6 C 1.6 km/h
22 02-12-2019 01:45:00 0.5 C 4.66 g/m*3 0.5 C 0 km/h
23 02-12-2019 01:50:00 0.4 C 4.63 g/m*3 0.4 C 0 km/h
24 02-12-2019 01:55:00 0.3 C 4.6 g/m*3 0.3 C 1.6 km/h
25 02-12-2019 02:00:00 0.2 C 4.57 g/m*3 0.2 C 1.6 km/h
Sensor: Nr:Datum:Temp:Abs-Feuchte:Windchill:Wind:
Aussen-T/F 26 02-12-2019 02:05:00 0.3 C 4.6 g/m*3 0.3 C 1.6 km/h
27 02-12-2019 02:10:00 0.3 C 4.6 g/m*3 0.3 C 3.2 km/h
28 02-12-2019 02:15:00 0.3 C 4.6 g/m*3 0.3 C 1.6 km/h
29 02-12-2019 02:20:00 0.2 C 4.57 g/m*3 0.2 C 0 km/h
30 02-12-2019 02:25:00 0.1 C 4.54 g/m*3 0.1 C 1.6 km/h
31 02-12-2019 02:30:00 0.1 C 4.54 g/m*3 0.1 C 0 km/h
32 02-12-2019 02:35:00 0 C 4.51 g/m*3 0 C 1.6 km/h
33 02-12-2019 02:40:00 -0.1 C 4.47 g/m*3 -0.1 C 1.6 km/h
34 02-12-2019 02:45:00 -0.1 C 4.47 g/m*3 -0.1 C 1.6 km/h
35 02-12-2019 02:50:00 -0.1 C 4.47 g/m*3 -0.1 C 1.6 km/h
36 02-12-2019 02:55:00 -0.1 C 4.47 g/m*3 -0.1 C 3.2 km/h
37 02-12-2019 03:00:00 -0.2 C 4.44 g/m*3 -0.2 C 1.6 km/h
38 02-12-2019 03:05:00 -0.2 C 4.44 g/m*3 -0.2 C 1.6 km/h
39 02-12-2019 03:10:00 -0.2 C 4.44 g/m*3 -0.2 C 1.6 km/h
40 02-12-2019 03:15:00 -0.2 C 4.49 g/m*3 -0.2 C 3.2 km/h
41 02-12-2019 03:20:00 -0.2 C 4.44 g/m*3 -0.2 C 3.2 km/h
42 02-12-2019 03:25:00 -0.3 C 4.41 g/m*3 -0.3 C 3.2 km/h
43 02-12-2019 03:30:00 -0.4 C 4.38 g/m*3 -0.4 C 1.6 km/h
44 02-12-2019 03:35:00 -0.4 C 4.43 g/m*3 -0.4 C 1.6 km/h
45 02-12-2019 03:40:00 -0.5 C 4.35 g/m*3 -0.5 C 3.2 km/h
46 02-12-2019 03:45:00 -0.6 C 4.37 g/m*3 -0.6 C 3.2 km/h
47 02-12-2019 03:50:00 -0.6 C 4.37 g/m*3 -0.6 C 1.6 km/h
48 02-12-2019 03:55:00 -0.6 C 4.37 g/m*3 -0.6 C 0 km/h
49 02-12-2019 04:00:00 -0.6 C 4.37 g/m*3 -0.6 C 0 km/h
50 02-12-2019 04:05:00 -0.6 C 4.37 g/m*3 -0.6 C 1.6 km/h
Sensor: Nr:Datum:Temp:Abs-Feuchte:Windchill:Wind:
Aussen-T/F 51 02-12-2019 04:10:00 -0.7 C 4.34 g/m*3 -0.7 C 1.6 km/h
52 02-12-2019 04:15:00 -0.7 C 4.34 g/m*3 -0.7 C 3.2 km/h
53 02-12-2019 04:20:00 -0.6 C 4.37 g/m*3 -0.6 C 0 km/h
54 02-12-2019 04:25:00 -0.6 C 4.37 g/m*3 -0.6 C 0 km/h
55 02-12-2019 04:30:00 -0.4 C 4.48 g/m*3 -0.4 C 0 km/h
56 02-12-2019 04:35:00 -0.3 C 4.51 g/m*3 -0.3 C 0 km/h
57 02-12-2019 04:40:00 -0.2 C 4.54 g/m*3 -0.2 C 0 km/h
58 02-12-2019 04:45:00 -0.2 C 4.54 g/m*3 -0.2 C 0 km/h
59 02-12-2019 04:50:00 -0.2 C 4.54 g/m*3 -0.2 C 0 km/h
60 02-12-2019 04:55:00 -0.2 C 4.54 g/m*3 -0.2 C 0 km/h
61 02-12-2019 05:00:00 -0.3 C 4.51 g/m*3 -0.3 C 0 km/h
62 02-12-2019 05:05:00 -0.3 C 4.51 g/m*3 -0.3 C 0 km/h
63 02-12-2019 05:10:00 -0.3 C 4.51 g/m*3 -0.3 C 0 km/h
64 02-12-2019 05:15:00 -0.3 C 4.51 g/m*3 -0.3 C 0 km/h
65 02-12-2019 05:20:00 -0.3 C 4.51 g/m*3 -0.3 C 0 km/h
66 02-12-2019 05:25:00 -0.3 C 4.51 g/m*3 -0.3 C 0 km/h
67 02-12-2019 05:30:00 -0.4 C 4.43 g/m*3 -0.4 C 0 km/h
68 02-12-2019 05:35:00 -0.4 C 4.43 g/m*3 -0.4 C 0 km/h
69 02-12-2019 05:40:00 -0.4 C 4.48 g/m*3 -0.4 C 0 km/h
70 02-12-2019 05:45:00 -0.4 C 4.48 g/m*3 -0.4 C 0 km/h
71 02-12-2019 05:50:00 -0.4 C 4.48 g/m*3 -0.4 C 0 km/h
72 02-12-2019 05:55:00 -0.4 C 4.48 g/m*3 -0.4 C 3.2 km/h
73 02-12-2019 06:00:00 -0.3 C 4.51 g/m*3 -0.3 C 1.6 km/h
74 02-12-2019 06:05:00 -0.4 C 4.48 g/m*3 -0.4 C 1.6 km/h
75 02-12-2019 06:10:00 -0.4 C 4.48 g/m*3 -0.4 C 1.6 km/h
Sensor: Nr:Datum:Temp:Abs-Feuchte:Windchill:Wind:
Aussen-T/F 76 02-12-2019 06:15:00 -0.5 C 4.45 g/m*3 -0.5 C 1.6 km/h
77 02-12-2019 06:20:00 -0.6 C 4.42 g/m*3 -0.6 C 3.2 km/h
78 02-12-2019 06:25:00 -0.6 C 4.42 g/m*3 -0.6 C 3.2 km/h
79 02-12-2019 06:30:00 -0.7 C 4.39 g/m*3 -0.7 C 0 km/h
80 02-12-2019 06:35:00 -0.7 C 4.39 g/m*3 -0.7 C 0 km/h
81 02-12-2019 06:40:00 -0.7 C 4.39 g/m*3 -0.7 C 0 km/h
82 02-12-2019 06:45:00 -0.7 C 4.39 g/m*3 -0.7 C 0 km/h
83 02-12-2019 06:50:00 -0.8 C 4.35 g/m*3 -0.8 C 0 km/h
84 02-12-2019 06:55:00 -0.8 C 4.35 g/m*3 -0.8 C 0 km/h
85 02-12-2019 07:00:00 -0.9 C 4.32 g/m*3 -0.9 C 0 km/h
86 02-12-2019 07:05:00 -0.9 C 4.32 g/m*3 -0.9 C 0 km/h
87 02-12-2019 07:10:00 -0.9 C 4.32 g/m*3 -0.9 C 0 km/h
88 02-12-2019 07:15:00 -1.1 C 4.22 g/m*3 -1.1 C 0 km/h
89 02-12-2019 07:20:00 -1.2 C 4.19 g/m*3 -1.2 C 0 km/h
90 02-12-2019 07:25:00 -1.2 C 4.24 g/m*3 -1.2 C 0 km/h
91 02-12-2019 07:30:00 -1.2 C 4.24 g/m*3 -1.2 C 0 km/h
92 02-12-2019 07:35:00 -1.3 C 4.21 g/m*3 -1.3 C 0 km/h
93 02-12-2019 07:40:00 -1.3 C 4.21 g/m*3 -1.3 C 0 km/h
94 02-12-2019 07:45:00 -1.3 C 4.21 g/m*3 -1.3 C 0 km/h
95 02-12-2019 07:50:00 -1.3 C 4.21 g/m*3 -1.3 C 0 km/h
96 02-12-2019 07:55:00 -1.3 C 4.21 g/m*3 -1.3 C 3.2 km/h
97 02-12-2019 08:00:00 -1.2 C 4.24 g/m*3 -1.2 C 0 km/h
98 02-12-2019 08:05:00 -1.2 C 4.24 g/m*3 -1.2 C 0 km/h
99 02-12-2019 08:10:00 -1.1 C 4.26 g/m*3 -1.1 C 0 km/h
100 02-12-2019 08:15:00 -1 C 4.29 g/m*3 -1 C 0 km/h
Sensor: Nr:Datum:Temp:Abs-Feuchte:Windchill:Wind:
Aussen-T/F 101 02-12-2019 08:20:00 -0.9 C 4.37 g/m*3 -0.9 C 1.6 km/h
102 02-12-2019 08:25:00 -0.7 C 4.43 g/m*3 -0.7 C 0 km/h
103 02-12-2019 08:30:00 -0.6 C 4.46 g/m*3 -0.6 C 0 km/h
104 02-12-2019 08:35:00 -0.5 C 4.49 g/m*3 -0.5 C 0 km/h
105 02-12-2019 08:40:00 -0.3 C 4.56 g/m*3 -0.3 C 4.8 km/h
106 02-12-2019 08:45:00 -0.2 C 4.59 g/m*3 -0.2 C 1.6 km/h
107 02-12-2019 08:50:00 -0.1 C 4.62 g/m*3 -0.1 C 3.2 km/h
108 02-12-2019 08:55:00 0 C 4.65 g/m*3 0 C 1.6 km/h
109 02-12-2019 09:00:00 0.1 C 4.68 g/m*3 0.1 C 3.2 km/h
110 02-12-2019 09:05:00 0.1 C 4.68 g/m*3 0.1 C 4.8 km/h
111 02-12-2019 09:10:00 0.2 C 4.72 g/m*3 0.2 C 4.8 km/h
112 02-12-2019 09:15:00 0.2 C 4.72 g/m*3 -1.95 C 6.4 km/h
113 02-12-2019 09:20:00 0.2 C 4.67 g/m*3 0.2 C 4.8 km/h
114 02-12-2019 09:25:00 0.2 C 4.72 g/m*3 0.2 C 1.6 km/h
115 02-12-2019 09:30:00 0.3 C 4.7 g/m*3 0.3 C 1.6 km/h
116 02-12-2019 09:35:00 0.3 C 4.7 g/m*3 0.3 C 4.8 km/h
117 02-12-2019 09:40:00 0.3 C 4.7 g/m*3 0.3 C 4.8 km/h
118 02-12-2019 09:45:00 0.4 C 4.73 g/m*3 0.4 C 4.8 km/h
119 02-12-2019 09:50:00 0.4 C 4.73 g/m*3 -1.72 C 6.4 km/h
120 02-12-2019 09:55:00 0.5 C 4.76 g/m*3 0.5 C 3.2 km/h
121 02-12-2019 10:00:00 0.6 C 4.8 g/m*3 0.6 C 3.2 km/h
122 02-12-2019 10:05:00 0.6 C 4.8 g/m*3 0.6 C 4.8 km/h
123 02-12-2019 10:10:00 0.6 C 4.8 g/m*3 0.6 C 3.2 km/h
124 02-12-2019 10:15:00 0.7 C 4.83 g/m*3 0.7 C 4.8 km/h
125 02-12-2019 10:20:00 0.7 C 4.83 g/m*3 0.7 C 1.6 km/h
Sensor: Nr:Datum:Temp:Abs-Feuchte:Windchill:Wind:
Aussen-T/F 126 02-12-2019 10:25:00 0.8 C 4.81 g/m*3 0.8 C 3.2 km/h
127 02-12-2019 10:30:00 0.8 C 4.81 g/m*3 0.8 C 4.8 km/h
128 02-12-2019 10:35:00 0.9 C 4.85 g/m*3 -1.14 C 6.4 km/h
129 02-12-2019 10:40:00 1.1 C 4.91 g/m*3 -0.91 C 6.4 km/h
130 02-12-2019 10:45:00 1.1 C 4.91 g/m*3 -1.48 C 8.1 km/h
131 02-12-2019 10:50:00 1.1 C 4.86 g/m*3 -1.48 C 8.1 km/h
132 02-12-2019 10:55:00 1.2 C 4.89 g/m*3 -0.8 C 6.4 km/h
133 02-12-2019 11:00:00 1.3 C 4.93 g/m*3 -1.24 C 8.1 km/h
134 02-12-2019 11:05:00 1.4 C 4.96 g/m*3 -1.12 C 8.1 km/h
135 02-12-2019 11:10:00 1.4 C 4.96 g/m*3 -0.56 C 6.4 km/h
136 02-12-2019 11:15:00 1.6 C 5.03 g/m*3 -0.33 C 6.4 km/h
137 02-12-2019 11:20:00 1.6 C 5.03 g/m*3 -0.33 C 6.4 km/h
138 02-12-2019 11:25:00 1.7 C 5.01 g/m*3 1.7 C 4.8 km/h
139 02-12-2019 11:30:00 1.7 C 5.01 g/m*3 -0.22 C 6.4 km/h
140 02-12-2019 11:35:00 1.6 C 4.97 g/m*3 1.6 C 3.2 km/h
141 02-12-2019 11:40:00 1.6 C 4.97 g/m*3 1.6 C 0 km/h
142 02-12-2019 11:45:00 1.7 C 5.01 g/m*3 1.7 C 1.6 km/h
143 02-12-2019 11:50:00 1.7 C 5.01 g/m*3 1.7 C 1.6 km/h
144 02-12-2019 11:55:00 1.7 C 5.01 g/m*3 1.7 C 0 km/h
145 02-12-2019 12:00:00 1.7 C 5.01 g/m*3 1.7 C 1.6 km/h
146 02-12-2019 12:05:00 1.9 C 5.13 g/m*3 1.9 C 0 km/h
147 02-12-2019 12:10:00 2.2 C 5.24 g/m*3 2.2 C 1.6 km/h
148 02-12-2019 12:15:00 2.4 C 5.31 g/m*3 2.4 C 3.2 km/h
149 02-12-2019 12:20:00 2.7 C 5.36 g/m*3 0.94 C 6.4 km/h
150 02-12-2019 12:25:00 2.8 C 5.34 g/m*3 2.8 C 3.2 km/h
Sensor: Nr:Datum:Temp:Abs-Feuchte:Windchill:Wind:
Aussen-T/F 151 02-12-2019 12:30:00 3.1 C 5.39 g/m*3 0.87 C 8.1 km/h
152 02-12-2019 12:35:00 3.1 C 5.33 g/m*3 0.87 C 8.1 km/h
153 02-12-2019 12:40:00 3.3 C 5.4 g/m*3 3.3 C 4.8 km/h
154 02-12-2019 12:45:00 3.3 C 5.34 g/m*3 1.63 C 6.4 km/h
155 02-12-2019 12:50:00 3.4 C 5.44 g/m*3 3.4 C 4.8 km/h
156 02-12-2019 12:55:00 3.5 C 5.41 g/m*3 1.34 C 8.1 km/h
157 02-12-2019 13:00:00 3.6 C 5.45 g/m*3 1.98 C 6.4 km/h
158 02-12-2019 13:05:00 3.6 C 5.39 g/m*3 3.6 C 4.8 km/h
159 02-12-2019 13:10:00 3.7 C 5.48 g/m*3 3.7 C 3.2 km/h
160 02-12-2019 13:15:00 3.8 C 5.52 g/m*3 1.7 C 8.1 km/h
161 02-12-2019 13:20:00 3.8 C 5.46 g/m*3 3.8 C 4.8 km/h
162 02-12-2019 13:25:00 3.9 C 5.49 g/m*3 3.9 C 4.8 km/h
163 02-12-2019 13:30:00 4 C 5.53 g/m*3 4 C 4.8 km/h
164 02-12-2019 13:35:00 4.1 C 5.63 g/m*3 4.1 C 4.8 km/h
165 02-12-2019 13:40:00 4.1 C 5.57 g/m*3 2.55 C 6.4 km/h
166 02-12-2019 13:45:00 4.2 C 5.61 g/m*3 2.67 C 6.4 km/h
167 02-12-2019 13:50:00 4.3 C 5.64 g/m*3 4.3 C 3.2 km/h
168 02-12-2019 13:55:00 4.3 C 5.71 g/m*3 2.78 C 6.4 km/h
169 02-12-2019 14:00:00 4.4 C 5.75 g/m*3 2.9 C 6.4 km/h
170 02-12-2019 14:05:00 4.5 C 5.78 g/m*3 3.02 C 6.4 km/h
171 02-12-2019 14:10:00 4.6 C 5.89 g/m*3 4.6 C 3.2 km/h
172 02-12-2019 14:15:00 4.6 C 5.89 g/m*3 4.6 C 0 km/h
173 02-12-2019 14:20:00 4.6 C 5.89 g/m*3 2.64 C 8.1 km/h
174 02-12-2019 14:25:00 4.7 C 5.93 g/m*3 3.25 C 6.4 km/h
175 02-12-2019 14:30:00 4.7 C 5.93 g/m*3 2.76 C 8.1 km/h
Sensor: Nr:Datum:Temp:Abs-Feuchte:Windchill:Wind:
Aussen-T/F 176 02-12-2019 14:35:00 4.8 C 5.97 g/m*3 3.36 C 6.4 km/h
177 02-12-2019 14:40:00 4.8 C 5.9 g/m*3 4.8 C 3.2 km/h
178 02-12-2019 14:45:00 4.9 C 5.94 g/m*3 4.9 C 3.2 km/h
179 02-12-2019 14:50:00 5 C 6.05 g/m*3 5 C 0 km/h
180 02-12-2019 14:55:00 5.1 C 6.02 g/m*3 5.1 C 3.2 km/h
181 02-12-2019 15:00:00 5.1 C 6.02 g/m*3 5.1 C 0 km/h
182 02-12-2019 15:05:00 5.2 C 6.13 g/m*3 5.2 C 0 km/h
183 02-12-2019 15:10:00 5.2 C 6.13 g/m*3 5.2 C 0 km/h
184 02-12-2019 15:15:00 5.2 C 6.06 g/m*3 5.2 C 4.8 km/h
185 02-12-2019 15:20:00 5.2 C 6.06 g/m*3 5.2 C 4.8 km/h
186 02-12-2019 15:25:00 5.2 C 6.06 g/m*3 5.2 C 3.2 km/h
187 02-12-2019 15:30:00 5.2 C 6.06 g/m*3 5.2 C 0 km/h
188 02-12-2019 15:35:00 5.2 C 6.13 g/m*3 5.2 C 0 km/h
189 02-12-2019 15:40:00 5.2 C 6.13 g/m*3 5.2 C 0 km/h
190 02-12-2019 15:45:00 5.2 C 6.2 g/m*3 5.2 C 1.6 km/h
191 02-12-2019 15:50:00 5.2 C 6.2 g/m*3 5.2 C 0 km/h
192 02-12-2019 15:55:00 5.2 C 6.27 g/m*3 5.2 C 0 km/h
193 02-12-2019 16:00:00 5.1 C 6.22 g/m*3 5.1 C 3.2 km/h
194 02-12-2019 16:05:00 5 C 6.18 g/m*3 5 C 3.2 km/h
195 02-12-2019 16:10:00 4.9 C 6.14 g/m*3 4.9 C 0 km/h
196 02-12-2019 16:15:00 4.8 C 6.17 g/m*3 4.8 C 0 km/h
197 02-12-2019 16:20:00 4.8 C 6.17 g/m*3 4.8 C 1.6 km/h
198 02-12-2019 16:25:00 4.7 C 6.13 g/m*3 4.7 C 3.2 km/h
199 02-12-2019 16:30:00 4.6 C 6.09 g/m*3 4.6 C 3.2 km/h
200 02-12-2019 16:35:00 4.6 C 6.09 g/m*3 4.6 C 1.6 km/h
Sensor: Nr:Datum:Temp:Abs-Feuchte:Windchill:Wind:
Aussen-T/F 201 02-12-2019 16:40:00 4.5 C 6.11 g/m*3 4.5 C 3.2 km/h
202 02-12-2019 16:45:00 4.4 C 6.07 g/m*3 2.9 C 6.4 km/h
203 02-12-2019 16:50:00 4.4 C 6.07 g/m*3 4.4 C 4.8 km/h
204 02-12-2019 16:55:00 4.3 C 6.03 g/m*3 4.3 C 3.2 km/h
205 02-12-2019 17:00:00 4.3 C 6.03 g/m*3 4.3 C 3.2 km/h
206 02-12-2019 17:05:00 4.3 C 6.03 g/m*3 4.3 C 0 km/h
207 02-12-2019 17:10:00 4.3 C 6.03 g/m*3 4.3 C 0 km/h
208 02-12-2019 17:15:00 4.3 C 6.03 g/m*3 4.3 C 1.6 km/h
209 02-12-2019 17:20:00 4.2 C 5.99 g/m*3 4.2 C 3.2 km/h
210 02-12-2019 17:25:00 4.2 C 5.99 g/m*3 4.2 C 0 km/h
211 02-12-2019 17:30:00 4.2 C 5.99 g/m*3 4.2 C 1.6 km/h
212 02-12-2019 17:35:00 4.2 C 5.99 g/m*3 4.2 C 3.2 km/h
213 02-12-2019 17:40:00 4.2 C 5.99 g/m*3 4.2 C 4.8 km/h
214 02-12-2019 17:45:00 4.1 C 5.95 g/m*3 4.1 C 0 km/h
215 02-12-2019 17:50:00 4.1 C 5.95 g/m*3 4.1 C 1.6 km/h
216 02-12-2019 17:55:00 4.1 C 5.95 g/m*3 4.1 C 0 km/h
217 02-12-2019 18:00:00 4.1 C 5.95 g/m*3 4.1 C 0 km/h
218 02-12-2019 18:05:00 4.1 C 5.95 g/m*3 4.1 C 3.2 km/h
219 02-12-2019 18:10:00 4.1 C 5.95 g/m*3 4.1 C 0 km/h
220 02-12-2019 18:15:00 4 C 5.98 g/m*3 4 C 0 km/h
221 02-12-2019 18:20:00 4 C 5.98 g/m*3 4 C 0 km/h
222 02-12-2019 18:25:00 4 C 5.98 g/m*3 4 C 0 km/h
223 02-12-2019 18:30:00 3.9 C 5.94 g/m*3 3.9 C 1.6 km/h
224 02-12-2019 18:35:00 3.8 C 5.83 g/m*3 3.8 C 0 km/h
225 02-12-2019 18:40:00 3.8 C 5.83 g/m*3 3.8 C 0 km/h
Sensor: Nr:Datum:Temp:Abs-Feuchte:Windchill:Wind:
Aussen-T/F 226 02-12-2019 18:45:00 3.7 C 5.8 g/m*3 3.7 C 0 km/h
227 02-12-2019 18:50:00 3.6 C 5.76 g/m*3 3.6 C 1.6 km/h
228 02-12-2019 18:55:00 3.4 C 5.68 g/m*3 3.4 C 0 km/h
229 02-12-2019 19:00:00 3.3 C 5.7 g/m*3 3.3 C 0 km/h
230 02-12-2019 19:05:00 3.3 C 5.7 g/m*3 3.3 C 0 km/h
231 02-12-2019 19:10:00 3.3 C 5.7 g/m*3 3.3 C 0 km/h
232 02-12-2019 19:15:00 3.3 C 5.7 g/m*3 3.3 C 1.6 km/h
233 02-12-2019 19:20:00 3.3 C 5.7 g/m*3 3.3 C 1.6 km/h
234 02-12-2019 19:25:00 3.4 C 5.74 g/m*3 3.4 C 0 km/h
235 02-12-2019 19:30:00 3.4 C 5.8 g/m*3 3.4 C 0 km/h
236 02-12-2019 19:35:00 3.4 C 5.8 g/m*3 3.4 C 0 km/h
237 02-12-2019 19:40:00 3.5 C 5.84 g/m*3 3.5 C 1.6 km/h
238 02-12-2019 19:45:00 3.6 C 5.88 g/m*3 3.6 C 0 km/h
239 02-12-2019 19:50:00 3.6 C 5.88 g/m*3 3.6 C 3.2 km/h
240 02-12-2019 19:55:00 3.7 C 5.92 g/m*3 3.7 C 3.2 km/h
241 02-12-2019 20:00:00 3.7 C 5.92 g/m*3 3.7 C 0 km/h
242 02-12-2019 20:05:00 3.7 C 5.92 g/m*3 3.7 C 0 km/h
243 02-12-2019 20:10:00 3.7 C 5.92 g/m*3 3.7 C 1.6 km/h
244 02-12-2019 20:15:00 3.7 C 5.92 g/m*3 3.7 C 3.2 km/h
245 02-12-2019 20:20:00 3.7 C 5.92 g/m*3 3.7 C 0 km/h
246 02-12-2019 20:25:00 3.7 C 5.92 g/m*3 3.7 C 0 km/h
247 02-12-2019 20:30:00 3.7 C 5.92 g/m*3 3.7 C 0 km/h
248 02-12-2019 20:35:00 3.7 C 5.92 g/m*3 3.7 C 0 km/h
249 02-12-2019 20:40:00 3.7 C 5.92 g/m*3 3.7 C 3.2 km/h
250 02-12-2019 20:45:00 3.7 C 5.92 g/m*3 2.09 C 6.4 km/h
Sensor: Nr:Datum:Temp:Abs-Feuchte:Windchill:Wind:
Aussen-T/F 251 02-12-2019 20:50:00 3.7 C 5.92 g/m*3 3.7 C 1.6 km/h
252 02-12-2019 20:55:00 3.7 C 5.92 g/m*3 3.7 C 4.8 km/h
253 02-12-2019 21:00:00 3.7 C 5.92 g/m*3 3.7 C 3.2 km/h
254 02-12-2019 21:05:00 3.7 C 5.92 g/m*3 3.7 C 1.6 km/h
255 02-12-2019 21:10:00 3.6 C 5.88 g/m*3 3.6 C 1.6 km/h
256 02-12-2019 21:15:00 3.7 C 5.92 g/m*3 1.58 C 8.1 km/h
257 02-12-2019 21:20:00 3.7 C 5.92 g/m*3 3.7 C 0 km/h
258 02-12-2019 21:25:00 3.6 C 5.88 g/m*3 1.98 C 6.4 km/h
259 02-12-2019 21:30:00 3.6 C 5.88 g/m*3 1.98 C 6.4 km/h
260 02-12-2019 21:35:00 3.6 C 5.88 g/m*3 3.6 C 4.8 km/h
261 02-12-2019 21:40:00 3.6 C 5.88 g/m*3 1.98 C 6.4 km/h
262 02-12-2019 21:45:00 3.6 C 5.88 g/m*3 3.6 C 0 km/h
263 02-12-2019 21:50:00 3.6 C 5.88 g/m*3 1.06 C 9.7 km/h
264 02-12-2019 21:55:00 3.6 C 5.88 g/m*3 1.06 C 9.7 km/h
265 02-12-2019 22:00:00 3.6 C 5.94 g/m*3 3.6 C 4.8 km/h
266 02-12-2019 22:05:00 3.5 C 5.9 g/m*3 3.5 C 3.2 km/h
267 02-12-2019 22:10:00 3.6 C 5.94 g/m*3 1.98 C 6.4 km/h
268 02-12-2019 22:15:00 3.5 C 5.9 g/m*3 3.5 C 4.8 km/h
269 02-12-2019 22:20:00 3.5 C 5.9 g/m*3 1.86 C 6.4 km/h
270 02-12-2019 22:25:00 3.5 C 5.9 g/m*3 3.5 C 3.2 km/h
271 02-12-2019 22:30:00 3.5 C 5.9 g/m*3 1.34 C 8.1 km/h
272 02-12-2019 22:35:00 3.4 C 5.86 g/m*3 3.4 C 4.8 km/h
273 02-12-2019 22:40:00 3.4 C 5.86 g/m*3 3.4 C 3.2 km/h
274 02-12-2019 22:45:00 3.4 C 5.86 g/m*3 3.4 C 3.2 km/h
275 02-12-2019 22:50:00 3.4 C 5.8 g/m*3 3.4 C 4.8 km/h
Sensor: Nr:Datum:Temp:Abs-Feuchte:Windchill:Wind:
Aussen-T/F 276 02-12-2019 22:55:00 3.4 C 5.86 g/m*3 3.4 C 0 km/h
277 02-12-2019 23:00:00 3.4 C 5.86 g/m*3 3.4 C 0 km/h
278 02-12-2019 23:05:00 3.4 C 5.86 g/m*3 3.4 C 3.2 km/h
279 02-12-2019 23:10:00 3.4 C 5.86 g/m*3 3.4 C 4.8 km/h
280 02-12-2019 23:15:00 3.4 C 5.86 g/m*3 3.4 C 3.2 km/h
281 02-12-2019 23:20:00 3.4 C 5.86 g/m*3 1.23 C 8.1 km/h
282 02-12-2019 23:25:00 3.4 C 5.86 g/m*3 3.4 C 0 km/h
283 02-12-2019 23:30:00 3.4 C 5.86 g/m*3 1.75 C 6.4 km/h
284 02-12-2019 23:35:00 3.4 C 5.86 g/m*3 1.75 C 6.4 km/h
285 02-12-2019 23:40:00 3.4 C 5.86 g/m*3 3.4 C 3.2 km/h
286 02-12-2019 23:45:00 3.4 C 5.86 g/m*3 3.4 C 0 km/h
287 02-12-2019 23:50:00 3.4 C 5.86 g/m*3 3.4 C 0 km/h
288 02-12-2019 23:55:00 3.4 C 5.86 g/m*3 1.75 C 6.4 km/h
289 03-12-2019 00:00:00 3.4 C 5.86 g/m*3 1.23 C 8.1 km/h
290 03-12-2019 00:05:00 3.4 C 5.86 g/m*3 3.4 C 4.8 km/h
291 03-12-2019 00:10:00 3.4 C 5.86 g/m*3 1.75 C 6.4 km/h
292 03-12-2019 00:15:00 3.4 C 5.86 g/m*3 3.4 C 4.8 km/h
293 03-12-2019 00:20:00 3.4 C 5.86 g/m*3 3.4 C 3.2 km/h
294 03-12-2019 00:25:00 3.4 C 5.86 g/m*3 3.4 C 4.8 km/h
295 03-12-2019 00:30:00 3.4 C 5.86 g/m*3 1.23 C 8.1 km/h
296 03-12-2019 00:35:00 3.4 C 5.86 g/m*3 0.46 C 11.3 km/h
297 03-12-2019 00:40:00 3.4 C 5.86 g/m*3 0.82 C 9.7 km/h
298 03-12-2019 00:45:00 3.4 C 5.86 g/m*3 1.75 C 6.4 km/h
299 03-12-2019 00:50:00 3.4 C 5.86 g/m*3 1.23 C 8.1 km/h
300 03-12-2019 00:55:00 3.5 C 5.9 g/m*3 0.94 C 9.7 km/h
Sensor: Nr:Datum:Temp:Abs-Feuchte:Windchill:Wind:
Aussen-T/F 301 03-12-2019 01:00:00 3.5 C 5.9 g/m*3 1.86 C 6.4 km/h
302 03-12-2019 01:05:00 3.5 C 5.9 g/m*3 3.5 C 4.8 km/h
303 03-12-2019 01:10:00 3.5 C 5.9 g/m*3 3.5 C 3.2 km/h
304 03-12-2019 01:15:00 3.5 C 5.9 g/m*3 1.34 C 8.1 km/h
305 03-12-2019 01:20:00 3.5 C 5.9 g/m*3 1.86 C 6.4 km/h
306 03-12-2019 01:25:00 3.6 C 5.94 g/m*3 3.6 C 1.6 km/h
307 03-12-2019 01:30:00 3.6 C 5.94 g/m*3 1.98 C 6.4 km/h
308 03-12-2019 01:35:00 3.6 C 5.94 g/m*3 1.98 C 6.4 km/h
309 03-12-2019 01:40:00 3.6 C 5.94 g/m*3 3.6 C 4.8 km/h
310 03-12-2019 01:45:00 3.6 C 5.94 g/m*3 3.6 C 4.8 km/h
311 03-12-2019 01:50:00 3.6 C 5.94 g/m*3 3.6 C 1.6 km/h
312 03-12-2019 01:55:00 3.6 C 5.94 g/m*3 3.6 C 3.2 km/h
313 03-12-2019 02:00:00 3.6 C 5.94 g/m*3 3.6 C 0 km/h
314 03-12-2019 02:05:00 3.7 C 5.98 g/m*3 3.7 C 4.8 km/h
315 03-12-2019 02:10:00 3.7 C 5.98 g/m*3 1.58 C 8.1 km/h
316 03-12-2019 02:15:00 3.7 C 5.98 g/m*3 3.7 C 0 km/h
317 03-12-2019 02:20:00 3.7 C 5.98 g/m*3 3.7 C 1.6 km/h
318 03-12-2019 02:25:00 3.7 C 5.98 g/m*3 3.7 C 0 km/h
319 03-12-2019 02:30:00 3.7 C 5.98 g/m*3 3.7 C 3.2 km/h
320 03-12-2019 02:35:00 3.7 C 5.98 g/m*3 3.7 C 0 km/h
321 03-12-2019 02:40:00 3.7 C 5.98 g/m*3 3.7 C 0 km/h
322 03-12-2019 02:45:00 3.8 C 6.02 g/m*3 3.8 C 3.2 km/h
323 03-12-2019 02:50:00 3.8 C 6.02 g/m*3 3.8 C 0 km/h
324 03-12-2019 02:55:00 3.8 C 6.02 g/m*3 3.8 C 3.2 km/h
325 03-12-2019 03:00:00 3.8 C 6.02 g/m*3 1.29 C 9.7 km/h
Sensor: Nr:Datum:Temp:Abs-Feuchte:Windchill:Wind:
Aussen-T/F 326 03-12-2019 03:05:00 3.8 C 6.02 g/m*3 3.8 C 0 km/h
327 03-12-2019 03:10:00 3.8 C 6.02 g/m*3 3.8 C 4.8 km/h
328 03-12-2019 03:15:00 3.8 C 6.02 g/m*3 1.7 C 8.1 km/h
329 03-12-2019 03:20:00 3.8 C 6.02 g/m*3 3.8 C 1.6 km/h
330 03-12-2019 03:25:00 3.8 C 6.02 g/m*3 2.21 C 6.4 km/h
331 03-12-2019 03:30:00 3.8 C 6.02 g/m*3 3.8 C 4.8 km/h
332 03-12-2019 03:35:00 3.8 C 6.02 g/m*3 2.21 C 6.4 km/h
333 03-12-2019 03:40:00 3.8 C 6.09 g/m*3 2.21 C 6.4 km/h
334 03-12-2019 03:45:00 3.8 C 6.09 g/m*3 3.8 C 3.2 km/h
335 03-12-2019 03:50:00 3.8 C 6.09 g/m*3 2.21 C 6.4 km/h
336 03-12-2019 03:55:00 3.8 C 6.09 g/m*3 3.8 C 4.8 km/h
337 03-12-2019 04:00:00 3.9 C 6.06 g/m*3 1.82 C 8.1 km/h
338 03-12-2019 04:05:00 3.8 C 6.02 g/m*3 1.7 C 8.1 km/h
339 03-12-2019 04:10:00 3.9 C 6.13 g/m*3 3.9 C 4.8 km/h
340 03-12-2019 04:15:00 3.9 C 6.13 g/m*3 3.9 C 4.8 km/h
341 03-12-2019 04:20:00 3.9 C 6.13 g/m*3 1.82 C 8.1 km/h
342 03-12-2019 04:25:00 3.9 C 6.13 g/m*3 2.32 C 6.4 km/h
343 03-12-2019 04:30:00 3.9 C 6.13 g/m*3 2.32 C 6.4 km/h
344 03-12-2019 04:35:00 3.9 C 6.13 g/m*3 2.32 C 6.4 km/h
345 03-12-2019 04:40:00 3.9 C 6.13 g/m*3 2.32 C 6.4 km/h
346 03-12-2019 04:45:00 3.9 C 6.13 g/m*3 1.82 C 8.1 km/h
347 03-12-2019 04:50:00 3.9 C 6.13 g/m*3 2.32 C 6.4 km/h
348 03-12-2019 04:55:00 3.9 C 6.13 g/m*3 3.9 C 4.8 km/h
349 03-12-2019 05:00:00 3.9 C 6.13 g/m*3 3.9 C 1.6 km/h
350 03-12-2019 05:05:00 3.9 C 6.13 g/m*3 3.9 C 1.6 km/h
Sensor: Nr:Datum:Temp:Abs-Feuchte:Windchill:Wind:
Aussen-T/F 351 03-12-2019 05:10:00 4 C 6.17 g/m*3 4 C 1.6 km/h
352 03-12-2019 05:15:00 4 C 6.17 g/m*3 4 C 4.8 km/h
353 03-12-2019 05:20:00 4 C 6.17 g/m*3 2.44 C 6.4 km/h
354 03-12-2019 05:25:00 4 C 6.17 g/m*3 2.44 C 6.4 km/h
355 03-12-2019 05:30:00 4 C 6.17 g/m*3 2.44 C 6.4 km/h
356 03-12-2019 05:35:00 4 C 6.17 g/m*3 1.93 C 8.1 km/h
357 03-12-2019 05:40:00 4.1 C 6.21 g/m*3 4.1 C 4.8 km/h
358 03-12-2019 05:45:00 4.1 C 6.21 g/m*3 4.1 C 3.2 km/h
359 03-12-2019 05:50:00 4.1 C 6.21 g/m*3 4.1 C 3.2 km/h
360 03-12-2019 05:55:00 4.1 C 6.21 g/m*3 4.1 C 3.2 km/h
361 03-12-2019 06:00:00 4.1 C 6.21 g/m*3 4.1 C 3.2 km/h
362 03-12-2019 06:05:00 4.1 C 6.21 g/m*3 4.1 C 1.6 km/h
363 03-12-2019 06:10:00 4.1 C 6.21 g/m*3 4.1 C 0 km/h
364 03-12-2019 06:15:00 4.1 C 6.21 g/m*3 4.1 C 4.8 km/h
365 03-12-2019 06:20:00 4.1 C 6.21 g/m*3 4.1 C 3.2 km/h
366 03-12-2019 06:25:00 4.1 C 6.21 g/m*3 4.1 C 0 km/h
367 03-12-2019 06:30:00 4.1 C 6.21 g/m*3 4.1 C 4.8 km/h
368 03-12-2019 06:35:00 4.1 C 6.21 g/m*3 4.1 C 0 km/h
369 03-12-2019 06:40:00 4.1 C 6.21 g/m*3 4.1 C 1.6 km/h
370 03-12-2019 06:45:00 4.1 C 6.21 g/m*3 4.1 C 1.6 km/h
371 03-12-2019 06:50:00 4.1 C 6.21 g/m*3 4.1 C 0 km/h
372 03-12-2019 06:55:00 4.1 C 6.21 g/m*3 4.1 C 0 km/h
373 03-12-2019 07:00:00 4.2 C 6.25 g/m*3 4.2 C 3.2 km/h
374 03-12-2019 07:05:00 4.2 C 6.25 g/m*3 4.2 C 1.6 km/h
375 03-12-2019 07:10:00 4.2 C 6.25 g/m*3 4.2 C 1.6 km/h
Sensor: Nr:Datum:Temp:Abs-Feuchte:Windchill:Wind:
Aussen-T/F 376 03-12-2019 07:15:00 4.2 C 6.25 g/m*3 4.2 C 3.2 km/h
377 03-12-2019 07:20:00 4.2 C 6.25 g/m*3 4.2 C 4.8 km/h
378 03-12-2019 07:25:00 4.1 C 6.21 g/m*3 4.1 C 3.2 km/h
379 03-12-2019 07:30:00 4.2 C 6.25 g/m*3 4.2 C 1.6 km/h
380 03-12-2019 07:35:00 4.2 C 6.25 g/m*3 4.2 C 4.8 km/h
381 03-12-2019 07:40:00 4.2 C 6.25 g/m*3 2.17 C 8.1 km/h
382 03-12-2019 07:45:00 4.2 C 6.25 g/m*3 2.67 C 6.4 km/h
383 03-12-2019 07:50:00 4.2 C 6.25 g/m*3 2.67 C 6.4 km/h
384 03-12-2019 07:55:00 4.2 C 6.25 g/m*3 4.2 C 3.2 km/h
385 03-12-2019 08:00:00 4.2 C 6.25 g/m*3 2.17 C 8.1 km/h
386 03-12-2019 08:05:00 4.2 C 6.25 g/m*3 4.2 C 1.6 km/h
387 03-12-2019 08:10:00 4.2 C 6.25 g/m*3 2.67 C 6.4 km/h
388 03-12-2019 08:15:00 4.2 C 6.25 g/m*3 2.67 C 6.4 km/h
389 03-12-2019 08:20:00 4.2 C 6.25 g/m*3 4.2 C 4.8 km/h
390 03-12-2019 08:25:00 4.2 C 6.25 g/m*3 4.2 C 4.8 km/h
391 03-12-2019 08:30:00 4.2 C 6.25 g/m*3 4.2 C 3.2 km/h
392 03-12-2019 08:35:00 4.2 C 6.25 g/m*3 2.17 C 8.1 km/h
393 03-12-2019 08:40:00 4.3 C 6.29 g/m*3 1.89 C 9.7 km/h
394 03-12-2019 08:45:00 4.3 C 6.29 g/m*3 4.3 C 3.2 km/h
395 03-12-2019 08:50:00 4.3 C 6.29 g/m*3 2.78 C 6.4 km/h
396 03-12-2019 08:55:00 4.3 C 6.29 g/m*3 4.3 C 4.8 km/h
397 03-12-2019 09:00:00 4.3 C 6.29 g/m*3 4.3 C 1.6 km/h
398 03-12-2019 09:05:00 4.3 C 6.29 g/m*3 4.3 C 4.8 km/h
399 03-12-2019 09:10:00 4.3 C 6.29 g/m*3 4.3 C 4.8 km/h
400 03-12-2019 09:15:00 4.3 C 6.29 g/m*3 4.3 C 3.2 km/h
Sensor: Nr:Datum:Temp:Abs-Feuchte:Windchill:Wind:
Aussen-T/F 401 03-12-2019 09:20:00 4.3 C 6.29 g/m*3 2.78 C 6.4 km/h
402 03-12-2019 09:25:00 4.3 C 6.29 g/m*3 4.3 C 3.2 km/h
403 03-12-2019 09:30:00 4.4 C 6.33 g/m*3 2.9 C 6.4 km/h
404 03-12-2019 09:35:00 4.4 C 6.33 g/m*3 2.9 C 6.4 km/h
405 03-12-2019 09:40:00 4.4 C 6.33 g/m*3 2.9 C 6.4 km/h
406 03-12-2019 09:45:00 4.4 C 6.33 g/m*3 4.4 C 1.6 km/h
407 03-12-2019 09:50:00 4.4 C 6.33 g/m*3 2.9 C 6.4 km/h
408 03-12-2019 09:55:00 4.4 C 6.33 g/m*3 2.4 C 8.1 km/h
409 03-12-2019 10:00:00 4.4 C 6.33 g/m*3 2.4 C 8.1 km/h
410 03-12-2019 10:05:00 4.5 C 6.38 g/m*3 3.02 C 6.4 km/h
411 03-12-2019 10:10:00 4.5 C 6.38 g/m*3 4.5 C 3.2 km/h
412 03-12-2019 10:15:00 4.6 C 6.42 g/m*3 3.13 C 6.4 km/h
413 03-12-2019 10:20:00 4.6 C 6.42 g/m*3 2.64 C 8.1 km/h
414 03-12-2019 10:25:00 4.6 C 6.42 g/m*3 2.25 C 9.7 km/h
415 03-12-2019 10:30:00 4.6 C 6.42 g/m*3 4.6 C 4.8 km/h
416 03-12-2019 10:35:00 4.6 C 6.42 g/m*3 3.13 C 6.4 km/h
417 03-12-2019 10:40:00 4.7 C 6.46 g/m*3 4.7 C 3.2 km/h
418 03-12-2019 10:45:00 4.7 C 6.46 g/m*3 4.7 C 4.8 km/h
419 03-12-2019 10:50:00 4.8 C 6.5 g/m*3 4.8 C 3.2 km/h
420 03-12-2019 10:55:00 4.8 C 6.5 g/m*3 4.8 C 1.6 km/h
421 03-12-2019 11:00:00 4.8 C 6.5 g/m*3 4.8 C 3.2 km/h
422 03-12-2019 11:05:00 4.9 C 6.55 g/m*3 4.9 C 4.8 km/h
423 03-12-2019 11:10:00 5 C 6.59 g/m*3 5 C 3.2 km/h
424 03-12-2019 11:15:00 5.1 C 6.63 g/m*3 5.1 C 0 km/h
425 03-12-2019 11:20:00 5.1 C 6.63 g/m*3 5.1 C 3.2 km/h
Sensor: Nr:Datum:Temp:Abs-Feuchte:Windchill:Wind:
Aussen-T/F 426 03-12-2019 11:25:00 5.2 C 6.68 g/m*3 5.2 C 3.2 km/h
427 03-12-2019 11:30:00 5.2 C 6.68 g/m*3 5.2 C 3.2 km/h
428 03-12-2019 11:35:00 5.2 C 6.68 g/m*3 5.2 C 3.2 km/h
429 03-12-2019 11:40:00 5.2 C 6.68 g/m*3 5.2 C 4.8 km/h
430 03-12-2019 11:45:00 5.2 C 6.68 g/m*3 5.2 C 3.2 km/h
431 03-12-2019 11:50:00 5.2 C 6.68 g/m*3 5.2 C 3.2 km/h
432 03-12-2019 11:55:00 5.3 C 6.72 g/m*3 5.3 C 3.2 km/h
433 03-12-2019 12:00:00 5.3 C 6.72 g/m*3 5.3 C 0 km/h
434 03-12-2019 12:05:00 5.4 C 6.77 g/m*3 5.4 C 3.2 km/h
435 03-12-2019 12:10:00 5.5 C 6.81 g/m*3 5.5 C 3.2 km/h
436 03-12-2019 12:15:00 5.5 C 6.81 g/m*3 5.5 C 3.2 km/h
437 03-12-2019 12:20:00 5.6 C 6.86 g/m*3 5.6 C 1.6 km/h
438 03-12-2019 12:25:00 5.6 C 6.86 g/m*3 5.6 C 3.2 km/h
439 03-12-2019 12:30:00 5.6 C 6.86 g/m*3 5.6 C 3.2 km/h
440 03-12-2019 12:35:00 5.7 C 6.9 g/m*3 5.7 C 4.8 km/h
441 03-12-2019 12:40:00 5.7 C 6.9 g/m*3 5.7 C 4.8 km/h
442 03-12-2019 12:45:00 5.7 C 6.9 g/m*3 5.7 C 3.2 km/h
443 03-12-2019 12:50:00 5.8 C 6.95 g/m*3 5.8 C 4.8 km/h
444 03-12-2019 12:55:00 5.8 C 6.95 g/m*3 4.52 C 6.4 km/h
445 03-12-2019 13:00:00 5.8 C 6.88 g/m*3 4.52 C 6.4 km/h
446 03-12-2019 13:05:00 5.9 C 6.92 g/m*3 5.9 C 4.8 km/h
447 03-12-2019 13:10:00 5.9 C 6.92 g/m*3 5.9 C 3.2 km/h
448 03-12-2019 13:15:00 5.9 C 6.92 g/m*3 5.9 C 3.2 km/h
449 03-12-2019 13:20:00 6.1 C 7.01 g/m*3 6.1 C 4.8 km/h
450 03-12-2019 13:25:00 6.1 C 7.01 g/m*3 6.1 C 3.2 km/h
Sensor: Nr:Datum:Temp:Abs-Feuchte:Windchill:Wind:
Aussen-T/F 451 03-12-2019 13:30:00 6.1 C 7.01 g/m*3 6.1 C 3.2 km/h
452 03-12-2019 13:35:00 6.2 C 7.06 g/m*3 6.2 C 3.2 km/h
453 03-12-2019 13:40:00 6.2 C 7.06 g/m*3 4.98 C 6.4 km/h
454 03-12-2019 13:45:00 6.2 C 7.06 g/m*3 6.2 C 4.8 km/h
455 03-12-2019 13:50:00 6.2 C 7.06 g/m*3 6.2 C 4.8 km/h
456 03-12-2019 13:55:00 6.2 C 7.06 g/m*3 6.2 C 3.2 km/h
457 03-12-2019 14:00:00 6.3 C 7.03 g/m*3 6.3 C 3.2 km/h
458 03-12-2019 14:05:00 6.3 C 7.03 g/m*3 6.3 C 1.6 km/h
459 03-12-2019 14:10:00 6.4 C 7.15 g/m*3 6.4 C 1.6 km/h
460 03-12-2019 14:15:00 6.5 C 7.2 g/m*3 6.5 C 1.6 km/h
461 03-12-2019 14:20:00 6.5 C 7.12 g/m*3 6.5 C 1.6 km/h
462 03-12-2019 14:25:00 6.6 C 7.17 g/m*3 6.6 C 1.6 km/h
463 03-12-2019 14:30:00 6.6 C 7.17 g/m*3 6.6 C 0 km/h
464 03-12-2019 14:35:00 6.6 C 7.17 g/m*3 6.6 C 0 km/h
465 03-12-2019 14:40:00 6.6 C 7.17 g/m*3 6.6 C 1.6 km/h
466 03-12-2019 14:45:00 6.6 C 7.17 g/m*3 6.6 C 0 km/h
467 03-12-2019 14:50:00 6.6 C 7.1 g/m*3 6.6 C 0 km/h
468 03-12-2019 14:55:00 6.6 C 7.1 g/m*3 6.6 C 0 km/h
469 03-12-2019 15:00:00 6.6 C 7.1 g/m*3 6.6 C 0 km/h
470 03-12-2019 15:05:00 6.6 C 7.1 g/m*3 6.6 C 0 km/h
471 03-12-2019 15:10:00 6.6 C 7.1 g/m*3 6.6 C 0 km/h
472 03-12-2019 15:15:00 6.7 C 7.14 g/m*3 6.7 C 0 km/h
473 03-12-2019 15:20:00 6.7 C 7.14 g/m*3 6.7 C 0 km/h
474 03-12-2019 15:25:00 6.7 C 7.14 g/m*3 6.7 C 0 km/h
475 03-12-2019 15:30:00 6.7 C 7.14 g/m*3 6.7 C 0 km/h
Sensor: Nr:Datum:Temp:Abs-Feuchte:Windchill:Wind:
Aussen-T/F 476 03-12-2019 15:35:00 6.7 C 7.14 g/m*3 6.7 C 0 km/h
477 03-12-2019 15:40:00 6.7 C 7.14 g/m*3 6.7 C 0 km/h
478 03-12-2019 15:45:00 6.7 C 7.14 g/m*3 6.7 C 0 km/h
479 03-12-2019 15:50:00 6.7 C 7.14 g/m*3 6.7 C 0 km/h
480 03-12-2019 15:55:00 6.7 C 7.14 g/m*3 6.7 C 0 km/h
481 03-12-2019 16:00:00 6.7 C 7.14 g/m*3 6.7 C 0 km/h
482 03-12-2019 16:05:00 6.7 C 7.14 g/m*3 6.7 C 0 km/h
483 03-12-2019 16:10:00 6.7 C 7.14 g/m*3 6.7 C 0 km/h
484 03-12-2019 16:15:00 6.6 C 7.17 g/m*3 6.6 C 0 km/h
485 03-12-2019 16:20:00 6.6 C 7.17 g/m*3 6.6 C 0 km/h
486 03-12-2019 16:25:00 6.5 C 7.12 g/m*3 6.5 C 0 km/h
487 03-12-2019 16:30:00 6.4 C 7.08 g/m*3 6.4 C 0 km/h
488 03-12-2019 16:35:00 6.4 C 7 g/m*3 6.4 C 0 km/h
489 03-12-2019 16:40:00 6.3 C 6.96 g/m*3 6.3 C 0 km/h
490 03-12-2019 16:45:00 6.3 C 6.96 g/m*3 6.3 C 0 km/h
491 03-12-2019 16:50:00 6.2 C 6.99 g/m*3 6.2 C 0 km/h
492 03-12-2019 16:55:00 6.2 C 6.99 g/m*3 6.2 C 0 km/h
493 03-12-2019 17:00:00 6.2 C 6.99 g/m*3 6.2 C 0 km/h
494 03-12-2019 17:05:00 6.1 C 6.94 g/m*3 6.1 C 0 km/h
495 03-12-2019 17:10:00 6.1 C 6.94 g/m*3 6.1 C 0 km/h
496 03-12-2019 17:15:00 6.1 C 6.94 g/m*3 6.1 C 0 km/h
497 03-12-2019 17:20:00 6 C 6.9 g/m*3 6 C 0 km/h
498 03-12-2019 17:25:00 6 C 6.9 g/m*3 6 C 0 km/h
499 03-12-2019 17:30:00 5.9 C 6.85 g/m*3 5.9 C 0 km/h
500 03-12-2019 17:35:00 5.9 C 6.85 g/m*3 5.9 C 0 km/h
Sensor: Nr:Datum:Temp:Abs-Feuchte:Windchill:Wind:
Aussen-T/F 501 03-12-2019 17:40:00 5.9 C 6.85 g/m*3 5.9 C 0 km/h
502 03-12-2019 17:45:00 5.9 C 6.85 g/m*3 5.9 C 0 km/h
503 03-12-2019 17:50:00 5.9 C 6.85 g/m*3 5.9 C 0 km/h
504 03-12-2019 17:55:00 5.8 C 6.81 g/m*3 5.8 C 0 km/h
505 03-12-2019 18:00:00 5.8 C 6.81 g/m*3 5.8 C 0 km/h
506 03-12-2019 18:05:00 5.8 C 6.81 g/m*3 5.8 C 0 km/h
507 03-12-2019 18:10:00 5.7 C 6.76 g/m*3 5.7 C 0 km/h
508 03-12-2019 18:15:00 5.7 C 6.76 g/m*3 5.7 C 0 km/h
509 03-12-2019 18:20:00 5.6 C 6.72 g/m*3 5.6 C 0 km/h
510 03-12-2019 18:25:00 5.6 C 6.72 g/m*3 5.6 C 0 km/h
511 03-12-2019 18:30:00 5.5 C 6.67 g/m*3 5.5 C 0 km/h
512 03-12-2019 18:35:00 5.5 C 6.67 g/m*3 5.5 C 0 km/h
513 03-12-2019 18:40:00 5.4 C 6.63 g/m*3 5.4 C 0 km/h
514 03-12-2019 18:45:00 5.4 C 6.63 g/m*3 5.4 C 0 km/h
515 03-12-2019 18:50:00 5.4 C 6.7 g/m*3 5.4 C 0 km/h
516 03-12-2019 18:55:00 5.4 C 6.7 g/m*3 5.4 C 0 km/h
517 03-12-2019 19:00:00 5.4 C 6.7 g/m*3 5.4 C 0 km/h
518 03-12-2019 19:05:00 5.4 C 6.7 g/m*3 5.4 C 0 km/h
519 03-12-2019 19:10:00 5.4 C 6.63 g/m*3 5.4 C 1.6 km/h
520 03-12-2019 19:15:00 5.4 C 6.63 g/m*3 5.4 C 0 km/h
521 03-12-2019 19:20:00 5.3 C 6.58 g/m*3 5.3 C 1.6 km/h
522 03-12-2019 19:25:00 5.3 C 6.58 g/m*3 5.3 C 1.6 km/h
523 03-12-2019 19:30:00 5.3 C 6.58 g/m*3 5.3 C 3.2 km/h
524 03-12-2019 19:35:00 5.3 C 6.65 g/m*3 5.3 C 0 km/h
525 03-12-2019 19:40:00 5.2 C 6.61 g/m*3 5.2 C 0 km/h
Sensor: Nr:Datum:Temp:Abs-Feuchte:Windchill:Wind:
Aussen-T/F 526 03-12-2019 19:45:00 5.2 C 6.61 g/m*3 5.2 C 0 km/h
527 03-12-2019 19:50:00 5.2 C 6.61 g/m*3 5.2 C 0 km/h
528 03-12-2019 19:55:00 5.1 C 6.57 g/m*3 5.1 C 0 km/h
529 03-12-2019 20:00:00 5.1 C 6.5 g/m*3 5.1 C 0 km/h
530 03-12-2019 20:05:00 5.1 C 6.5 g/m*3 5.1 C 0 km/h
531 03-12-2019 20:10:00 5 C 6.46 g/m*3 5 C 0 km/h
532 03-12-2019 20:15:00 5 C 6.52 g/m*3 5 C 0 km/h
533 03-12-2019 20:20:00 5 C 6.52 g/m*3 5 C 0 km/h
534 03-12-2019 20:25:00 4.9 C 6.48 g/m*3 4.9 C 0 km/h
535 03-12-2019 20:30:00 4.9 C 6.48 g/m*3 4.9 C 0 km/h
536 03-12-2019 20:35:00 4.9 C 6.48 g/m*3 4.9 C 0 km/h
537 03-12-2019 20:40:00 4.9 C 6.48 g/m*3 4.9 C 0 km/h
538 03-12-2019 20:45:00 4.8 C 6.44 g/m*3 4.8 C 0 km/h
539 03-12-2019 20:50:00 4.8 C 6.44 g/m*3 4.8 C 0 km/h
540 03-12-2019 20:55:00 4.8 C 6.44 g/m*3 4.8 C 0 km/h
541 03-12-2019 21:00:00 4.7 C 6.39 g/m*3 4.7 C 0 km/h
542 03-12-2019 21:05:00 4.7 C 6.39 g/m*3 4.7 C 0 km/h
543 03-12-2019 21:10:00 4.7 C 6.39 g/m*3 4.7 C 0 km/h
544 03-12-2019 21:15:00 4.7 C 6.39 g/m*3 4.7 C 0 km/h
545 03-12-2019 21:20:00 4.7 C 6.39 g/m*3 4.7 C 0 km/h
546 03-12-2019 21:25:00 4.7 C 6.39 g/m*3 4.7 C 0 km/h
547 03-12-2019 21:30:00 4.7 C 6.39 g/m*3 4.7 C 0 km/h
548 03-12-2019 21:35:00 4.7 C 6.39 g/m*3 4.7 C 0 km/h
549 03-12-2019 21:40:00 4.6 C 6.35 g/m*3 4.6 C 0 km/h
550 03-12-2019 21:45:00 4.4 C 6.27 g/m*3 4.4 C 0 km/h
Sensor: Nr:Datum:Temp:Abs-Feuchte:Windchill:Wind:
Aussen-T/F 551 03-12-2019 21:50:00 4.3 C 6.16 g/m*3 4.3 C 0 km/h
552 03-12-2019 21:55:00 4.3 C 6.16 g/m*3 4.3 C 0 km/h
553 03-12-2019 22:00:00 4.1 C 6.08 g/m*3 4.1 C 0 km/h
554 03-12-2019 22:05:00 4.1 C 6.08 g/m*3 4.1 C 0 km/h
555 03-12-2019 22:10:00 4 C 6.04 g/m*3 4 C 0 km/h
556 03-12-2019 22:15:00 4 C 6.1 g/m*3 4 C 4.8 km/h
557 03-12-2019 22:20:00 4 C 6.1 g/m*3 4 C 0 km/h
558 03-12-2019 22:25:00 3.9 C 6.06 g/m*3 3.9 C 3.2 km/h
559 03-12-2019 22:30:00 3.9 C 6.06 g/m*3 3.9 C 1.6 km/h
560 03-12-2019 22:35:00 3.9 C 6.06 g/m*3 3.9 C 4.8 km/h
561 03-12-2019 22:40:00 3.9 C 6.06 g/m*3 3.9 C 4.8 km/h
562 03-12-2019 22:45:00 4.1 C 6.14 g/m*3 4.1 C 4.8 km/h
563 03-12-2019 22:50:00 4.1 C 6.14 g/m*3 4.1 C 3.2 km/h
564 03-12-2019 22:55:00 4.1 C 6.14 g/m*3 4.1 C 1.6 km/h
565 03-12-2019 23:00:00 3.9 C 6.06 g/m*3 3.9 C 0 km/h
566 03-12-2019 23:05:00 3.7 C 5.92 g/m*3 3.7 C 0 km/h
567 03-12-2019 23:10:00 3.5 C 5.84 g/m*3 3.5 C 3.2 km/h
568 03-12-2019 23:15:00 3.4 C 5.8 g/m*3 3.4 C 3.2 km/h
569 03-12-2019 23:20:00 3.4 C 5.86 g/m*3 3.4 C 3.2 km/h
570 03-12-2019 23:25:00 3.4 C 5.86 g/m*3 3.4 C 4.8 km/h
571 03-12-2019 23:30:00 3.4 C 5.86 g/m*3 3.4 C 3.2 km/h
572 03-12-2019 23:35:00 3.4 C 5.86 g/m*3 3.4 C 3.2 km/h
573 03-12-2019 23:40:00 3.4 C 5.86 g/m*3 3.4 C 4.8 km/h
574 03-12-2019 23:45:00 3.4 C 5.86 g/m*3 3.4 C 4.8 km/h
575 03-12-2019 23:50:00 3.4 C 5.86 g/m*3 3.4 C 3.2 km/h
Sensor: Nr:Datum:Temp:Abs-Feuchte:Windchill:Wind:
Aussen-T/F 576 03-12-2019 23:55:00 3.3 C 5.82 g/m*3 3.3 C 1.6 km/h
577 04-12-2019 00:00:00 3.2 C 5.72 g/m*3 3.2 C 3.2 km/h
578 04-12-2019 00:05:00 3.2 C 5.79 g/m*3 3.2 C 0 km/h
579 04-12-2019 00:10:00 3 C 5.65 g/m*3 3 C 0 km/h
580 04-12-2019 00:15:00 2.8 C 5.57 g/m*3 2.8 C 0 km/h
581 04-12-2019 00:20:00 2.6 C 5.5 g/m*3 2.6 C 1.6 km/h
582 04-12-2019 00:25:00 2.4 C 5.42 g/m*3 2.4 C 0 km/h
583 04-12-2019 00:30:00 2.3 C 5.39 g/m*3 2.3 C 0 km/h
584 04-12-2019 00:35:00 2.1 C 5.31 g/m*3 2.1 C 0 km/h
585 04-12-2019 00:40:00 2 C 5.28 g/m*3 2 C 0 km/h
586 04-12-2019 00:45:00 1.9 C 5.24 g/m*3 1.9 C 0 km/h
587 04-12-2019 00:50:00 1.8 C 5.21 g/m*3 1.8 C 0 km/h
588 04-12-2019 00:55:00 1.7 C 5.17 g/m*3 1.7 C 0 km/h
589 04-12-2019 01:00:00 1.6 C 5.14 g/m*3 1.6 C 0 km/h
590 04-12-2019 01:05:00 1.5 C 5.1 g/m*3 1.5 C 0 km/h
591 04-12-2019 01:10:00 1.4 C 5.07 g/m*3 1.4 C 0 km/h
592 04-12-2019 01:15:00 1.4 C 5.07 g/m*3 1.4 C 0 km/h
593 04-12-2019 01:20:00 1.3 C 5.03 g/m*3 1.3 C 0 km/h
594 04-12-2019 01:25:00 1.2 C 5 g/m*3 1.2 C 0 km/h
595 04-12-2019 01:30:00 1.2 C 5.05 g/m*3 1.2 C 0 km/h
596 04-12-2019 01:35:00 1.2 C 5.05 g/m*3 1.2 C 0 km/h
597 04-12-2019 01:40:00 1.1 C 5.02 g/m*3 1.1 C 0 km/h
598 04-12-2019 01:45:00 1.1 C 5.02 g/m*3 1.1 C 0 km/h
599 04-12-2019 01:50:00 1 C 4.98 g/m*3 1 C 0 km/h
600 04-12-2019 01:55:00 0.9 C 4.95 g/m*3 0.9 C 0 km/h
Sensor: Nr:Datum:Temp:Abs-Feuchte:Windchill:Wind:
Aussen-T/F 601 04-12-2019 02:00:00 0.9 C 4.95 g/m*3 0.9 C 0 km/h
602 04-12-2019 02:05:00 0.9 C 4.95 g/m*3 0.9 C 0 km/h
603 04-12-2019 02:10:00 0.8 C 4.91 g/m*3 0.8 C 0 km/h
604 04-12-2019 02:15:00 0.8 C 4.91 g/m*3 0.8 C 0 km/h
605 04-12-2019 02:20:00 0.8 C 4.91 g/m*3 0.8 C 0 km/h
606 04-12-2019 02:25:00 0.8 C 4.91 g/m*3 0.8 C 0 km/h
607 04-12-2019 02:30:00 0.9 C 4.95 g/m*3 0.9 C 0 km/h
608 04-12-2019 02:35:00 0.8 C 4.91 g/m*3 0.8 C 0 km/h
609 04-12-2019 02:40:00 0.9 C 4.95 g/m*3 0.9 C 0 km/h
610 04-12-2019 02:45:00 1 C 4.98 g/m*3 1 C 0 km/h
611 04-12-2019 02:50:00 1.1 C 5.02 g/m*3 1.1 C 0 km/h
612 04-12-2019 02:55:00 1.2 C 5.05 g/m*3 1.2 C 0 km/h
613 04-12-2019 03:00:00 1.3 C 5.14 g/m*3 1.3 C 0 km/h
614 04-12-2019 03:05:00 1.3 C 5.14 g/m*3 1.3 C 0 km/h
615 04-12-2019 03:10:00 1.4 C 5.17 g/m*3 1.4 C 0 km/h
616 04-12-2019 03:15:00 1.6 C 5.25 g/m*3 1.6 C 0 km/h
617 04-12-2019 03:20:00 1.7 C 5.28 g/m*3 1.7 C 0 km/h
618 04-12-2019 03:25:00 1.7 C 5.28 g/m*3 1.7 C 0 km/h
619 04-12-2019 03:30:00 1.7 C 5.28 g/m*3 1.7 C 0 km/h
620 04-12-2019 03:35:00 1.8 C 5.32 g/m*3 1.8 C 0 km/h
621 04-12-2019 03:40:00 1.8 C 5.32 g/m*3 1.8 C 0 km/h
622 04-12-2019 03:45:00 1.8 C 5.32 g/m*3 1.8 C 0 km/h
623 04-12-2019 03:50:00 1.8 C 5.32 g/m*3 1.8 C 0 km/h
624 04-12-2019 03:55:00 1.8 C 5.32 g/m*3 1.8 C 0 km/h
625 04-12-2019 04:00:00 1.8 C 5.32 g/m*3 1.8 C 0 km/h
Sensor: Nr:Datum:Temp:Abs-Feuchte:Windchill:Wind:
Aussen-T/F 626 04-12-2019 04:05:00 1.8 C 5.32 g/m*3 1.8 C 0 km/h
627 04-12-2019 04:10:00 1.8 C 5.32 g/m*3 1.8 C 0 km/h
628 04-12-2019 04:15:00 1.8 C 5.32 g/m*3 1.8 C 0 km/h
629 04-12-2019 04:20:00 1.8 C 5.32 g/m*3 1.8 C 0 km/h
630 04-12-2019 04:25:00 1.7 C 5.28 g/m*3 1.7 C 0 km/h
631 04-12-2019 04:30:00 1.7 C 5.28 g/m*3 1.7 C 0 km/h
632 04-12-2019 04:35:00 1.7 C 5.28 g/m*3 1.7 C 0 km/h
633 04-12-2019 04:40:00 1.7 C 5.28 g/m*3 1.7 C 0 km/h
634 04-12-2019 04:45:00 1.7 C 5.28 g/m*3 1.7 C 0 km/h
635 04-12-2019 04:50:00 1.7 C 5.28 g/m*3 1.7 C 0 km/h
636 04-12-2019 04:55:00 1.7 C 5.28 g/m*3 1.7 C 0 km/h
637 04-12-2019 05:00:00 1.7 C 5.28 g/m*3 1.7 C 0 km/h
638 04-12-2019 05:05:00 1.7 C 5.28 g/m*3 1.7 C 0 km/h
639 04-12-2019 05:10:00 1.7 C 5.28 g/m*3 1.7 C 0 km/h
640 04-12-2019 05:15:00 1.7 C 5.28 g/m*3 1.7 C 0 km/h
641 04-12-2019 05:20:00 1.7 C 5.28 g/m*3 1.7 C 0 km/h
642 04-12-2019 05:25:00 1.7 C 5.28 g/m*3 1.7 C 0 km/h
643 04-12-2019 05:30:00 1.7 C 5.28 g/m*3 1.7 C 0 km/h
644 04-12-2019 05:35:00 1.8 C 5.32 g/m*3 1.8 C 0 km/h
645 04-12-2019 05:40:00 1.8 C 5.32 g/m*3 1.8 C 0 km/h
646 04-12-2019 05:45:00 1.8 C 5.32 g/m*3 1.8 C 0 km/h
647 04-12-2019 05:50:00 1.8 C 5.32 g/m*3 1.8 C 0 km/h
648 04-12-2019 05:55:00 1.8 C 5.32 g/m*3 1.8 C 0 km/h
649 04-12-2019 06:00:00 1.8 C 5.32 g/m*3 1.8 C 0 km/h
650 04-12-2019 06:05:00 1.8 C 5.32 g/m*3 1.8 C 0 km/h
Sensor: Nr:Datum:Temp:Abs-Feuchte:Windchill:Wind:
Aussen-T/F 651 04-12-2019 06:10:00 1.9 C 5.35 g/m*3 1.9 C 0 km/h
652 04-12-2019 06:15:00 1.9 C 5.35 g/m*3 1.9 C 0 km/h
653 04-12-2019 06:20:00 1.9 C 5.35 g/m*3 1.9 C 0 km/h
654 04-12-2019 06:25:00 1.9 C 5.35 g/m*3 1.9 C 0 km/h
655 04-12-2019 06:30:00 1.9 C 5.35 g/m*3 1.9 C 0 km/h
656 04-12-2019 06:35:00 1.9 C 5.35 g/m*3 1.9 C 0 km/h
657 04-12-2019 06:40:00 2 C 5.39 g/m*3 2 C 0 km/h
658 04-12-2019 06:45:00 2 C 5.39 g/m*3 2 C 0 km/h
659 04-12-2019 06:50:00 2.1 C 5.43 g/m*3 2.1 C 0 km/h
660 04-12-2019 06:55:00 2.1 C 5.43 g/m*3 2.1 C 3.2 km/h
661 04-12-2019 07:00:00 2 C 5.39 g/m*3 2 C 1.6 km/h
662 04-12-2019 07:05:00 1.9 C 5.35 g/m*3 1.9 C 1.6 km/h
663 04-12-2019 07:10:00 1.9 C 5.35 g/m*3 1.9 C 0 km/h
664 04-12-2019 07:15:00 1.9 C 5.35 g/m*3 1.9 C 0 km/h
665 04-12-2019 07:20:00 1.9 C 5.35 g/m*3 1.9 C 0 km/h
666 04-12-2019 07:25:00 1.8 C 5.32 g/m*3 1.8 C 0 km/h
667 04-12-2019 07:30:00 1.8 C 5.32 g/m*3 1.8 C 0 km/h
668 04-12-2019 07:35:00 1.8 C 5.32 g/m*3 1.8 C 0 km/h
669 04-12-2019 07:40:00 1.7 C 5.28 g/m*3 1.7 C 0 km/h
670 04-12-2019 07:45:00 1.7 C 5.28 g/m*3 1.7 C 0 km/h
671 04-12-2019 07:50:00 1.7 C 5.28 g/m*3 1.7 C 0 km/h
672 04-12-2019 07:55:00 1.7 C 5.28 g/m*3 1.7 C 0 km/h
673 04-12-2019 08:00:00 1.7 C 5.28 g/m*3 1.7 C 0 km/h
674 04-12-2019 08:05:00 1.7 C 5.28 g/m*3 1.7 C 0 km/h
675 04-12-2019 08:10:00 1.7 C 5.28 g/m*3 1.7 C 0 km/h
Sensor: Nr:Datum:Temp:Abs-Feuchte:Windchill:Wind:
Aussen-T/F 676 04-12-2019 08:15:00 1.7 C 5.28 g/m*3 1.7 C 0 km/h
677 04-12-2019 08:20:00 1.8 C 5.32 g/m*3 1.8 C 0 km/h
678 04-12-2019 08:25:00 1.8 C 5.32 g/m*3 1.8 C 0 km/h
679 04-12-2019 08:30:00 1.8 C 5.32 g/m*3 1.8 C 0 km/h
680 04-12-2019 08:35:00 1.7 C 5.28 g/m*3 1.7 C 0 km/h
681 04-12-2019 08:40:00 1.7 C 5.28 g/m*3 1.7 C 0 km/h
682 04-12-2019 08:45:00 1.7 C 5.28 g/m*3 1.7 C 0 km/h
683 04-12-2019 08:50:00 1.7 C 5.28 g/m*3 1.7 C 0 km/h
684 04-12-2019 08:55:00 1.7 C 5.28 g/m*3 1.7 C 1.6 km/h
685 04-12-2019 09:00:00 1.7 C 5.28 g/m*3 1.7 C 1.6 km/h
686 04-12-2019 09:05:00 1.7 C 5.28 g/m*3 1.7 C 0 km/h
687 04-12-2019 09:10:00 1.8 C 5.32 g/m*3 1.8 C 0 km/h
688 04-12-2019 09:15:00 1.8 C 5.32 g/m*3 1.8 C 0 km/h
689 04-12-2019 09:20:00 1.8 C 5.32 g/m*3 1.8 C 0 km/h
690 04-12-2019 09:25:00 1.8 C 5.32 g/m*3 1.8 C 1.6 km/h
691 04-12-2019 09:30:00 1.8 C 5.32 g/m*3 1.8 C 1.6 km/h
692 04-12-2019 09:35:00 1.8 C 5.32 g/m*3 1.8 C 1.6 km/h
693 04-12-2019 09:40:00 1.8 C 5.32 g/m*3 1.8 C 0 km/h
694 04-12-2019 09:45:00 1.8 C 5.32 g/m*3 1.8 C 1.6 km/h
695 04-12-2019 09:50:00 1.9 C 5.35 g/m*3 1.9 C 1.6 km/h
696 04-12-2019 09:55:00 1.9 C 5.35 g/m*3 1.9 C 3.2 km/h
697 04-12-2019 10:00:00 1.9 C 5.35 g/m*3 1.9 C 3.2 km/h
698 04-12-2019 10:05:00 1.9 C 5.35 g/m*3 1.9 C 3.2 km/h
699 04-12-2019 10:10:00 1.9 C 5.35 g/m*3 1.9 C 1.6 km/h
700 04-12-2019 10:15:00 1.9 C 5.35 g/m*3 1.9 C 1.6 km/h
Sensor: Nr:Datum:Temp:Abs-Feuchte:Windchill:Wind:
Aussen-T/F 701 04-12-2019 10:20:00 1.8 C 5.32 g/m*3 1.8 C 3.2 km/h
702 04-12-2019 10:25:00 1.8 C 5.32 g/m*3 1.8 C 1.6 km/h
703 04-12-2019 10:30:00 1.8 C 5.32 g/m*3 1.8 C 0 km/h
704 04-12-2019 10:35:00 1.8 C 5.32 g/m*3 1.8 C 0 km/h
705 04-12-2019 10:40:00 1.8 C 5.32 g/m*3 1.8 C 0 km/h
706 04-12-2019 10:45:00 1.8 C 5.32 g/m*3 1.8 C 1.6 km/h
707 04-12-2019 10:50:00 1.8 C 5.32 g/m*3 1.8 C 0 km/h
708 04-12-2019 10:55:00 1.8 C 5.32 g/m*3 1.8 C 0 km/h
709 04-12-2019 11:00:00 1.8 C 5.32 g/m*3 1.8 C 0 km/h
710 04-12-2019 11:05:00 1.8 C 5.32 g/m*3 1.8 C 0 km/h
711 04-12-2019 11:10:00 1.8 C 5.26 g/m*3 1.8 C 0 km/h
712 04-12-2019 11:15:00 1.8 C 5.32 g/m*3 1.8 C 0 km/h
713 04-12-2019 11:20:00 1.8 C 5.32 g/m*3 1.8 C 0 km/h
714 04-12-2019 11:25:00 1.8 C 5.32 g/m*3 1.8 C 0 km/h
715 04-12-2019 11:30:00 1.9 C 5.35 g/m*3 1.9 C 0 km/h
716 04-12-2019 11:35:00 1.9 C 5.35 g/m*3 1.9 C 0 km/h
717 04-12-2019 11:40:00 1.9 C 5.35 g/m*3 1.9 C 0 km/h
718 04-12-2019 11:45:00 1.8 C 5.32 g/m*3 1.8 C 0 km/h
719 04-12-2019 11:50:00 1.8 C 5.32 g/m*3 1.8 C 0 km/h
720 04-12-2019 11:55:00 1.9 C 5.35 g/m*3 1.9 C 0 km/h
721 04-12-2019 12:00:00 1.9 C 5.35 g/m*3 1.9 C 0 km/h
722 04-12-2019 12:05:00 1.9 C 5.35 g/m*3 1.9 C 0 km/h
723 04-12-2019 12:10:00 2 C 5.39 g/m*3 2 C 0 km/h
724 04-12-2019 12:15:00 2.1 C 5.43 g/m*3 2.1 C 0 km/h
725 04-12-2019 12:20:00 2.1 C 5.43 g/m*3 2.1 C 0 km/h
Sensor: Nr:Datum:Temp:Abs-Feuchte:Windchill:Wind:
Aussen-T/F 726 04-12-2019 12:25:00 2.1 C 5.43 g/m*3 2.1 C 1.6 km/h
727 04-12-2019 12:30:00 2.2 C 5.46 g/m*3 2.2 C 0 km/h
728 04-12-2019 12:35:00 2.2 C 5.46 g/m*3 2.2 C 0 km/h
729 04-12-2019 12:40:00 2.3 C 5.5 g/m*3 2.3 C 0 km/h
730 04-12-2019 12:45:00 2.3 C 5.5 g/m*3 2.3 C 0 km/h
731 04-12-2019 12:50:00 2.3 C 5.5 g/m*3 2.3 C 1.6 km/h
732 04-12-2019 12:55:00 2.4 C 5.54 g/m*3 2.4 C 1.6 km/h
733 04-12-2019 13:00:00 2.4 C 5.54 g/m*3 2.4 C 0 km/h
734 04-12-2019 13:05:00 2.4 C 5.54 g/m*3 2.4 C 0 km/h
735 04-12-2019 13:10:00 2.4 C 5.54 g/m*3 2.4 C 0 km/h
736 04-12-2019 13:15:00 2.4 C 5.54 g/m*3 2.4 C 1.6 km/h
737 04-12-2019 13:20:00 2.4 C 5.54 g/m*3 2.4 C 0 km/h
738 04-12-2019 13:25:00 2.5 C 5.58 g/m*3 2.5 C 0 km/h
739 04-12-2019 13:30:00 2.5 C 5.58 g/m*3 2.5 C 3.2 km/h
740 04-12-2019 13:35:00 2.6 C 5.61 g/m*3 2.6 C 1.6 km/h
741 04-12-2019 13:40:00 2.6 C 5.61 g/m*3 2.6 C 3.2 km/h
742 04-12-2019 13:45:00 2.6 C 5.61 g/m*3 2.6 C 4.8 km/h
743 04-12-2019 13:50:00 2.7 C 5.65 g/m*3 2.7 C 1.6 km/h
744 04-12-2019 13:55:00 2.7 C 5.65 g/m*3 2.7 C 1.6 km/h
745 04-12-2019 14:00:00 2.7 C 5.65 g/m*3 2.7 C 1.6 km/h
746 04-12-2019 14:05:00 2.8 C 5.69 g/m*3 2.8 C 1.6 km/h
747 04-12-2019 14:10:00 2.8 C 5.69 g/m*3 2.8 C 0 km/h
748 04-12-2019 14:15:00 2.8 C 5.69 g/m*3 2.8 C 3.2 km/h
749 04-12-2019 14:20:00 2.8 C 5.69 g/m*3 2.8 C 1.6 km/h
750 04-12-2019 14:25:00 2.8 C 5.69 g/m*3 2.8 C 3.2 km/h
Sensor: Nr:Datum:Temp:Abs-Feuchte:Windchill:Wind:
Aussen-T/F 751 04-12-2019 14:30:00 2.8 C 5.69 g/m*3 2.8 C 1.6 km/h
752 04-12-2019 14:35:00 2.8 C 5.63 g/m*3 2.8 C 3.2 km/h
753 04-12-2019 14:40:00 2.9 C 5.67 g/m*3 2.9 C 4.8 km/h
754 04-12-2019 14:45:00 2.9 C 5.67 g/m*3 2.9 C 1.6 km/h
755 04-12-2019 14:50:00 2.9 C 5.67 g/m*3 2.9 C 3.2 km/h
756 04-12-2019 14:55:00 2.9 C 5.67 g/m*3 2.9 C 1.6 km/h
757 04-12-2019 15:00:00 2.8 C 5.63 g/m*3 2.8 C 0 km/h
758 04-12-2019 15:05:00 2.8 C 5.63 g/m*3 2.8 C 0 km/h
759 04-12-2019 15:10:00 2.7 C 5.59 g/m*3 2.7 C 0 km/h
760 04-12-2019 15:15:00 2.7 C 5.59 g/m*3 2.7 C 0 km/h
761 04-12-2019 15:20:00 2.6 C 5.56 g/m*3 2.6 C 0 km/h
762 04-12-2019 15:25:00 2.6 C 5.56 g/m*3 2.6 C 0 km/h
763 04-12-2019 15:30:00 2.6 C 5.56 g/m*3 2.6 C 0 km/h
764 04-12-2019 15:35:00 2.5 C 5.52 g/m*3 2.5 C 0 km/h
765 04-12-2019 15:40:00 2.5 C 5.52 g/m*3 2.5 C 0 km/h
766 04-12-2019 15:45:00 2.4 C 5.48 g/m*3 2.4 C 0 km/h
767 04-12-2019 15:50:00 2.4 C 5.48 g/m*3 2.4 C 0 km/h
768 04-12-2019 15:55:00 2.4 C 5.48 g/m*3 2.4 C 0 km/h
769 04-12-2019 16:00:00 2.3 C 5.44 g/m*3 2.3 C 0 km/h
770 04-12-2019 16:05:00 2.3 C 5.44 g/m*3 2.3 C 0 km/h
771 04-12-2019 16:10:00 2.2 C 5.41 g/m*3 2.2 C 0 km/h
772 04-12-2019 16:15:00 2.2 C 5.35 g/m*3 2.2 C 0 km/h
773 04-12-2019 16:20:00 2.1 C 5.31 g/m*3 2.1 C 0 km/h
774 04-12-2019 16:25:00 2.1 C 5.31 g/m*3 2.1 C 0 km/h
775 04-12-2019 16:30:00 2 C 5.33 g/m*3 2 C 4.8 km/h
Sensor: Nr:Datum:Temp:Abs-Feuchte:Windchill:Wind:
Aussen-T/F 776 04-12-2019 16:35:00 1.9 C 5.3 g/m*3 1.9 C 4.8 km/h
777 04-12-2019 16:40:00 1.9 C 5.3 g/m*3 1.9 C 0 km/h
778 04-12-2019 16:45:00 1.8 C 5.21 g/m*3 1.8 C 0 km/h
779 04-12-2019 16:50:00 1.8 C 5.21 g/m*3 1.8 C 3.2 km/h
780 04-12-2019 16:55:00 1.7 C 5.17 g/m*3 1.7 C 0 km/h
781 04-12-2019 17:00:00 1.6 C 5.19 g/m*3 1.6 C 0 km/h
782 04-12-2019 17:05:00 1.6 C 5.19 g/m*3 1.6 C 0 km/h
783 04-12-2019 17:10:00 1.6 C 5.19 g/m*3 1.6 C 0 km/h
784 04-12-2019 17:15:00 1.5 C 5.16 g/m*3 1.5 C 0 km/h
785 04-12-2019 17:20:00 1.4 C 5.07 g/m*3 1.4 C 0 km/h
786 04-12-2019 17:25:00 1.4 C 5.07 g/m*3 1.4 C 0 km/h
787 04-12-2019 17:30:00 1.4 C 5.12 g/m*3 1.4 C 0 km/h
788 04-12-2019 17:35:00 1.4 C 5.12 g/m*3 1.4 C 0 km/h
789 04-12-2019 17:40:00 1.4 C 5.07 g/m*3 1.4 C 0 km/h
790 04-12-2019 17:45:00 1.3 C 5.09 g/m*3 1.3 C 0 km/h
791 04-12-2019 17:50:00 1.3 C 5.09 g/m*3 1.3 C 0 km/h
792 04-12-2019 17:55:00 1.3 C 5.09 g/m*3 1.3 C 0 km/h
793 04-12-2019 18:00:00 1.3 C 5.09 g/m*3 1.3 C 0 km/h
794 04-12-2019 18:05:00 1.3 C 5.09 g/m*3 1.3 C 0 km/h
795 04-12-2019 18:10:00 1.2 C 5 g/m*3 1.2 C 0 km/h
796 04-12-2019 18:15:00 1.2 C 5.05 g/m*3 1.2 C 0 km/h
797 04-12-2019 18:20:00 1.2 C 5.05 g/m*3 1.2 C 0 km/h
798 04-12-2019 18:25:00 1.2 C 5.05 g/m*3 1.2 C 0 km/h
799 04-12-2019 18:30:00 1.1 C 5.02 g/m*3 1.1 C 0 km/h
800 04-12-2019 18:35:00 1.1 C 5.02 g/m*3 1.1 C 0 km/h
Sensor: Nr:Datum:Temp:Abs-Feuchte:Windchill:Wind:
Aussen-T/F 801 04-12-2019 18:40:00 1.1 C 5.02 g/m*3 1.1 C 0 km/h
802 04-12-2019 18:45:00 0.9 C 4.95 g/m*3 0.9 C 0 km/h
803 04-12-2019 18:50:00 0.9 C 4.9 g/m*3 0.9 C 0 km/h
804 04-12-2019 18:55:00 0.8 C 4.86 g/m*3 0.8 C 0 km/h
805 04-12-2019 19:00:00 0.8 C 4.86 g/m*3 0.8 C 0 km/h
806 04-12-2019 19:05:00 0.7 C 4.88 g/m*3 0.7 C 0 km/h
807 04-12-2019 19:10:00 0.7 C 4.88 g/m*3 0.7 C 0 km/h
808 04-12-2019 19:15:00 0.6 C 4.8 g/m*3 0.6 C 0 km/h
809 04-12-2019 19:20:00 0.4 C 4.73 g/m*3 0.4 C 0 km/h
810 04-12-2019 19:25:00 0.3 C 4.75 g/m*3 0.3 C 0 km/h
811 04-12-2019 19:30:00 0.3 C 4.75 g/m*3 0.3 C 0 km/h
812 04-12-2019 19:35:00 0.3 C 4.75 g/m*3 0.3 C 0 km/h
813 04-12-2019 19:40:00 0.3 C 4.75 g/m*3 0.3 C 0 km/h
814 04-12-2019 19:45:00 0.3 C 4.75 g/m*3 0.3 C 0 km/h
815 04-12-2019 19:50:00 0.2 C 4.72 g/m*3 0.2 C 0 km/h
816 04-12-2019 19:55:00 0.1 C 4.68 g/m*3 0.1 C 0 km/h
817 04-12-2019 20:00:00 0.1 C 4.68 g/m*3 0.1 C 0 km/h
818 04-12-2019 20:05:00 0.1 C 4.68 g/m*3 0.1 C 0 km/h
819 04-12-2019 20:10:00 0.1 C 4.68 g/m*3 0.1 C 0 km/h
820 04-12-2019 20:15:00 0.1 C 4.68 g/m*3 0.1 C 0 km/h
821 04-12-2019 20:20:00 0.1 C 4.68 g/m*3 0.1 C 1.6 km/h
822 04-12-2019 20:25:00 0 C 4.65 g/m*3 0 C 0 km/h
823 04-12-2019 20:30:00 -0.1 C 4.62 g/m*3 -0.1 C 0 km/h
824 04-12-2019 20:35:00 -0.2 C 4.59 g/m*3 -0.2 C 0 km/h
825 04-12-2019 20:40:00 -0.2 C 4.59 g/m*3 -0.2 C 0 km/h
Sensor: Nr:Datum:Temp:Abs-Feuchte:Windchill:Wind:
Aussen-T/F 826 04-12-2019 20:45:00 -0.3 C 4.56 g/m*3 -0.3 C 0 km/h
827 04-12-2019 20:50:00 -0.3 C 4.56 g/m*3 -0.3 C 3.2 km/h
828 04-12-2019 20:55:00 -0.4 C 4.52 g/m*3 -0.4 C 0 km/h
829 04-12-2019 21:00:00 -0.5 C 4.49 g/m*3 -0.5 C 0 km/h
830 04-12-2019 21:05:00 -0.5 C 4.49 g/m*3 -0.5 C 0 km/h
831 04-12-2019 21:10:00 -0.5 C 4.49 g/m*3 -0.5 C 3.2 km/h
832 04-12-2019 21:15:00 -0.4 C 4.52 g/m*3 -0.4 C 0 km/h
833 04-12-2019 21:20:00 -0.4 C 4.52 g/m*3 -0.4 C 0 km/h
834 04-12-2019 21:25:00 -0.4 C 4.52 g/m*3 -0.4 C 0 km/h
835 04-12-2019 21:30:00 -0.5 C 4.49 g/m*3 -0.5 C 0 km/h
836 04-12-2019 21:35:00 -0.6 C 4.46 g/m*3 -0.6 C 0 km/h
837 04-12-2019 21:40:00 -0.7 C 4.43 g/m*3 -0.7 C 0 km/h
838 04-12-2019 21:45:00 -0.8 C 4.4 g/m*3 -0.8 C 0 km/h
839 04-12-2019 21:50:00 -0.8 C 4.4 g/m*3 -0.8 C 0 km/h
840 04-12-2019 21:55:00 -0.9 C 4.37 g/m*3 -0.9 C 0 km/h
841 04-12-2019 22:00:00 -0.9 C 4.37 g/m*3 -0.9 C 0 km/h
842 04-12-2019 22:05:00 -1.1 C 4.31 g/m*3 -1.1 C 0 km/h
843 04-12-2019 22:10:00 -1.1 C 4.31 g/m*3 -1.1 C 0 km/h
844 04-12-2019 22:15:00 -1.1 C 4.31 g/m*3 -1.1 C 0 km/h
845 04-12-2019 22:20:00 -1.1 C 4.31 g/m*3 -1.1 C 0 km/h
846 04-12-2019 22:25:00 -1.2 C 4.28 g/m*3 -1.2 C 0 km/h
847 04-12-2019 22:30:00 -1.3 C 4.25 g/m*3 -1.3 C 0 km/h
848 04-12-2019 22:35:00 -1.4 C 4.22 g/m*3 -1.4 C 0 km/h
849 04-12-2019 22:40:00 -1.4 C 4.22 g/m*3 -1.4 C 0 km/h
850 04-12-2019 22:45:00 -1.4 C 4.22 g/m*3 -1.4 C 0 km/h
Sensor: Nr:Datum:Temp:Abs-Feuchte:Windchill:Wind:
Aussen-T/F 851 04-12-2019 22:50:00 -1.4 C 4.22 g/m*3 -1.4 C 0 km/h
852 04-12-2019 22:55:00 -1.4 C 4.22 g/m*3 -1.4 C 0 km/h
853 04-12-2019 23:00:00 -1.4 C 4.22 g/m*3 -1.4 C 0 km/h
854 04-12-2019 23:05:00 -1.4 C 4.22 g/m*3 -1.4 C 0 km/h
855 04-12-2019 23:10:00 -1.4 C 4.22 g/m*3 -1.4 C 0 km/h
856 04-12-2019 23:15:00 -1.5 C 4.19 g/m*3 -1.5 C 0 km/h
857 04-12-2019 23:20:00 -1.6 C 4.16 g/m*3 -1.6 C 0 km/h
858 04-12-2019 23:25:00 -1.5 C 4.19 g/m*3 -1.5 C 0 km/h
859 04-12-2019 23:30:00 -1.5 C 4.19 g/m*3 -1.5 C 0 km/h
860 04-12-2019 23:35:00 -1.5 C 4.19 g/m*3 -1.5 C 0 km/h
861 04-12-2019 23:40:00 -1.6 C 4.16 g/m*3 -1.6 C 0 km/h
862 04-12-2019 23:45:00 -1.7 C 4.13 g/m*3 -1.7 C 0 km/h
863 04-12-2019 23:50:00 -1.7 C 4.13 g/m*3 -1.7 C 0 km/h
864 04-12-2019 23:55:00 -1.7 C 4.13 g/m*3 -1.7 C 0 km/h
865 05-12-2019 00:00:00 -1.8 C 4.1 g/m*3 -1.8 C 0 km/h
866 05-12-2019 00:05:00 -1.8 C 4.1 g/m*3 -1.8 C 0 km/h
867 05-12-2019 00:10:00 -1.8 C 4.1 g/m*3 -1.8 C 0 km/h
868 05-12-2019 00:15:00 -1.8 C 4.1 g/m*3 -1.8 C 0 km/h
869 05-12-2019 00:20:00 -1.8 C 4.1 g/m*3 -1.8 C 0 km/h
870 05-12-2019 00:25:00 -1.8 C 4.1 g/m*3 -1.8 C 0 km/h
871 05-12-2019 00:30:00 -1.8 C 4.1 g/m*3 -1.8 C 1.6 km/h
872 05-12-2019 00:35:00 -1.7 C 4.13 g/m*3 -1.7 C 0 km/h
873 05-12-2019 00:40:00 -1.7 C 4.13 g/m*3 -1.7 C 0 km/h
874 05-12-2019 00:45:00 -1.7 C 4.13 g/m*3 -1.7 C 0 km/h
875 05-12-2019 00:50:00 -1.8 C 4.1 g/m*3 -1.8 C 0 km/h
Sensor: Nr:Datum:Temp:Abs-Feuchte:Windchill:Wind:
Aussen-T/F 876 05-12-2019 00:55:00 -1.8 C 4.1 g/m*3 -1.8 C 0 km/h
877 05-12-2019 01:00:00 -1.8 C 4.1 g/m*3 -1.8 C 0 km/h
878 05-12-2019 01:05:00 -1.8 C 4.1 g/m*3 -1.8 C 0 km/h
879 05-12-2019 01:10:00 -1.9 C 4.08 g/m*3 -1.9 C 0 km/h
880 05-12-2019 01:15:00 -1.9 C 4.08 g/m*3 -1.9 C 1.6 km/h
881 05-12-2019 01:20:00 -1.9 C 4.08 g/m*3 -1.9 C 0 km/h
882 05-12-2019 01:25:00 -1.8 C 4.15 g/m*3 -1.8 C 0 km/h
883 05-12-2019 01:30:00 -1.8 C 4.15 g/m*3 -1.8 C 0 km/h
884 05-12-2019 01:35:00 -1.7 C 4.18 g/m*3 -1.7 C 0 km/h
885 05-12-2019 01:40:00 -1.7 C 4.18 g/m*3 -1.7 C 0 km/h
886 05-12-2019 01:45:00 -1.7 C 4.18 g/m*3 -1.7 C 0 km/h
887 05-12-2019 01:50:00 -1.7 C 4.18 g/m*3 -1.7 C 0 km/h
888 05-12-2019 01:55:00 -1.7 C 4.18 g/m*3 -1.7 C 0 km/h
889 05-12-2019 02:00:00 -1.7 C 4.18 g/m*3 -1.7 C 0 km/h
890 05-12-2019 02:05:00 -1.7 C 4.18 g/m*3 -1.7 C 0 km/h
891 05-12-2019 02:10:00 -1.7 C 4.18 g/m*3 -1.7 C 0 km/h
892 05-12-2019 02:15:00 -1.7 C 4.18 g/m*3 -1.7 C 0 km/h
893 05-12-2019 02:20:00 -1.8 C 4.15 g/m*3 -1.8 C 0 km/h
894 05-12-2019 02:25:00 -1.8 C 4.15 g/m*3 -1.8 C 0 km/h
895 05-12-2019 02:30:00 -1.9 C 4.12 g/m*3 -1.9 C 0 km/h
896 05-12-2019 02:35:00 -2 C 4.09 g/m*3 -2 C 0 km/h
897 05-12-2019 02:40:00 -2 C 4.09 g/m*3 -2 C 0 km/h
898 05-12-2019 02:45:00 -2 C 4.05 g/m*3 -2 C 0 km/h
899 05-12-2019 02:50:00 -2 C 4.05 g/m*3 -2 C 0 km/h
900 05-12-2019 02:55:00 -2.1 C 4.02 g/m*3 -2.1 C 0 km/h
Sensor: Nr:Datum:Temp:Abs-Feuchte:Windchill:Wind:
Aussen-T/F 901 05-12-2019 03:00:00 -2.1 C 4.02 g/m*3 -2.1 C 0 km/h
902 05-12-2019 03:05:00 -2.2 C 3.99 g/m*3 -2.2 C 0 km/h
903 05-12-2019 03:10:00 -2.3 C 3.96 g/m*3 -2.3 C 0 km/h
904 05-12-2019 03:15:00 -2.4 C 3.93 g/m*3 -2.4 C 0 km/h
905 05-12-2019 03:20:00 -2.3 C 3.96 g/m*3 -2.3 C 0 km/h
906 05-12-2019 03:25:00 -2.3 C 3.96 g/m*3 -2.3 C 0 km/h
907 05-12-2019 03:30:00 -2.2 C 4.03 g/m*3 -2.2 C 0 km/h
908 05-12-2019 03:35:00 -2.2 C 4.03 g/m*3 -2.2 C 0 km/h
909 05-12-2019 03:40:00 -2.2 C 4.03 g/m*3 -2.2 C 0 km/h
910 05-12-2019 03:45:00 -2.2 C 4.03 g/m*3 -2.2 C 4.8 km/h
911 05-12-2019 03:50:00 -2.2 C 4.03 g/m*3 -2.2 C 0 km/h
912 05-12-2019 03:55:00 -2.1 C 4.06 g/m*3 -2.1 C 3.2 km/h
913 05-12-2019 04:00:00 -2 C 4.09 g/m*3 -2 C 3.2 km/h
914 05-12-2019 04:05:00 -1.9 C 4.12 g/m*3 -1.9 C 1.6 km/h
915 05-12-2019 04:10:00 -1.9 C 4.12 g/m*3 -1.9 C 0 km/h
916 05-12-2019 04:15:00 -1.8 C 4.15 g/m*3 -1.8 C 1.6 km/h
917 05-12-2019 04:20:00 -1.8 C 4.15 g/m*3 -1.8 C 0 km/h
918 05-12-2019 04:25:00 -1.7 C 4.18 g/m*3 -1.7 C 4.8 km/h
919 05-12-2019 04:30:00 -1.7 C 4.18 g/m*3 -1.7 C 0 km/h
920 05-12-2019 04:35:00 -1.8 C 4.15 g/m*3 -1.8 C 0 km/h
921 05-12-2019 04:40:00 -1.8 C 4.15 g/m*3 -1.8 C 0 km/h
922 05-12-2019 04:45:00 -1.9 C 4.12 g/m*3 -1.9 C 0 km/h
923 05-12-2019 04:50:00 -1.9 C 4.12 g/m*3 -1.9 C 0 km/h
924 05-12-2019 04:55:00 -1.9 C 4.12 g/m*3 -1.9 C 1.6 km/h
925 05-12-2019 05:00:00 -1.8 C 4.15 g/m*3 -1.8 C 0 km/h
Sensor: Nr:Datum:Temp:Abs-Feuchte:Windchill:Wind:
Aussen-T/F 926 05-12-2019 05:05:00 -1.8 C 4.15 g/m*3 -1.8 C 0 km/h
927 05-12-2019 05:10:00 -1.8 C 4.15 g/m*3 -1.8 C 0 km/h
928 05-12-2019 05:15:00 -1.8 C 4.15 g/m*3 -1.8 C 1.6 km/h
929 05-12-2019 05:20:00 -1.8 C 4.15 g/m*3 -1.8 C 0 km/h
930 05-12-2019 05:25:00 -1.8 C 4.15 g/m*3 -1.8 C 1.6 km/h
931 05-12-2019 05:30:00 -1.7 C 4.18 g/m*3 -1.7 C 0 km/h
932 05-12-2019 05:35:00 -1.7 C 4.18 g/m*3 -1.7 C 0 km/h
933 05-12-2019 05:40:00 -1.7 C 4.18 g/m*3 -1.7 C 0 km/h
934 05-12-2019 05:45:00 -1.7 C 4.18 g/m*3 -1.7 C 0 km/h
935 05-12-2019 05:50:00 -1.7 C 4.18 g/m*3 -1.7 C 1.6 km/h
936 05-12-2019 05:55:00 -1.8 C 4.15 g/m*3 -1.8 C 0 km/h
937 05-12-2019 06:00:00 -1.8 C 4.15 g/m*3 -1.8 C 1.6 km/h
938 05-12-2019 06:05:00 -1.8 C 4.15 g/m*3 -1.8 C 0 km/h
939 05-12-2019 06:10:00 -1.8 C 4.15 g/m*3 -1.8 C 0 km/h
940 05-12-2019 06:15:00 -1.8 C 4.15 g/m*3 -1.8 C 0 km/h
941 05-12-2019 06:20:00 -1.8 C 4.15 g/m*3 -1.8 C 0 km/h
942 05-12-2019 06:25:00 -1.8 C 4.15 g/m*3 -1.8 C 0 km/h
943 05-12-2019 06:30:00 -1.8 C 4.15 g/m*3 -1.8 C 0 km/h
944 05-12-2019 06:35:00 -1.8 C 4.15 g/m*3 -1.8 C 0 km/h
945 05-12-2019 06:40:00 -1.9 C 4.12 g/m*3 -1.9 C 0 km/h
946 05-12-2019 06:45:00 -1.9 C 4.12 g/m*3 -1.9 C 0 km/h
947 05-12-2019 06:50:00 -1.9 C 4.12 g/m*3 -1.9 C 0 km/h
948 05-12-2019 06:55:00 -1.9 C 4.12 g/m*3 -1.9 C 0 km/h
949 05-12-2019 07:00:00 -1.9 C 4.12 g/m*3 -1.9 C 0 km/h
950 05-12-2019 07:05:00 -1.9 C 4.12 g/m*3 -1.9 C 0 km/h
Sensor: Nr:Datum:Temp:Abs-Feuchte:Windchill:Wind:
Aussen-T/F 951 05-12-2019 07:10:00 -1.9 C 4.12 g/m*3 -1.9 C 0 km/h
952 05-12-2019 07:15:00 -2 C 4.09 g/m*3 -2 C 0 km/h
953 05-12-2019 07:20:00 -2 C 4.09 g/m*3 -2 C 0 km/h
954 05-12-2019 07:25:00 -2.1 C 4.06 g/m*3 -2.1 C 0 km/h
955 05-12-2019 07:30:00 -2.1 C 4.06 g/m*3 -2.1 C 0 km/h
956 05-12-2019 07:35:00 -2.1 C 4.06 g/m*3 -2.1 C 0 km/h
957 05-12-2019 07:40:00 -2.1 C 4.06 g/m*3 -2.1 C 0 km/h
958 05-12-2019 07:45:00 -2.1 C 4.06 g/m*3 -2.1 C 3.2 km/h
959 05-12-2019 07:50:00 -2.1 C 4.06 g/m*3 -2.1 C 0 km/h
960 05-12-2019 07:55:00 -2.1 C 4.06 g/m*3 -2.1 C 0 km/h
961 05-12-2019 08:00:00 -2.1 C 4.06 g/m*3 -2.1 C 0 km/h
962 05-12-2019 08:05:00 -2.1 C 4.06 g/m*3 -2.1 C 0 km/h
963 05-12-2019 08:10:00 -2.1 C 4.06 g/m*3 -2.1 C 0 km/h
964 05-12-2019 08:15:00 -2.1 C 4.06 g/m*3 -2.1 C 0 km/h
965 05-12-2019 08:20:00 -2.1 C 4.06 g/m*3 -2.1 C 0 km/h
966 05-12-2019 08:25:00 -2.1 C 4.06 g/m*3 -2.1 C 0 km/h
967 05-12-2019 08:30:00 -2.1 C 4.06 g/m*3 -2.1 C 0 km/h
968 05-12-2019 08:35:00 -2.1 C 4.06 g/m*3 -2.1 C 1.6 km/h
969 05-12-2019 08:40:00 -2.1 C 4.06 g/m*3 -2.1 C 0 km/h
970 05-12-2019 08:45:00 -2 C 4.09 g/m*3 -2 C 0 km/h
971 05-12-2019 08:50:00 -2 C 4.09 g/m*3 -2 C 0 km/h
972 05-12-2019 08:55:00 -2 C 4.09 g/m*3 -2 C 0 km/h
973 05-12-2019 09:00:00 -1.9 C 4.12 g/m*3 -1.9 C 0 km/h
974 05-12-2019 09:05:00 -1.9 C 4.12 g/m*3 -1.9 C 0 km/h
975 05-12-2019 09:10:00 -1.8 C 4.15 g/m*3 -1.8 C 0 km/h
Sensor: Nr:Datum:Temp:Abs-Feuchte:Windchill:Wind:
Aussen-T/F 976 05-12-2019 09:15:00 -1.8 C 4.15 g/m*3 -1.8 C 0 km/h
977 05-12-2019 09:20:00 -1.8 C 4.15 g/m*3 -1.8 C 4.8 km/h
978 05-12-2019 09:25:00 -1.8 C 4.15 g/m*3 -1.8 C 1.6 km/h
979 05-12-2019 09:30:00 -1.8 C 4.15 g/m*3 -1.8 C 1.6 km/h
980 05-12-2019 09:35:00 -1.8 C 4.15 g/m*3 -1.8 C 1.6 km/h
981 05-12-2019 09:40:00 -1.8 C 4.15 g/m*3 -1.8 C 1.6 km/h
982 05-12-2019 09:45:00 -1.8 C 4.15 g/m*3 -1.8 C 1.6 km/h
983 05-12-2019 09:50:00 -1.8 C 4.15 g/m*3 -1.8 C 0 km/h
984 05-12-2019 09:55:00 -1.8 C 4.15 g/m*3 -1.8 C 1.6 km/h
985 05-12-2019 10:00:00 -1.8 C 4.15 g/m*3 -1.8 C 1.6 km/h
986 05-12-2019 10:05:00 -1.7 C 4.18 g/m*3 -1.7 C 3.2 km/h
987 05-12-2019 10:10:00 -1.7 C 4.18 g/m*3 -1.7 C 1.6 km/h
988 05-12-2019 10:15:00 -1.7 C 4.18 g/m*3 -1.7 C 3.2 km/h
989 05-12-2019 10:20:00 -1.7 C 4.18 g/m*3 -1.7 C 0 km/h
990 05-12-2019 10:25:00 -1.7 C 4.18 g/m*3 -1.7 C 0 km/h
991 05-12-2019 10:30:00 -1.6 C 4.21 g/m*3 -1.6 C 1.6 km/h
992 05-12-2019 10:35:00 -1.5 C 4.23 g/m*3 -1.5 C 0 km/h
993 05-12-2019 10:40:00 -1.5 C 4.23 g/m*3 -1.5 C 0 km/h
994 05-12-2019 10:45:00 -1.4 C 4.26 g/m*3 -1.4 C 0 km/h
995 05-12-2019 10:50:00 -1.3 C 4.29 g/m*3 -1.3 C 1.6 km/h
996 05-12-2019 10:55:00 -1.3 C 4.29 g/m*3 -1.3 C 0 km/h
997 05-12-2019 11:00:00 -1.3 C 4.29 g/m*3 -1.3 C 3.2 km/h
998 05-12-2019 11:05:00 -1.2 C 4.32 g/m*3 -1.2 C 3.2 km/h
999 05-12-2019 11:10:00 -1.2 C 4.32 g/m*3 -1.2 C 0 km/h
1000 05-12-2019 11:15:00 -1.1 C 4.35 g/m*3 -1.1 C 3.2 km/h
Sensor: Nr:Datum:Temp:Abs-Feuchte:Windchill:Wind:
Aussen-T/F 1001 05-12-2019 11:20:00 -1 C 4.38 g/m*3 -1 C 1.6 km/h
1002 05-12-2019 11:25:00 -0.9 C 4.42 g/m*3 -0.9 C 1.6 km/h
1003 05-12-2019 11:30:00 -0.8 C 4.45 g/m*3 -0.8 C 3.2 km/h
1004 05-12-2019 11:35:00 -0.8 C 4.45 g/m*3 -0.8 C 0 km/h
1005 05-12-2019 11:40:00 -0.8 C 4.45 g/m*3 -0.8 C 0 km/h
1006 05-12-2019 11:45:00 -0.8 C 4.45 g/m*3 -0.8 C 1.6 km/h
1007 05-12-2019 11:50:00 -0.7 C 4.48 g/m*3 -0.7 C 3.2 km/h
1008 05-12-2019 11:55:00 -0.7 C 4.48 g/m*3 -0.7 C 4.8 km/h
1009 05-12-2019 12:00:00 -0.6 C 4.51 g/m*3 -0.6 C 0 km/h
1010 05-12-2019 12:05:00 -0.6 C 4.51 g/m*3 -0.6 C 1.6 km/h
1011 05-12-2019 12:10:00 -0.6 C 4.51 g/m*3 -0.6 C 0 km/h
1012 05-12-2019 12:15:00 -0.5 C 4.54 g/m*3 -0.5 C 0 km/h
1013 05-12-2019 12:20:00 -0.4 C 4.57 g/m*3 -0.4 C 3.2 km/h
1014 05-12-2019 12:25:00 -0.4 C 4.57 g/m*3 -0.4 C 4.8 km/h
1015 05-12-2019 12:30:00 -0.4 C 4.57 g/m*3 -0.4 C 1.6 km/h
1016 05-12-2019 12:35:00 -0.4 C 4.57 g/m*3 -0.4 C 0 km/h
1017 05-12-2019 12:40:00 -0.4 C 4.57 g/m*3 -0.4 C 0 km/h
1018 05-12-2019 12:45:00 -0.4 C 4.57 g/m*3 -0.4 C 3.2 km/h
1019 05-12-2019 12:50:00 -0.3 C 4.6 g/m*3 -0.3 C 1.6 km/h
1020 05-12-2019 12:55:00 -0.3 C 4.6 g/m*3 -0.3 C 1.6 km/h
1021 05-12-2019 13:00:00 -0.2 C 4.64 g/m*3 -0.2 C 3.2 km/h
1022 05-12-2019 13:05:00 -0.2 C 4.64 g/m*3 -2.41 C 6.4 km/h
1023 05-12-2019 13:10:00 -0.1 C 4.67 g/m*3 -2.3 C 6.4 km/h
1024 05-12-2019 13:15:00 -0.1 C 4.67 g/m*3 -0.1 C 4.8 km/h
1025 05-12-2019 13:20:00 -0.1 C 4.67 g/m*3 -0.1 C 3.2 km/h
Sensor: Nr:Datum:Temp:Abs-Feuchte:Windchill:Wind:
Aussen-T/F 1026 05-12-2019 13:25:00 -0.1 C 4.67 g/m*3 -0.1 C 3.2 km/h
1027 05-12-2019 13:30:00 0 C 4.7 g/m*3 0 C 3.2 km/h
1028 05-12-2019 13:35:00 0.1 C 4.73 g/m*3 0.1 C 3.2 km/h
1029 05-12-2019 13:40:00 0.1 C 4.73 g/m*3 0.1 C 1.6 km/h
1030 05-12-2019 13:45:00 0.1 C 4.73 g/m*3 0.1 C 1.6 km/h
1031 05-12-2019 13:50:00 0.2 C 4.77 g/m*3 0.2 C 0 km/h
1032 05-12-2019 13:55:00 0.3 C 4.8 g/m*3 0.3 C 0 km/h
1033 05-12-2019 14:00:00 0.3 C 4.8 g/m*3 0.3 C 0 km/h
1034 05-12-2019 14:05:00 0.4 C 4.83 g/m*3 0.4 C 3.2 km/h
1035 05-12-2019 14:10:00 0.5 C 4.86 g/m*3 0.5 C 0 km/h
1036 05-12-2019 14:15:00 0.6 C 4.9 g/m*3 0.6 C 3.2 km/h
1037 05-12-2019 14:20:00 0.6 C 4.9 g/m*3 0.6 C 1.6 km/h
1038 05-12-2019 14:25:00 0.6 C 4.9 g/m*3 0.6 C 0 km/h
1039 05-12-2019 14:30:00 0.7 C 4.93 g/m*3 0.7 C 4.8 km/h
1040 05-12-2019 14:35:00 0.7 C 4.93 g/m*3 0.7 C 3.2 km/h
1041 05-12-2019 14:40:00 0.7 C 4.93 g/m*3 0.7 C 3.2 km/h
1042 05-12-2019 14:45:00 0.7 C 4.93 g/m*3 0.7 C 3.2 km/h
1043 05-12-2019 14:50:00 0.7 C 4.93 g/m*3 0.7 C 4.8 km/h
1044 05-12-2019 14:55:00 0.7 C 4.93 g/m*3 0.7 C 1.6 km/h
1045 05-12-2019 15:00:00 0.7 C 4.93 g/m*3 0.7 C 4.8 km/h
1046 05-12-2019 15:05:00 0.7 C 4.93 g/m*3 0.7 C 1.6 km/h
1047 05-12-2019 15:10:00 0.7 C 4.93 g/m*3 0.7 C 3.2 km/h
1048 05-12-2019 15:15:00 0.7 C 4.93 g/m*3 0.7 C 1.6 km/h
1049 05-12-2019 15:20:00 0.7 C 4.93 g/m*3 0.7 C 3.2 km/h
1050 05-12-2019 15:25:00 0.7 C 4.93 g/m*3 0.7 C 0 km/h
Sensor: Nr:Datum:Temp:Abs-Feuchte:Windchill:Wind:
Aussen-T/F 1051 05-12-2019 15:30:00 0.7 C 4.93 g/m*3 0.7 C 0 km/h
1052 05-12-2019 15:35:00 0.7 C 4.93 g/m*3 0.7 C 0 km/h
1053 05-12-2019 15:40:00 0.7 C 4.93 g/m*3 0.7 C 0 km/h
1054 05-12-2019 15:45:00 0.6 C 4.9 g/m*3 0.6 C 1.6 km/h
1055 05-12-2019 15:50:00 0.6 C 4.9 g/m*3 0.6 C 1.6 km/h
1056 05-12-2019 15:55:00 0.6 C 4.9 g/m*3 0.6 C 1.6 km/h
1057 05-12-2019 16:00:00 0.5 C 4.86 g/m*3 0.5 C 0 km/h
1058 05-12-2019 16:05:00 0.5 C 4.86 g/m*3 0.5 C 0 km/h
1059 05-12-2019 16:10:00 0.4 C 4.83 g/m*3 0.4 C 0 km/h
1060 05-12-2019 16:15:00 0.4 C 4.83 g/m*3 0.4 C 0 km/h
1061 05-12-2019 16:20:00 0.3 C 4.8 g/m*3 0.3 C 0 km/h
1062 05-12-2019 16:25:00 0.3 C 4.8 g/m*3 0.3 C 0 km/h
1063 05-12-2019 16:30:00 0.3 C 4.8 g/m*3 0.3 C 0 km/h
1064 05-12-2019 16:35:00 0.2 C 4.77 g/m*3 0.2 C 0 km/h
1065 05-12-2019 16:40:00 0.2 C 4.77 g/m*3 0.2 C 0 km/h
1066 05-12-2019 16:45:00 0.2 C 4.77 g/m*3 0.2 C 0 km/h
1067 05-12-2019 16:50:00 0.1 C 4.73 g/m*3 0.1 C 0 km/h
1068 05-12-2019 16:55:00 0.1 C 4.73 g/m*3 0.1 C 0 km/h
1069 05-12-2019 17:00:00 0.1 C 4.73 g/m*3 0.1 C 0 km/h
1070 05-12-2019 17:05:00 -0.1 C 4.67 g/m*3 -0.1 C 0 km/h
1071 05-12-2019 17:10:00 -0.1 C 4.67 g/m*3 -0.1 C 0 km/h
1072 05-12-2019 17:15:00 -0.1 C 4.67 g/m*3 -0.1 C 0 km/h
1073 05-12-2019 17:20:00 -0.2 C 4.64 g/m*3 -0.2 C 0 km/h
1074 05-12-2019 17:25:00 -0.2 C 4.64 g/m*3 -0.2 C 0 km/h
1075 05-12-2019 17:30:00 -0.2 C 4.64 g/m*3 -0.2 C 0 km/h
Sensor: Nr:Datum:Temp:Abs-Feuchte:Windchill:Wind:
Aussen-T/F 1076 05-12-2019 17:35:00 -0.2 C 4.64 g/m*3 -0.2 C 0 km/h
1077 05-12-2019 17:40:00 -0.3 C 4.6 g/m*3 -0.3 C 0 km/h
1078 05-12-2019 17:45:00 -0.4 C 4.57 g/m*3 -0.4 C 0 km/h
1079 05-12-2019 17:50:00 -0.5 C 4.54 g/m*3 -0.5 C 0 km/h
1080 05-12-2019 17:55:00 -0.5 C 4.54 g/m*3 -0.5 C 0 km/h
1081 05-12-2019 18:00:00 -0.5 C 4.54 g/m*3 -0.5 C 0 km/h
1082 05-12-2019 18:05:00 -0.6 C 4.51 g/m*3 -0.6 C 0 km/h
1083 05-12-2019 18:10:00 -0.6 C 4.51 g/m*3 -0.6 C 0 km/h
1084 05-12-2019 18:15:00 -0.7 C 4.48 g/m*3 -0.7 C 0 km/h
1085 05-12-2019 18:20:00 -0.7 C 4.48 g/m*3 -0.7 C 0 km/h
1086 05-12-2019 18:25:00 -0.8 C 4.45 g/m*3 -0.8 C 0 km/h
1087 05-12-2019 18:30:00 -0.8 C 4.45 g/m*3 -0.8 C 0 km/h
1088 05-12-2019 18:35:00 -0.9 C 4.42 g/m*3 -0.9 C 0 km/h
1089 05-12-2019 18:40:00 -0.9 C 4.42 g/m*3 -0.9 C 1.6 km/h
1090 05-12-2019 18:45:00 -1.1 C 4.35 g/m*3 -1.1 C 0 km/h
1091 05-12-2019 18:50:00 -1.1 C 4.35 g/m*3 -1.1 C 1.6 km/h
1092 05-12-2019 18:55:00 -1.2 C 4.32 g/m*3 -1.2 C 0 km/h
1093 05-12-2019 19:00:00 -1.2 C 4.32 g/m*3 -1.2 C 0 km/h
1094 05-12-2019 19:05:00 -1.2 C 4.32 g/m*3 -1.2 C 0 km/h
1095 05-12-2019 19:10:00 -1.1 C 4.35 g/m*3 -1.1 C 0 km/h
1096 05-12-2019 19:15:00 -1.1 C 4.35 g/m*3 -1.1 C 0 km/h
1097 05-12-2019 19:20:00 -1.1 C 4.35 g/m*3 -1.1 C 0 km/h
1098 05-12-2019 19:25:00 -1.2 C 4.32 g/m*3 -1.2 C 0 km/h
1099 05-12-2019 19:30:00 -1.3 C 4.29 g/m*3 -1.3 C 0 km/h
1100 05-12-2019 19:35:00 -1.4 C 4.26 g/m*3 -1.4 C 0 km/h
Sensor: Nr:Datum:Temp:Abs-Feuchte:Windchill:Wind:
Aussen-T/F 1101 05-12-2019 19:40:00 -1.5 C 4.23 g/m*3 -1.5 C 4.8 km/h
1102 05-12-2019 19:45:00 -1.5 C 4.23 g/m*3 -1.5 C 1.6 km/h
1103 05-12-2019 19:50:00 -1.3 C 4.29 g/m*3 -3.68 C 6.4 km/h
1104 05-12-2019 19:55:00 -1.2 C 4.32 g/m*3 -1.2 C 4.8 km/h
1105 05-12-2019 20:00:00 -0.9 C 4.42 g/m*3 -4.31 C 9.7 km/h
1106 05-12-2019 20:05:00 -0.7 C 4.48 g/m*3 -4.07 C 9.7 km/h
1107 05-12-2019 20:10:00 -0.6 C 4.56 g/m*3 -2.88 C 6.4 km/h
1108 05-12-2019 20:15:00 -0.5 C 4.59 g/m*3 -0.5 C 1.6 km/h
1109 05-12-2019 20:20:00 -0.4 C 4.57 g/m*3 -0.4 C 4.8 km/h
1110 05-12-2019 20:25:00 -0.4 C 4.57 g/m*3 -0.4 C 1.6 km/h
1111 05-12-2019 20:30:00 -0.5 C 4.54 g/m*3 -0.5 C 3.2 km/h
1112 05-12-2019 20:35:00 -0.6 C 4.51 g/m*3 -0.6 C 1.6 km/h
1113 05-12-2019 20:40:00 -0.7 C 4.48 g/m*3 -0.7 C 1.6 km/h
1114 05-12-2019 20:45:00 -0.8 C 4.45 g/m*3 -0.8 C 0 km/h
1115 05-12-2019 20:50:00 -0.9 C 4.42 g/m*3 -0.9 C 3.2 km/h
1116 05-12-2019 20:55:00 -0.9 C 4.42 g/m*3 -0.9 C 1.6 km/h
1117 05-12-2019 21:00:00 -1 C 4.38 g/m*3 -1 C 0 km/h
1118 05-12-2019 21:05:00 -1.1 C 4.35 g/m*3 -1.1 C 0 km/h
1119 05-12-2019 21:10:00 -1.2 C 4.32 g/m*3 -1.2 C 0 km/h
1120 05-12-2019 21:15:00 -1.3 C 4.29 g/m*3 -1.3 C 3.2 km/h
1121 05-12-2019 21:20:00 -1.3 C 4.29 g/m*3 -1.3 C 3.2 km/h
1122 05-12-2019 21:25:00 -1.2 C 4.32 g/m*3 -1.2 C 4.8 km/h
1123 05-12-2019 21:30:00 -1.2 C 4.32 g/m*3 -1.2 C 1.6 km/h
1124 05-12-2019 21:35:00 -1.1 C 4.35 g/m*3 -1.1 C 3.2 km/h
1125 05-12-2019 21:40:00 -1.1 C 4.35 g/m*3 -1.1 C 3.2 km/h
Sensor: Nr:Datum:Temp:Abs-Feuchte:Windchill:Wind:
Aussen-T/F 1126 05-12-2019 21:45:00 -1.1 C 4.35 g/m*3 -1.1 C 1.6 km/h
1127 05-12-2019 21:50:00 -1.2 C 4.32 g/m*3 -1.2 C 1.6 km/h
1128 05-12-2019 21:55:00 -1.2 C 4.32 g/m*3 -1.2 C 0 km/h
1129 05-12-2019 22:00:00 -1.2 C 4.32 g/m*3 -1.2 C 1.6 km/h
1130 05-12-2019 22:05:00 -1.2 C 4.32 g/m*3 -1.2 C 0 km/h
1131 05-12-2019 22:10:00 -1.3 C 4.29 g/m*3 -1.3 C 1.6 km/h
1132 05-12-2019 22:15:00 -1.3 C 4.29 g/m*3 -1.3 C 1.6 km/h
1133 05-12-2019 22:20:00 -1.3 C 4.29 g/m*3 -1.3 C 1.6 km/h
1134 05-12-2019 22:25:00 -1.3 C 4.29 g/m*3 -1.3 C 3.2 km/h
1135 05-12-2019 22:30:00 -1.4 C 4.26 g/m*3 -1.4 C 3.2 km/h
1136 05-12-2019 22:35:00 -1.4 C 4.26 g/m*3 -1.4 C 0 km/h
1137 05-12-2019 22:40:00 -1.5 C 4.23 g/m*3 -1.5 C 3.2 km/h
1138 05-12-2019 22:45:00 -1.6 C 4.21 g/m*3 -1.6 C 0 km/h
1139 05-12-2019 22:50:00 -1.6 C 4.21 g/m*3 -1.6 C 3.2 km/h
1140 05-12-2019 22:55:00 -1.6 C 4.21 g/m*3 -1.6 C 1.6 km/h
1141 05-12-2019 23:00:00 -1.6 C 4.21 g/m*3 -1.6 C 0 km/h
1142 05-12-2019 23:05:00 -1.6 C 4.21 g/m*3 -1.6 C 1.6 km/h
1143 05-12-2019 23:10:00 -1.6 C 4.21 g/m*3 -1.6 C 3.2 km/h
1144 05-12-2019 23:15:00 -1.6 C 4.21 g/m*3 -1.6 C 0 km/h
1145 05-12-2019 23:20:00 -1.7 C 4.18 g/m*3 -1.7 C 0 km/h
1146 05-12-2019 23:25:00 -1.7 C 4.18 g/m*3 -1.7 C 0 km/h
1147 05-12-2019 23:30:00 -1.8 C 4.15 g/m*3 -1.8 C 0 km/h
1148 05-12-2019 23:35:00 -1.9 C 4.12 g/m*3 -1.9 C 0 km/h
1149 05-12-2019 23:40:00 -2 C 4.09 g/m*3 -2 C 0 km/h
1150 05-12-2019 23:45:00 -2.1 C 4.06 g/m*3 -2.1 C 0 km/h
Sensor: Nr:Datum:Temp:Abs-Feuchte:Windchill:Wind:
Aussen-T/F 1151 05-12-2019 23:50:00 -2.1 C 4.06 g/m*3 -2.1 C 1.6 km/h
1152 05-12-2019 23:55:00 -2.2 C 4.03 g/m*3 -2.2 C 3.2 km/h
1153 06-12-2019 00:00:00 -2.2 C 4.03 g/m*3 -2.2 C 3.2 km/h
1154 06-12-2019 00:05:00 -2.1 C 4.06 g/m*3 -2.1 C 0 km/h
1155 06-12-2019 00:10:00 -2.2 C 4.03 g/m*3 -2.2 C 0 km/h
1156 06-12-2019 00:15:00 -2.2 C 4.03 g/m*3 -2.2 C 0 km/h
1157 06-12-2019 00:20:00 -2.3 C 4 g/m*3 -2.3 C 0 km/h
1158 06-12-2019 00:25:00 -2.3 C 4 g/m*3 -2.3 C 0 km/h
1159 06-12-2019 00:30:00 -2.4 C 3.98 g/m*3 -2.4 C 0 km/h
1160 06-12-2019 00:35:00 -2.4 C 3.98 g/m*3 -2.4 C 0 km/h
1161 06-12-2019 00:40:00 -2.4 C 3.98 g/m*3 -2.4 C 1.6 km/h
1162 06-12-2019 00:45:00 -2.4 C 3.98 g/m*3 -2.4 C 1.6 km/h
1163 06-12-2019 00:50:00 -2.3 C 4 g/m*3 -2.3 C 3.2 km/h
1164 06-12-2019 00:55:00 -2.2 C 4.03 g/m*3 -2.2 C 0 km/h
1165 06-12-2019 01:00:00 -2 C 4.09 g/m*3 -2 C 1.6 km/h
1166 06-12-2019 01:05:00 -1.8 C 4.15 g/m*3 -1.8 C 1.6 km/h
1167 06-12-2019 01:10:00 -1.6 C 4.21 g/m*3 -1.6 C 4.8 km/h
1168 06-12-2019 01:15:00 -1.3 C 4.29 g/m*3 -3.68 C 6.4 km/h
1169 06-12-2019 01:20:00 -1 C 4.38 g/m*3 -1 C 4.8 km/h
1170 06-12-2019 01:25:00 -0.9 C 4.46 g/m*3 -0.9 C 0 km/h
1171 06-12-2019 01:30:00 -0.9 C 4.46 g/m*3 -0.9 C 3.2 km/h
1172 06-12-2019 01:35:00 -0.9 C 4.46 g/m*3 -0.9 C 1.6 km/h
1173 06-12-2019 01:40:00 -0.9 C 4.42 g/m*3 -0.9 C 1.6 km/h
1174 06-12-2019 01:45:00 -0.8 C 4.45 g/m*3 -0.8 C 4.8 km/h
1175 06-12-2019 01:50:00 -0.7 C 4.48 g/m*3 -0.7 C 0 km/h
Sensor: Nr:Datum:Temp:Abs-Feuchte:Windchill:Wind:
Aussen-T/F 1176 06-12-2019 01:55:00 -0.7 C 4.48 g/m*3 -0.7 C 1.6 km/h
1177 06-12-2019 02:00:00 -0.6 C 4.51 g/m*3 -0.6 C 3.2 km/h
1178 06-12-2019 02:05:00 -0.6 C 4.51 g/m*3 -2.88 C 6.4 km/h
1179 06-12-2019 02:10:00 -0.6 C 4.51 g/m*3 -0.6 C 4.8 km/h
1180 06-12-2019 02:15:00 -0.5 C 4.54 g/m*3 -0.5 C 3.2 km/h
1181 06-12-2019 02:20:00 -0.6 C 4.51 g/m*3 -0.6 C 1.6 km/h
1182 06-12-2019 02:25:00 -0.6 C 4.51 g/m*3 -2.88 C 6.4 km/h
1183 06-12-2019 02:30:00 -0.6 C 4.51 g/m*3 -0.6 C 3.2 km/h
1184 06-12-2019 02:35:00 -0.6 C 4.51 g/m*3 -3.95 C 9.7 km/h
1185 06-12-2019 02:40:00 -0.6 C 4.51 g/m*3 -3.95 C 9.7 km/h
1186 06-12-2019 02:45:00 -0.6 C 4.51 g/m*3 -3.48 C 8.1 km/h
1187 06-12-2019 02:50:00 -0.5 C 4.54 g/m*3 -0.5 C 1.6 km/h
1188 06-12-2019 02:55:00 -0.5 C 4.54 g/m*3 -2.76 C 6.4 km/h
1189 06-12-2019 03:00:00 -0.4 C 4.57 g/m*3 -4.12 C 11.3 km/h
1190 06-12-2019 03:05:00 -0.4 C 4.57 g/m*3 -0.4 C 4.8 km/h
1191 06-12-2019 03:10:00 -0.4 C 4.57 g/m*3 -0.4 C 3.2 km/h
1192 06-12-2019 03:15:00 -0.3 C 4.6 g/m*3 -0.3 C 4.8 km/h
1193 06-12-2019 03:20:00 -0.3 C 4.6 g/m*3 -0.3 C 4.8 km/h
1194 06-12-2019 03:25:00 -0.2 C 4.64 g/m*3 -3.47 C 9.7 km/h
1195 06-12-2019 03:30:00 -0.2 C 4.59 g/m*3 -3 C 8.1 km/h
1196 06-12-2019 03:35:00 -0.1 C 4.62 g/m*3 -0.1 C 3.2 km/h
1197 06-12-2019 03:40:00 -0.1 C 4.62 g/m*3 -0.1 C 0 km/h
1198 06-12-2019 03:45:00 -0.1 C 4.62 g/m*3 -0.1 C 4.8 km/h
1199 06-12-2019 03:50:00 -0.1 C 4.62 g/m*3 -0.1 C 3.2 km/h
1200 06-12-2019 03:55:00 -0.1 C 4.62 g/m*3 -0.1 C 3.2 km/h
Sensor: Nr:Datum:Temp:Abs-Feuchte:Windchill:Wind:
Aussen-T/F 1201 06-12-2019 04:00:00 -0.1 C 4.62 g/m*3 -0.1 C 1.6 km/h
1202 06-12-2019 04:05:00 -0.1 C 4.62 g/m*3 -3.76 C 11.3 km/h
1203 06-12-2019 04:10:00 -0.1 C 4.62 g/m*3 -0.1 C 3.2 km/h
1204 06-12-2019 04:15:00 -0.2 C 4.59 g/m*3 -0.2 C 1.6 km/h
1205 06-12-2019 04:20:00 -0.2 C 4.54 g/m*3 -0.2 C 1.6 km/h
1206 06-12-2019 04:25:00 -0.2 C 4.54 g/m*3 -0.2 C 3.2 km/h
1207 06-12-2019 04:30:00 -0.1 C 4.57 g/m*3 -3.35 C 9.7 km/h
1208 06-12-2019 04:35:00 -0.1 C 4.57 g/m*3 -0.1 C 0 km/h
1209 06-12-2019 04:40:00 -0.1 C 4.62 g/m*3 -0.1 C 4.8 km/h
1210 06-12-2019 04:45:00 -0.1 C 4.62 g/m*3 -0.1 C 3.2 km/h
1211 06-12-2019 04:50:00 0 C 4.65 g/m*3 0 C 3.2 km/h
1212 06-12-2019 04:55:00 0 C 4.6 g/m*3 0 C 1.6 km/h
1213 06-12-2019 05:00:00 0 C 4.6 g/m*3 0 C 1.6 km/h
1214 06-12-2019 05:05:00 0.1 C 4.63 g/m*3 -2.07 C 6.4 km/h
1215 06-12-2019 05:10:00 0.2 C 4.67 g/m*3 -3 C 9.7 km/h
1216 06-12-2019 05:15:00 0.2 C 4.67 g/m*3 0.2 C 1.6 km/h
1217 06-12-2019 05:20:00 0.2 C 4.67 g/m*3 -1.95 C 6.4 km/h
1218 06-12-2019 05:25:00 0.2 C 4.67 g/m*3 0.2 C 0 km/h
1219 06-12-2019 05:30:00 0.1 C 4.63 g/m*3 0.1 C 1.6 km/h
1220 06-12-2019 05:35:00 0.1 C 4.63 g/m*3 0.1 C 4.8 km/h
1221 06-12-2019 05:40:00 0.1 C 4.63 g/m*3 0.1 C 0 km/h
1222 06-12-2019 05:45:00 0.1 C 4.63 g/m*3 0.1 C 1.6 km/h
1223 06-12-2019 05:50:00 0.1 C 4.63 g/m*3 0.1 C 4.8 km/h
1224 06-12-2019 05:55:00 0.2 C 4.67 g/m*3 0.2 C 3.2 km/h
1225 06-12-2019 06:00:00 0.2 C 4.67 g/m*3 -3 C 9.7 km/h
Sensor: Nr:Datum:Temp:Abs-Feuchte:Windchill:Wind:
Aussen-T/F 1226 06-12-2019 06:05:00 0.3 C 4.7 g/m*3 0.3 C 4.8 km/h
1227 06-12-2019 06:10:00 0.3 C 4.7 g/m*3 0.3 C 0 km/h
1228 06-12-2019 06:15:00 0.3 C 4.7 g/m*3 0.3 C 3.2 km/h
1229 06-12-2019 06:20:00 0.3 C 4.7 g/m*3 -2.42 C 8.1 km/h
1230 06-12-2019 06:25:00 0.4 C 4.73 g/m*3 0.4 C 4.8 km/h
1231 06-12-2019 06:30:00 0.4 C 4.68 g/m*3 0.4 C 3.2 km/h
1232 06-12-2019 06:35:00 0.4 C 4.68 g/m*3 0.4 C 1.6 km/h
1233 06-12-2019 06:40:00 0.4 C 4.68 g/m*3 0.4 C 1.6 km/h
1234 06-12-2019 06:45:00 0.4 C 4.68 g/m*3 0.4 C 4.8 km/h
1235 06-12-2019 06:50:00 0.5 C 4.71 g/m*3 0.5 C 0 km/h
1236 06-12-2019 06:55:00 0.5 C 4.71 g/m*3 0.5 C 0 km/h
1237 06-12-2019 07:00:00 0.5 C 4.71 g/m*3 0.5 C 0 km/h
1238 06-12-2019 07:05:00 0.5 C 4.76 g/m*3 0.5 C 0 km/h
1239 06-12-2019 07:10:00 0.5 C 4.71 g/m*3 -1.6 C 6.4 km/h
1240 06-12-2019 07:15:00 0.6 C 4.75 g/m*3 0.6 C 0 km/h
1241 06-12-2019 07:20:00 0.6 C 4.8 g/m*3 0.6 C 3.2 km/h
1242 06-12-2019 07:25:00 0.7 C 4.78 g/m*3 -1.37 C 6.4 km/h
1243 06-12-2019 07:30:00 0.7 C 4.78 g/m*3 0.7 C 1.6 km/h
1244 06-12-2019 07:35:00 0.8 C 4.81 g/m*3 0.8 C 4.8 km/h
1245 06-12-2019 07:40:00 0.8 C 4.81 g/m*3 -1.26 C 6.4 km/h
1246 06-12-2019 07:45:00 0.9 C 4.85 g/m*3 -1.71 C 8.1 km/h
1247 06-12-2019 07:50:00 1 C 4.83 g/m*3 1 C 4.8 km/h
1248 06-12-2019 07:55:00 1.1 C 4.86 g/m*3 -2.31 C 11.3 km/h
1249 06-12-2019 08:00:00 1.2 C 4.89 g/m*3 -2.85 C 14.5 km/h
1250 06-12-2019 08:05:00 1.2 C 4.89 g/m*3 1.2 C 3.2 km/h
Sensor: Nr:Datum:Temp:Abs-Feuchte:Windchill:Wind:
Aussen-T/F 1251 06-12-2019 08:10:00 1.2 C 4.84 g/m*3 -1.8 C 9.7 km/h
1252 06-12-2019 08:15:00 1.3 C 4.87 g/m*3 -1.24 C 8.1 km/h
1253 06-12-2019 08:20:00 1.3 C 4.87 g/m*3 1.3 C 1.6 km/h
1254 06-12-2019 08:25:00 1.3 C 4.93 g/m*3 -1.24 C 8.1 km/h
1255 06-12-2019 08:30:00 1.3 C 4.87 g/m*3 1.3 C 1.6 km/h
1256 06-12-2019 08:35:00 1.4 C 4.91 g/m*3 1.4 C 3.2 km/h
1257 06-12-2019 08:40:00 1.4 C 4.91 g/m*3 1.4 C 1.6 km/h
1258 06-12-2019 08:45:00 1.4 C 4.91 g/m*3 1.4 C 0 km/h
1259 06-12-2019 08:50:00 1.4 C 4.91 g/m*3 1.4 C 0 km/h
1260 06-12-2019 08:55:00 1.4 C 4.91 g/m*3 1.4 C 0 km/h
1261 06-12-2019 09:00:00 1.4 C 4.91 g/m*3 1.4 C 4.8 km/h
1262 06-12-2019 09:05:00 1.5 C 4.94 g/m*3 1.5 C 4.8 km/h
1263 06-12-2019 09:10:00 1.6 C 4.97 g/m*3 1.6 C 3.2 km/h
1264 06-12-2019 09:15:00 1.7 C 5.06 g/m*3 -0.77 C 8.1 km/h
1265 06-12-2019 09:20:00 1.8 C 5.1 g/m*3 -0.1 C 6.4 km/h
1266 06-12-2019 09:25:00 1.9 C 5.08 g/m*3 -0.54 C 8.1 km/h
1267 06-12-2019 09:30:00 1.9 C 5.13 g/m*3 0.01 C 6.4 km/h
1268 06-12-2019 09:35:00 2.1 C 5.2 g/m*3 0.24 C 6.4 km/h
1269 06-12-2019 09:40:00 2.1 C 5.2 g/m*3 0.24 C 6.4 km/h
1270 06-12-2019 09:45:00 2.2 C 5.24 g/m*3 2.2 C 3.2 km/h
1271 06-12-2019 09:50:00 2.2 C 5.24 g/m*3 2.2 C 1.6 km/h
1272 06-12-2019 09:55:00 2.3 C 5.27 g/m*3 -0.07 C 8.1 km/h
1273 06-12-2019 10:00:00 2.3 C 5.27 g/m*3 2.3 C 3.2 km/h
1274 06-12-2019 10:05:00 2.4 C 5.31 g/m*3 2.4 C 3.2 km/h
1275 06-12-2019 10:10:00 2.4 C 5.31 g/m*3 2.4 C 0 km/h
Sensor: Nr:Datum:Temp:Abs-Feuchte:Windchill:Wind:
Aussen-T/F 1276 06-12-2019 10:15:00 2.5 C 5.35 g/m*3 2.5 C 1.6 km/h
1277 06-12-2019 10:20:00 2.6 C 5.38 g/m*3 2.6 C 0 km/h
1278 06-12-2019 10:25:00 2.6 C 5.44 g/m*3 2.6 C 3.2 km/h
1279 06-12-2019 10:30:00 2.6 C 5.44 g/m*3 2.6 C 1.6 km/h
1280 06-12-2019 10:35:00 2.7 C 5.48 g/m*3 2.7 C 3.2 km/h
1281 06-12-2019 10:40:00 2.7 C 5.48 g/m*3 2.7 C 3.2 km/h
1282 06-12-2019 10:45:00 2.9 C 5.55 g/m*3 2.9 C 1.6 km/h
1283 06-12-2019 10:50:00 3 C 5.59 g/m*3 3 C 0 km/h
1284 06-12-2019 10:55:00 3.1 C 5.63 g/m*3 3.1 C 3.2 km/h
1285 06-12-2019 11:00:00 3.2 C 5.66 g/m*3 3.2 C 4.8 km/h
1286 06-12-2019 11:05:00 3.3 C 5.7 g/m*3 3.3 C 1.6 km/h
1287 06-12-2019 11:10:00 3.5 C 5.84 g/m*3 3.5 C 3.2 km/h
1288 06-12-2019 11:15:00 3.6 C 5.82 g/m*3 1.46 C 8.1 km/h
1289 06-12-2019 11:20:00 3.7 C 5.86 g/m*3 3.7 C 1.6 km/h
1290 06-12-2019 11:25:00 3.8 C 5.9 g/m*3 0.94 C 11.3 km/h
1291 06-12-2019 11:30:00 4 C 5.98 g/m*3 4 C 1.6 km/h
1292 06-12-2019 11:35:00 4.1 C 6.02 g/m*3 2.55 C 6.4 km/h
1293 06-12-2019 11:40:00 4.2 C 6.06 g/m*3 4.2 C 4.8 km/h
1294 06-12-2019 11:45:00 4.3 C 6.1 g/m*3 2.29 C 8.1 km/h
1295 06-12-2019 11:50:00 4.3 C 6.1 g/m*3 2.78 C 6.4 km/h
1296 06-12-2019 11:55:00 4.4 C 6.07 g/m*3 2.01 C 9.7 km/h
1297 06-12-2019 12:00:00 4.5 C 6.11 g/m*3 3.02 C 6.4 km/h
1298 06-12-2019 12:05:00 4.6 C 6.15 g/m*3 1.34 C 14.5 km/h
1299 06-12-2019 12:10:00 4.7 C 6.19 g/m*3 1.73 C 12.9 km/h
1300 06-12-2019 12:15:00 4.7 C 6.19 g/m*3 4.7 C 4.8 km/h
Sensor: Nr:Datum:Temp:Abs-Feuchte:Windchill:Wind:
Aussen-T/F 1301 06-12-2019 12:20:00 4.7 C 6.19 g/m*3 3.25 C 6.4 km/h
1302 06-12-2019 12:25:00 4.7 C 6.26 g/m*3 2.37 C 9.7 km/h
1303 06-12-2019 12:30:00 4.7 C 6.26 g/m*3 4.7 C 0 km/h
1304 06-12-2019 12:35:00 4.7 C 6.26 g/m*3 4.7 C 3.2 km/h
1305 06-12-2019 12:40:00 4.7 C 6.26 g/m*3 4.7 C 1.6 km/h
1306 06-12-2019 12:45:00 4.8 C 6.3 g/m*3 4.8 C 0 km/h
1307 06-12-2019 12:50:00 4.8 C 6.3 g/m*3 4.8 C 3.2 km/h
1308 06-12-2019 12:55:00 4.8 C 6.3 g/m*3 2.15 C 11.3 km/h
1309 06-12-2019 13:00:00 4.8 C 6.37 g/m*3 4.8 C 3.2 km/h
1310 06-12-2019 13:05:00 4.8 C 6.37 g/m*3 4.8 C 4.8 km/h
1311 06-12-2019 13:10:00 4.8 C 6.37 g/m*3 4.8 C 1.6 km/h
1312 06-12-2019 13:15:00 4.9 C 6.41 g/m*3 4.9 C 3.2 km/h
1313 06-12-2019 13:20:00 4.9 C 6.41 g/m*3 3.48 C 6.4 km/h
1314 06-12-2019 13:25:00 4.9 C 6.41 g/m*3 4.9 C 3.2 km/h
1315 06-12-2019 13:30:00 4.9 C 6.41 g/m*3 1.7 C 14.5 km/h
1316 06-12-2019 13:35:00 5 C 6.46 g/m*3 2.72 C 9.7 km/h
1317 06-12-2019 13:40:00 5.1 C 6.5 g/m*3 2.51 C 11.3 km/h
1318 06-12-2019 13:45:00 5.1 C 6.5 g/m*3 3.71 C 6.4 km/h
1319 06-12-2019 13:50:00 5.1 C 6.5 g/m*3 2.22 C 12.9 km/h
1320 06-12-2019 13:55:00 5.2 C 6.54 g/m*3 5.2 C 1.6 km/h
1321 06-12-2019 14:00:00 5.2 C 6.54 g/m*3 5.2 C 0 km/h
1322 06-12-2019 14:05:00 5.2 C 6.54 g/m*3 5.2 C 1.6 km/h
1323 06-12-2019 14:10:00 5.2 C 6.54 g/m*3 5.2 C 1.6 km/h
1324 06-12-2019 14:15:00 5.2 C 6.54 g/m*3 5.2 C 3.2 km/h
1325 06-12-2019 14:20:00 5.2 C 6.54 g/m*3 5.2 C 3.2 km/h
Sensor: Nr:Datum:Temp:Abs-Feuchte:Windchill:Wind:
Aussen-T/F 1326 06-12-2019 14:25:00 5.3 C 6.58 g/m*3 5.3 C 1.6 km/h
1327 06-12-2019 14:30:00 5.3 C 6.58 g/m*3 5.3 C 3.2 km/h
1328 06-12-2019 14:35:00 5.3 C 6.58 g/m*3 5.3 C 4.8 km/h
1329 06-12-2019 14:40:00 5.3 C 6.58 g/m*3 5.3 C 1.6 km/h
1330 06-12-2019 14:45:00 5.3 C 6.58 g/m*3 5.3 C 0 km/h
1331 06-12-2019 14:50:00 5.3 C 6.58 g/m*3 5.3 C 4.8 km/h
1332 06-12-2019 14:55:00 5.3 C 6.58 g/m*3 5.3 C 4.8 km/h
1333 06-12-2019 15:00:00 5.3 C 6.58 g/m*3 5.3 C 1.6 km/h
1334 06-12-2019 15:05:00 5.3 C 6.58 g/m*3 3.46 C 8.1 km/h
1335 06-12-2019 15:10:00 5.3 C 6.58 g/m*3 3.08 C 9.7 km/h
1336 06-12-2019 15:15:00 5.3 C 6.58 g/m*3 5.3 C 3.2 km/h
1337 06-12-2019 15:20:00 5.4 C 6.63 g/m*3 1.86 C 17.7 km/h
1338 06-12-2019 15:25:00 5.5 C 6.67 g/m*3 5.5 C 1.6 km/h
1339 06-12-2019 15:30:00 5.4 C 6.63 g/m*3 5.4 C 0 km/h
1340 06-12-2019 15:35:00 5.5 C 6.67 g/m*3 5.5 C 3.2 km/h
1341 06-12-2019 15:40:00 5.5 C 6.67 g/m*3 5.5 C 3.2 km/h
1342 06-12-2019 15:45:00 5.6 C 6.72 g/m*3 3.81 C 8.1 km/h
1343 06-12-2019 15:50:00 5.6 C 6.72 g/m*3 5.6 C 3.2 km/h
1344 06-12-2019 15:55:00 5.6 C 6.72 g/m*3 4.29 C 6.4 km/h
1345 06-12-2019 16:00:00 5.6 C 6.72 g/m*3 3.81 C 8.1 km/h
1346 06-12-2019 16:05:00 5.7 C 6.76 g/m*3 3.56 C 9.7 km/h
1347 06-12-2019 16:10:00 5.7 C 6.76 g/m*3 2.24 C 17.7 km/h
1348 06-12-2019 16:15:00 5.8 C 6.81 g/m*3 2.36 C 17.7 km/h
1349 06-12-2019 16:20:00 5.9 C 6.78 g/m*3 3.19 C 12.9 km/h
1350 06-12-2019 16:25:00 6.1 C 6.79 g/m*3 3.18 C 14.5 km/h
Sensor: Nr:Datum:Temp:Abs-Feuchte:Windchill:Wind:
Aussen-T/F 1351 06-12-2019 16:30:00 6.1 C 6.79 g/m*3 4.86 C 6.4 km/h
1352 06-12-2019 16:35:00 6.1 C 6.79 g/m*3 4.4 C 8.1 km/h
1353 06-12-2019 16:40:00 6.1 C 6.79 g/m*3 4.04 C 9.7 km/h
1354 06-12-2019 16:45:00 6.1 C 6.79 g/m*3 4.4 C 8.1 km/h
1355 06-12-2019 16:50:00 6.1 C 6.72 g/m*3 6.1 C 4.8 km/h
1356 06-12-2019 16:55:00 6.2 C 6.77 g/m*3 6.2 C 4.8 km/h
1357 06-12-2019 17:00:00 6.2 C 6.77 g/m*3 4.98 C 6.4 km/h
1358 06-12-2019 17:05:00 6.2 C 6.69 g/m*3 4.52 C 8.1 km/h
1359 06-12-2019 17:10:00 6.2 C 6.69 g/m*3 6.2 C 3.2 km/h
1360 06-12-2019 17:15:00 6.2 C 6.69 g/m*3 6.2 C 4.8 km/h
1361 06-12-2019 17:20:00 6.2 C 6.69 g/m*3 4.98 C 6.4 km/h
1362 06-12-2019 17:25:00 6.2 C 6.69 g/m*3 3.84 C 11.3 km/h
1363 06-12-2019 17:30:00 6.2 C 6.69 g/m*3 4.52 C 8.1 km/h
1364 06-12-2019 17:35:00 6.2 C 6.69 g/m*3 4.98 C 6.4 km/h
1365 06-12-2019 17:40:00 6.2 C 6.69 g/m*3 4.52 C 8.1 km/h
1366 06-12-2019 17:45:00 6.3 C 6.66 g/m*3 4.27 C 9.7 km/h
1367 06-12-2019 17:50:00 6.3 C 6.66 g/m*3 3.96 C 11.3 km/h
1368 06-12-2019 17:55:00 6.3 C 6.74 g/m*3 3.96 C 11.3 km/h
1369 06-12-2019 18:00:00 6.4 C 6.71 g/m*3 5.21 C 6.4 km/h
1370 06-12-2019 18:05:00 6.4 C 6.71 g/m*3 4.75 C 8.1 km/h
1371 06-12-2019 18:10:00 6.5 C 6.75 g/m*3 4.87 C 8.1 km/h
1372 06-12-2019 18:15:00 6.6 C 6.79 g/m*3 6.6 C 4.8 km/h
1373 06-12-2019 18:20:00 6.6 C 6.79 g/m*3 4.63 C 9.7 km/h
1374 06-12-2019 18:25:00 6.7 C 6.84 g/m*3 3.48 C 17.7 km/h
1375 06-12-2019 18:30:00 6.7 C 6.84 g/m*3 3.69 C 16.1 km/h
Sensor: Nr:Datum:Temp:Abs-Feuchte:Windchill:Wind:
Aussen-T/F 1376 06-12-2019 18:35:00 6.7 C 6.84 g/m*3 4.75 C 9.7 km/h
1377 06-12-2019 18:40:00 6.8 C 6.88 g/m*3 4.56 C 11.3 km/h
1378 06-12-2019 18:45:00 6.8 C 6.88 g/m*3 4.56 C 11.3 km/h
1379 06-12-2019 18:50:00 6.8 C 6.88 g/m*3 4.04 C 14.5 km/h
1380 06-12-2019 18:55:00 6.8 C 6.88 g/m*3 4.87 C 9.7 km/h
1381 06-12-2019 19:00:00 6.8 C 6.88 g/m*3 5.22 C 8.1 km/h
1382 06-12-2019 19:05:00 6.8 C 6.96 g/m*3 4.04 C 14.5 km/h
1383 06-12-2019 19:10:00 6.7 C 6.91 g/m*3 4.75 C 9.7 km/h
1384 06-12-2019 19:15:00 6.8 C 6.96 g/m*3 3.61 C 17.7 km/h
1385 06-12-2019 19:20:00 6.8 C 6.96 g/m*3 4.04 C 14.5 km/h
1386 06-12-2019 19:25:00 6.8 C 6.96 g/m*3 4.29 C 12.9 km/h
1387 06-12-2019 19:30:00 6.9 C 6.93 g/m*3 3.73 C 17.7 km/h
1388 06-12-2019 19:35:00 6.9 C 6.93 g/m*3 3.73 C 17.7 km/h
1389 06-12-2019 19:40:00 7.1 C 6.94 g/m*3 3.15 C 25.7 km/h
1390 06-12-2019 19:45:00 7.1 C 7.02 g/m*3 4.41 C 14.5 km/h
1391 06-12-2019 19:50:00 7.1 C 6.94 g/m*3 3.8 C 19.3 km/h
1392 06-12-2019 19:55:00 7.2 C 6.99 g/m*3 4.31 C 16.1 km/h
1393 06-12-2019 20:00:00 7.2 C 6.99 g/m*3 4.31 C 16.1 km/h
1394 06-12-2019 20:05:00 7.2 C 6.99 g/m*3 3.43 C 24.1 km/h
1395 06-12-2019 20:10:00 7.3 C 7.03 g/m*3 3.13 C 29 km/h
1396 06-12-2019 20:15:00 7.3 C 7.03 g/m*3 4.05 C 19.3 km/h
1397 06-12-2019 20:20:00 7.3 C 7.03 g/m*3 4.66 C 14.5 km/h
1398 06-12-2019 20:25:00 7.3 C 7.03 g/m*3 3.87 C 20.9 km/h
1399 06-12-2019 20:30:00 7.3 C 7.03 g/m*3 4.05 C 19.3 km/h
1400 06-12-2019 20:35:00 7.3 C 7.03 g/m*3 4.66 C 14.5 km/h
Sensor: Nr:Datum:Temp:Abs-Feuchte:Windchill:Wind:
Aussen-T/F 1401 06-12-2019 20:40:00 7.3 C 7.03 g/m*3 3.87 C 20.9 km/h
1402 06-12-2019 20:45:00 7.3 C 7.03 g/m*3 4.66 C 14.5 km/h
1403 06-12-2019 20:50:00 7.3 C 7.03 g/m*3 3.87 C 20.9 km/h
1404 06-12-2019 20:55:00 7.3 C 7.03 g/m*3 3.55 C 24.1 km/h
1405 06-12-2019 21:00:00 7.3 C 7.03 g/m*3 3.71 C 22.5 km/h
1406 06-12-2019 21:05:00 7.3 C 7.03 g/m*3 4.23 C 17.7 km/h
1407 06-12-2019 21:10:00 7.3 C 7.03 g/m*3 3.13 C 29 km/h
1408 06-12-2019 21:15:00 7.2 C 6.99 g/m*3 4.11 C 17.7 km/h
1409 06-12-2019 21:20:00 7.2 C 6.99 g/m*3 3.75 C 20.9 km/h
1410 06-12-2019 21:25:00 7.2 C 6.99 g/m*3 3.43 C 24.1 km/h
1411 06-12-2019 21:30:00 7.2 C 6.99 g/m*3 3.28 C 25.7 km/h
1412 06-12-2019 21:35:00 7.2 C 7.06 g/m*3 3.92 C 19.3 km/h
1413 06-12-2019 21:40:00 7.1 C 7.02 g/m*3 3.98 C 17.7 km/h
1414 06-12-2019 21:45:00 7.1 C 7.02 g/m*3 3.62 C 20.9 km/h
1415 06-12-2019 21:50:00 7.1 C 7.02 g/m*3 3.98 C 17.7 km/h
1416 06-12-2019 21:55:00 7.1 C 7.02 g/m*3 3.98 C 17.7 km/h
1417 06-12-2019 22:00:00 7.1 C 7.02 g/m*3 4.19 C 16.1 km/h
1418 06-12-2019 22:05:00 7.1 C 7.02 g/m*3 3 C 27.4 km/h
1419 06-12-2019 22:10:00 7.2 C 7.06 g/m*3 3.13 C 27.4 km/h
1420 06-12-2019 22:15:00 7.2 C 7.06 g/m*3 4.31 C 16.1 km/h
1421 06-12-2019 22:20:00 7.2 C 6.99 g/m*3 4.31 C 16.1 km/h
1422 06-12-2019 22:25:00 7.2 C 6.99 g/m*3 4.53 C 14.5 km/h
1423 06-12-2019 22:30:00 7.3 C 7.03 g/m*3 4.66 C 14.5 km/h
1424 06-12-2019 22:35:00 7.3 C 7.03 g/m*3 4.44 C 16.1 km/h
1425 06-12-2019 22:40:00 7.3 C 7.03 g/m*3 4.23 C 17.7 km/h
Sensor: Nr:Datum:Temp:Abs-Feuchte:Windchill:Wind:
Aussen-T/F 1426 06-12-2019 22:45:00 7.3 C 7.03 g/m*3 3.41 C 25.7 km/h
1427 06-12-2019 22:50:00 7.4 C 7.08 g/m*3 4.17 C 19.3 km/h
1428 06-12-2019 22:55:00 7.4 C 7 g/m*3 4.56 C 16.1 km/h
1429 06-12-2019 23:00:00 7.5 C 7.04 g/m*3 5.14 C 12.9 km/h
1430 06-12-2019 23:05:00 7.5 C 7.04 g/m*3 4.68 C 16.1 km/h
1431 06-12-2019 23:10:00 7.5 C 7.12 g/m*3 5.41 C 11.3 km/h
1432 06-12-2019 23:15:00 7.5 C 7.12 g/m*3 5.41 C 11.3 km/h
1433 06-12-2019 23:20:00 7.5 C 7.12 g/m*3 5.7 C 9.7 km/h
1434 06-12-2019 23:25:00 7.4 C 7.08 g/m*3 5.02 C 12.9 km/h
1435 06-12-2019 23:30:00 7.4 C 7.16 g/m*3 5.28 C 11.3 km/h
1436 06-12-2019 23:35:00 7.4 C 7.16 g/m*3 5.58 C 9.7 km/h
1437 06-12-2019 23:40:00 7.4 C 7.16 g/m*3 4.78 C 14.5 km/h
1438 06-12-2019 23:45:00 7.4 C 7.16 g/m*3 5.58 C 9.7 km/h
1439 06-12-2019 23:50:00 7.4 C 7.16 g/m*3 4.56 C 16.1 km/h
1440 06-12-2019 23:55:00 7.4 C 7.16 g/m*3 5.28 C 11.3 km/h
1441 07-12-2019 00:00:00 7.4 C 7.16 g/m*3 4.78 C 14.5 km/h
1442 07-12-2019 00:05:00 7.4 C 7.16 g/m*3 5.58 C 9.7 km/h
1443 07-12-2019 00:10:00 7.5 C 7.2 g/m*3 4.68 C 16.1 km/h
1444 07-12-2019 00:15:00 7.6 C 7.25 g/m*3 5.26 C 12.9 km/h
1445 07-12-2019 00:20:00 7.7 C 7.3 g/m*3 4.93 C 16.1 km/h
1446 07-12-2019 00:25:00 7.7 C 7.3 g/m*3 5.65 C 11.3 km/h
1447 07-12-2019 00:30:00 7.7 C 7.3 g/m*3 4.93 C 16.1 km/h
1448 07-12-2019 00:35:00 7.7 C 7.3 g/m*3 5.38 C 12.9 km/h
1449 07-12-2019 00:40:00 7.7 C 7.3 g/m*3 5.15 C 14.5 km/h
1450 07-12-2019 00:45:00 7.8 C 7.35 g/m*3 5.06 C 16.1 km/h
Sensor: Nr:Datum:Temp:Abs-Feuchte:Windchill:Wind:
Aussen-T/F 1451 07-12-2019 00:50:00 7.8 C 7.35 g/m*3 4.68 C 19.3 km/h
1452 07-12-2019 00:55:00 7.8 C 7.35 g/m*3 3.78 C 29 km/h
1453 07-12-2019 01:00:00 7.9 C 7.39 g/m*3 5.18 C 16.1 km/h
1454 07-12-2019 01:05:00 7.9 C 7.39 g/m*3 5.39 C 14.5 km/h
1455 07-12-2019 01:10:00 8 C 7.44 g/m*3 5.11 C 17.7 km/h
1456 07-12-2019 01:15:00 8 C 7.44 g/m*3 6.3 C 9.7 km/h
1457 07-12-2019 01:20:00 8 C 7.44 g/m*3 6.64 C 8.1 km/h
1458 07-12-2019 01:25:00 8.1 C 7.49 g/m*3 6.13 C 11.3 km/h
1459 07-12-2019 01:30:00 8.2 C 7.54 g/m*3 6.25 C 11.3 km/h
1460 07-12-2019 01:35:00 8.2 C 7.54 g/m*3 6.87 C 8.1 km/h
1461 07-12-2019 01:40:00 8.2 C 7.54 g/m*3 5.76 C 14.5 km/h
1462 07-12-2019 01:45:00 8.2 C 7.54 g/m*3 6.25 C 11.3 km/h
1463 07-12-2019 01:50:00 8.2 C 7.54 g/m*3 6.54 C 9.7 km/h
1464 07-12-2019 01:55:00 8.2 C 7.62 g/m*3 6.54 C 9.7 km/h
1465 07-12-2019 02:00:00 8.2 C 7.62 g/m*3 6.54 C 9.7 km/h
1466 07-12-2019 02:05:00 8.2 C 7.62 g/m*3 6.54 C 9.7 km/h
1467 07-12-2019 02:10:00 8.1 C 7.57 g/m*3 7.17 C 6.4 km/h
1468 07-12-2019 02:15:00 8.1 C 7.57 g/m*3 6.42 C 9.7 km/h
1469 07-12-2019 02:20:00 8.2 C 7.7 g/m*3 6.25 C 11.3 km/h
1470 07-12-2019 02:25:00 8.2 C 7.7 g/m*3 6.25 C 11.3 km/h
1471 07-12-2019 02:30:00 8.2 C 7.7 g/m*3 8.2 C 3.2 km/h
1472 07-12-2019 02:35:00 8.1 C 7.74 g/m*3 7.17 C 6.4 km/h
1473 07-12-2019 02:40:00 8.1 C 7.74 g/m*3 7.17 C 6.4 km/h
1474 07-12-2019 02:45:00 8.1 C 7.74 g/m*3 6.42 C 9.7 km/h
1475 07-12-2019 02:50:00 8.1 C 7.82 g/m*3 6.75 C 8.1 km/h
Sensor: Nr:Datum:Temp:Abs-Feuchte:Windchill:Wind:
Aussen-T/F 1476 07-12-2019 02:55:00 8.1 C 7.82 g/m*3 8.1 C 4.8 km/h
1477 07-12-2019 03:00:00 8.2 C 7.79 g/m*3 6.54 C 9.7 km/h
1478 07-12-2019 03:05:00 8.2 C 7.79 g/m*3 8.2 C 3.2 km/h
1479 07-12-2019 03:10:00 8.3 C 7.84 g/m*3 6.99 C 8.1 km/h
1480 07-12-2019 03:15:00 8.3 C 7.84 g/m*3 6.66 C 9.7 km/h
1481 07-12-2019 03:20:00 8.4 C 7.89 g/m*3 6.49 C 11.3 km/h
1482 07-12-2019 03:25:00 8.6 C 7.99 g/m*3 6.73 C 11.3 km/h
1483 07-12-2019 03:30:00 8.7 C 7.96 g/m*3 5.81 C 19.3 km/h
1484 07-12-2019 03:35:00 8.8 C 7.92 g/m*3 6.72 C 12.9 km/h
1485 07-12-2019 03:40:00 9 C 7.93 g/m*3 7.21 C 11.3 km/h
1486 07-12-2019 03:45:00 9.2 C 7.95 g/m*3 6.61 C 17.7 km/h
1487 07-12-2019 03:50:00 9.2 C 7.95 g/m*3 7.21 C 12.9 km/h
1488 07-12-2019 03:55:00 9.3 C 7.91 g/m*3 6.56 C 19.3 km/h
1489 07-12-2019 04:00:00 9.3 C 7.91 g/m*3 8.56 C 6.4 km/h
1490 07-12-2019 04:05:00 9.2 C 7.95 g/m*3 9.2 C 4.8 km/h
1491 07-12-2019 04:10:00 9.1 C 7.9 g/m*3 7.09 C 12.9 km/h
1492 07-12-2019 04:15:00 9.1 C 7.9 g/m*3 7.93 C 8.1 km/h
1493 07-12-2019 04:20:00 9 C 7.85 g/m*3 9 C 4.8 km/h
1494 07-12-2019 04:25:00 8.9 C 7.8 g/m*3 7.09 C 11.3 km/h
1495 07-12-2019 04:30:00 8.7 C 7.7 g/m*3 7.13 C 9.7 km/h
1496 07-12-2019 04:35:00 8.7 C 7.78 g/m*3 7.13 C 9.7 km/h
1497 07-12-2019 04:40:00 8.6 C 7.73 g/m*3 7.75 C 6.4 km/h
1498 07-12-2019 04:45:00 8.6 C 7.73 g/m*3 7.01 C 9.7 km/h
1499 07-12-2019 04:50:00 8.6 C 7.73 g/m*3 7.34 C 8.1 km/h
1500 07-12-2019 04:55:00 8.5 C 7.68 g/m*3 8.5 C 4.8 km/h
Sensor: Nr:Datum:Temp:Abs-Feuchte:Windchill:Wind:
Aussen-T/F 1501 07-12-2019 05:00:00 8.4 C 7.72 g/m*3 6.78 C 9.7 km/h
1502 07-12-2019 05:05:00 8.4 C 7.72 g/m*3 7.11 C 8.1 km/h
1503 07-12-2019 05:10:00 8.4 C 7.72 g/m*3 6.78 C 9.7 km/h
1504 07-12-2019 05:15:00 8.4 C 7.72 g/m*3 7.11 C 8.1 km/h
1505 07-12-2019 05:20:00 8.5 C 7.85 g/m*3 6.9 C 9.7 km/h
1506 07-12-2019 05:25:00 8.6 C 7.82 g/m*3 8.6 C 4.8 km/h
1507 07-12-2019 05:30:00 8.5 C 7.77 g/m*3 8.5 C 3.2 km/h
1508 07-12-2019 05:35:00 8.4 C 7.72 g/m*3 8.4 C 0 km/h
1509 07-12-2019 05:40:00 8.4 C 7.8 g/m*3 6.78 C 9.7 km/h
1510 07-12-2019 05:45:00 8.4 C 7.72 g/m*3 7.11 C 8.1 km/h
1511 07-12-2019 05:50:00 8.3 C 7.67 g/m*3 8.3 C 4.8 km/h
1512 07-12-2019 05:55:00 8.2 C 7.62 g/m*3 7.29 C 6.4 km/h
1513 07-12-2019 06:00:00 8.1 C 7.57 g/m*3 5.87 C 12.9 km/h
1514 07-12-2019 06:05:00 8.2 C 7.62 g/m*3 6.54 C 9.7 km/h
1515 07-12-2019 06:10:00 8.2 C 7.54 g/m*3 6.25 C 11.3 km/h
1516 07-12-2019 06:15:00 8.4 C 7.55 g/m*3 6.24 C 12.9 km/h
1517 07-12-2019 06:20:00 8.6 C 7.56 g/m*3 6.73 C 11.3 km/h
1518 07-12-2019 06:25:00 8.8 C 7.57 g/m*3 6.97 C 11.3 km/h
1519 07-12-2019 06:30:00 8.8 C 7.57 g/m*3 6.72 C 12.9 km/h
1520 07-12-2019 06:35:00 8.7 C 7.44 g/m*3 7.13 C 9.7 km/h
1521 07-12-2019 06:40:00 8.6 C 7.48 g/m*3 7.75 C 6.4 km/h
1522 07-12-2019 06:45:00 8.5 C 7.43 g/m*3 7.64 C 6.4 km/h
1523 07-12-2019 06:50:00 8.4 C 7.38 g/m*3 8.4 C 3.2 km/h
1524 07-12-2019 06:55:00 8.3 C 7.42 g/m*3 7.41 C 6.4 km/h
1525 07-12-2019 07:00:00 8.2 C 7.37 g/m*3 8.2 C 4.8 km/h
Sensor: Nr:Datum:Temp:Abs-Feuchte:Windchill:Wind:
Aussen-T/F 1526 07-12-2019 07:05:00 7.9 C 7.23 g/m*3 6.94 C 6.4 km/h
1527 07-12-2019 07:10:00 7.8 C 7.26 g/m*3 6.06 C 9.7 km/h
1528 07-12-2019 07:15:00 7.7 C 7.22 g/m*3 7.7 C 4.8 km/h
1529 07-12-2019 07:20:00 7.6 C 7.17 g/m*3 6.6 C 6.4 km/h
1530 07-12-2019 07:25:00 7.6 C 7.25 g/m*3 6.6 C 6.4 km/h
1531 07-12-2019 07:30:00 7.6 C 7.25 g/m*3 6.6 C 6.4 km/h
1532 07-12-2019 07:35:00 7.5 C 7.2 g/m*3 7.5 C 3.2 km/h
1533 07-12-2019 07:40:00 7.3 C 7.11 g/m*3 7.3 C 3.2 km/h
1534 07-12-2019 07:45:00 7.4 C 7.24 g/m*3 5.58 C 9.7 km/h
1535 07-12-2019 07:50:00 7.7 C 7.38 g/m*3 6.71 C 6.4 km/h
1536 07-12-2019 07:55:00 7.8 C 7.43 g/m*3 5.51 C 12.9 km/h
1537 07-12-2019 08:00:00 7.9 C 7.39 g/m*3 6.52 C 8.1 km/h
1538 07-12-2019 08:05:00 8.1 C 7.49 g/m*3 6.13 C 11.3 km/h
1539 07-12-2019 08:10:00 8.2 C 7.54 g/m*3 8.2 C 4.8 km/h
1540 07-12-2019 08:15:00 8.3 C 7.59 g/m*3 6.99 C 8.1 km/h
1541 07-12-2019 08:20:00 8.2 C 7.54 g/m*3 7.29 C 6.4 km/h
1542 07-12-2019 08:25:00 8.3 C 7.59 g/m*3 7.41 C 6.4 km/h
1543 07-12-2019 08:30:00 8.4 C 7.63 g/m*3 7.11 C 8.1 km/h
1544 07-12-2019 08:35:00 8.4 C 7.63 g/m*3 6.78 C 9.7 km/h
1545 07-12-2019 08:40:00 8.6 C 7.73 g/m*3 7.34 C 8.1 km/h
1546 07-12-2019 08:45:00 8.6 C 7.73 g/m*3 7.75 C 6.4 km/h
1547 07-12-2019 08:50:00 8.6 C 7.65 g/m*3 7.01 C 9.7 km/h
1548 07-12-2019 08:55:00 8.6 C 7.65 g/m*3 8.6 C 4.8 km/h
1549 07-12-2019 09:00:00 8.7 C 7.7 g/m*3 7.46 C 8.1 km/h
1550 07-12-2019 09:05:00 8.7 C 7.7 g/m*3 7.46 C 8.1 km/h
Sensor: Nr:Datum:Temp:Abs-Feuchte:Windchill:Wind:
Aussen-T/F 1551 07-12-2019 09:10:00 8.7 C 7.78 g/m*3 8.7 C 3.2 km/h
1552 07-12-2019 09:15:00 8.7 C 7.78 g/m*3 8.7 C 4.8 km/h
1553 07-12-2019 09:20:00 8.7 C 7.78 g/m*3 8.7 C 1.6 km/h
1554 07-12-2019 09:25:00 8.7 C 7.78 g/m*3 8.7 C 1.6 km/h
1555 07-12-2019 09:30:00 8.7 C 7.78 g/m*3 8.7 C 0 km/h
1556 07-12-2019 09:35:00 8.7 C 7.78 g/m*3 8.7 C 0 km/h
1557 07-12-2019 09:40:00 8.7 C 7.78 g/m*3 8.7 C 3.2 km/h
1558 07-12-2019 09:45:00 8.7 C 7.78 g/m*3 8.7 C 4.8 km/h
1559 07-12-2019 09:50:00 8.7 C 7.78 g/m*3 8.7 C 4.8 km/h
1560 07-12-2019 09:55:00 8.8 C 7.83 g/m*3 8.8 C 4.8 km/h
1561 07-12-2019 10:00:00 8.8 C 7.75 g/m*3 8.8 C 3.2 km/h
1562 07-12-2019 10:05:00 8.8 C 7.83 g/m*3 8.8 C 4.8 km/h
1563 07-12-2019 10:10:00 8.9 C 7.8 g/m*3 7.69 C 8.1 km/h
1564 07-12-2019 10:15:00 9 C 7.85 g/m*3 7.81 C 8.1 km/h
1565 07-12-2019 10:20:00 9.1 C 7.9 g/m*3 8.33 C 6.4 km/h
1566 07-12-2019 10:25:00 9.2 C 7.86 g/m*3 7.46 C 11.3 km/h
1567 07-12-2019 10:30:00 9.3 C 7.82 g/m*3 7.85 C 9.7 km/h
1568 07-12-2019 10:35:00 9.4 C 7.87 g/m*3 7.97 C 9.7 km/h
1569 07-12-2019 10:40:00 9.4 C 7.87 g/m*3 7.46 C 12.9 km/h
1570 07-12-2019 10:45:00 9.4 C 7.87 g/m*3 7.24 C 14.5 km/h
1571 07-12-2019 10:50:00 9.5 C 7.92 g/m*3 8.79 C 6.4 km/h
1572 07-12-2019 10:55:00 9.5 C 7.92 g/m*3 8.4 C 8.1 km/h
1573 07-12-2019 11:00:00 9.6 C 8.06 g/m*3 9.6 C 4.8 km/h
1574 07-12-2019 11:05:00 9.6 C 8.06 g/m*3 8.52 C 8.1 km/h
1575 07-12-2019 11:10:00 9.5 C 8.1 g/m*3 9.5 C 4.8 km/h
Sensor: Nr:Datum:Temp:Abs-Feuchte:Windchill:Wind:
Aussen-T/F 1576 07-12-2019 11:15:00 9.4 C 8.05 g/m*3 8.68 C 6.4 km/h
1577 07-12-2019 11:20:00 9.4 C 8.14 g/m*3 9.4 C 4.8 km/h
1578 07-12-2019 11:25:00 9.3 C 8.09 g/m*3 9.3 C 4.8 km/h
1579 07-12-2019 11:30:00 9.3 C 8.18 g/m*3 9.3 C 1.6 km/h
1580 07-12-2019 11:35:00 9.3 C 8.18 g/m*3 8.56 C 6.4 km/h
1581 07-12-2019 11:40:00 9.3 C 8.18 g/m*3 9.3 C 4.8 km/h
1582 07-12-2019 11:45:00 9.3 C 8.18 g/m*3 9.3 C 3.2 km/h
1583 07-12-2019 11:50:00 9.3 C 8.09 g/m*3 8.16 C 8.1 km/h
1584 07-12-2019 11:55:00 9.3 C 8.09 g/m*3 8.56 C 6.4 km/h
1585 07-12-2019 12:00:00 9.3 C 8 g/m*3 9.3 C 4.8 km/h
1586 07-12-2019 12:05:00 9.3 C 8 g/m*3 8.16 C 8.1 km/h
1587 07-12-2019 12:10:00 9.3 C 7.91 g/m*3 8.16 C 8.1 km/h
1588 07-12-2019 12:15:00 9.3 C 7.91 g/m*3 8.16 C 8.1 km/h
1589 07-12-2019 12:20:00 9.4 C 7.87 g/m*3 7.7 C 11.3 km/h
1590 07-12-2019 12:25:00 9.4 C 7.78 g/m*3 7.46 C 12.9 km/h
1591 07-12-2019 12:30:00 9.6 C 7.88 g/m*3 8.52 C 8.1 km/h
1592 07-12-2019 12:35:00 9.6 C 7.88 g/m*3 8.52 C 8.1 km/h
1593 07-12-2019 12:40:00 9.7 C 7.93 g/m*3 8.06 C 11.3 km/h
1594 07-12-2019 12:45:00 9.7 C 7.84 g/m*3 8.33 C 9.7 km/h
1595 07-12-2019 12:50:00 9.7 C 7.74 g/m*3 8.33 C 9.7 km/h
1596 07-12-2019 12:55:00 9.7 C 7.74 g/m*3 8.63 C 8.1 km/h
1597 07-12-2019 13:00:00 9.8 C 7.79 g/m*3 8.45 C 9.7 km/h
1598 07-12-2019 13:05:00 9.8 C 7.89 g/m*3 9.14 C 6.4 km/h
1599 07-12-2019 13:10:00 9.9 C 7.84 g/m*3 8.06 C 12.9 km/h
1600 07-12-2019 13:15:00 10 C 7.8 g/m*3 8.42 C 11.3 km/h
Sensor: Nr:Datum:Temp:Abs-Feuchte:Windchill:Wind:
Aussen-T/F 1601 07-12-2019 13:20:00 10.1 C 7.75 g/m*3 8.31 C 12.9 km/h
1602 07-12-2019 13:25:00 10.1 C 7.75 g/m*3 8.54 C 11.3 km/h
1603 07-12-2019 13:30:00 10.1 C 7.75 g/m*3 8.8 C 9.7 km/h
1604 07-12-2019 13:35:00 10.1 C 7.75 g/m*3 10.1 C 4.8 km/h
1605 07-12-2019 13:40:00 10.1 C 7.75 g/m*3 8.31 C 12.9 km/h
1606 07-12-2019 13:45:00 10.1 C 7.66 g/m*3 8.8 C 9.7 km/h
1607 07-12-2019 13:50:00 10.1 C 7.66 g/m*3 8.54 C 11.3 km/h
1608 07-12-2019 13:55:00 10.1 C 7.66 g/m*3 9.1 C 8.1 km/h
1609 07-12-2019 14:00:00 10.1 C 7.66 g/m*3 8.54 C 11.3 km/h
1610 07-12-2019 14:05:00 10.1 C 7.75 g/m*3 10.1 C 3.2 km/h
1611 07-12-2019 14:10:00 10.1 C 7.75 g/m*3 10.1 C 4.8 km/h
1612 07-12-2019 14:15:00 10.1 C 7.66 g/m*3 8.31 C 12.9 km/h
1613 07-12-2019 14:20:00 10.1 C 7.75 g/m*3 10.1 C 3.2 km/h
1614 07-12-2019 14:25:00 10.1 C 7.75 g/m*3 8.1 C 14.5 km/h
1615 07-12-2019 14:30:00 10.2 C 7.8 g/m*3 9.22 C 8.1 km/h
1616 07-12-2019 14:35:00 10.2 C 7.8 g/m*3 10.2 C 3.2 km/h
1617 07-12-2019 14:40:00 10.2 C 7.9 g/m*3 10.2 C 3.2 km/h
1618 07-12-2019 14:45:00 10.2 C 7.9 g/m*3 10.2 C 3.2 km/h
1619 07-12-2019 14:50:00 10.2 C 7.9 g/m*3 9.22 C 8.1 km/h
1620 07-12-2019 14:55:00 10.2 C 7.9 g/m*3 9.6 C 6.4 km/h
1621 07-12-2019 15:00:00 10.2 C 7.9 g/m*3 10.2 C 3.2 km/h
1622 07-12-2019 15:05:00 10.2 C 7.9 g/m*3 10.2 C 3.2 km/h
1623 07-12-2019 15:10:00 10.2 C 7.9 g/m*3 10.2 C 3.2 km/h
1624 07-12-2019 15:15:00 10.1 C 7.85 g/m*3 10.1 C 4.8 km/h
1625 07-12-2019 15:20:00 10.1 C 7.85 g/m*3 10.1 C 1.6 km/h
Sensor: Nr:Datum:Temp:Abs-Feuchte:Windchill:Wind:
Aussen-T/F 1626 07-12-2019 15:25:00 10.1 C 7.85 g/m*3 10.1 C 4.8 km/h
1627 07-12-2019 15:30:00 10.1 C 7.85 g/m*3 10.1 C 4.8 km/h
1628 07-12-2019 15:35:00 10 C 7.8 g/m*3 10 C 4.8 km/h
1629 07-12-2019 15:40:00 10 C 7.71 g/m*3 8.68 C 9.7 km/h
1630 07-12-2019 15:45:00 10 C 7.8 g/m*3 10 C 3.2 km/h
1631 07-12-2019 15:50:00 9.9 C 7.75 g/m*3 9.9 C 3.2 km/h
1632 07-12-2019 15:55:00 9.9 C 7.84 g/m*3 9.9 C 1.6 km/h
1633 07-12-2019 16:00:00 9.8 C 7.79 g/m*3 9.8 C 0 km/h
1634 07-12-2019 16:05:00 9.7 C 7.84 g/m*3 9.7 C 1.6 km/h
1635 07-12-2019 16:10:00 9.7 C 7.84 g/m*3 9.7 C 0 km/h
1636 07-12-2019 16:15:00 9.5 C 7.74 g/m*3 9.5 C 3.2 km/h
1637 07-12-2019 16:20:00 9.4 C 7.69 g/m*3 9.4 C 1.6 km/h
1638 07-12-2019 16:25:00 9.4 C 7.69 g/m*3 9.4 C 0 km/h
1639 07-12-2019 16:30:00 9.3 C 7.73 g/m*3 8.56 C 6.4 km/h
1640 07-12-2019 16:35:00 9.3 C 7.73 g/m*3 9.3 C 1.6 km/h
1641 07-12-2019 16:40:00 9.2 C 7.68 g/m*3 9.2 C 1.6 km/h
1642 07-12-2019 16:45:00 9.2 C 7.68 g/m*3 9.2 C 0 km/h
1643 07-12-2019 16:50:00 9.1 C 7.72 g/m*3 9.1 C 0 km/h
1644 07-12-2019 16:55:00 9.1 C 7.72 g/m*3 9.1 C 0 km/h
1645 07-12-2019 17:00:00 9 C 7.67 g/m*3 9 C 0 km/h
1646 07-12-2019 17:05:00 8.9 C 7.71 g/m*3 8.9 C 0 km/h
1647 07-12-2019 17:10:00 8.8 C 7.66 g/m*3 8.8 C 1.6 km/h
1648 07-12-2019 17:15:00 8.8 C 7.66 g/m*3 8.8 C 3.2 km/h
1649 07-12-2019 17:20:00 8.8 C 7.75 g/m*3 8.8 C 1.6 km/h
1650 07-12-2019 17:25:00 8.8 C 7.75 g/m*3 8.8 C 0 km/h
Sensor: Nr:Datum:Temp:Abs-Feuchte:Windchill:Wind:
Aussen-T/F 1651 07-12-2019 17:30:00 8.7 C 7.7 g/m*3 8.7 C 1.6 km/h
1652 07-12-2019 17:35:00 8.7 C 7.7 g/m*3 8.7 C 3.2 km/h
1653 07-12-2019 17:40:00 8.6 C 7.65 g/m*3 8.6 C 3.2 km/h
1654 07-12-2019 17:45:00 8.6 C 7.65 g/m*3 8.6 C 0 km/h
1655 07-12-2019 17:50:00 8.6 C 7.65 g/m*3 8.6 C 0 km/h
1656 07-12-2019 17:55:00 8.6 C 7.65 g/m*3 8.6 C 0 km/h
1657 07-12-2019 18:00:00 8.6 C 7.65 g/m*3 8.6 C 0 km/h
1658 07-12-2019 18:05:00 8.5 C 7.6 g/m*3 8.5 C 4.8 km/h
1659 07-12-2019 18:10:00 8.5 C 7.6 g/m*3 8.5 C 4.8 km/h
1660 07-12-2019 18:15:00 8.5 C 7.6 g/m*3 8.5 C 0 km/h
1661 07-12-2019 18:20:00 8.5 C 7.6 g/m*3 8.5 C 1.6 km/h
1662 07-12-2019 18:25:00 8.4 C 7.55 g/m*3 8.4 C 0 km/h
1663 07-12-2019 18:30:00 8.4 C 7.55 g/m*3 8.4 C 0 km/h
1664 07-12-2019 18:35:00 8.3 C 7.5 g/m*3 8.3 C 0 km/h
1665 07-12-2019 18:40:00 8.3 C 7.59 g/m*3 8.3 C 1.6 km/h
1666 07-12-2019 18:45:00 8.3 C 7.59 g/m*3 8.3 C 0 km/h
1667 07-12-2019 18:50:00 8.3 C 7.59 g/m*3 8.3 C 0 km/h
1668 07-12-2019 18:55:00 8.3 C 7.59 g/m*3 8.3 C 4.8 km/h
1669 07-12-2019 19:00:00 8.3 C 7.67 g/m*3 8.3 C 0 km/h
1670 07-12-2019 19:05:00 8.3 C 7.67 g/m*3 8.3 C 4.8 km/h
1671 07-12-2019 19:10:00 8.3 C 7.67 g/m*3 8.3 C 0 km/h
1672 07-12-2019 19:15:00 8.3 C 7.67 g/m*3 8.3 C 0 km/h
1673 07-12-2019 19:20:00 8.3 C 7.67 g/m*3 8.3 C 0 km/h
1674 07-12-2019 19:25:00 8.3 C 7.67 g/m*3 8.3 C 3.2 km/h
1675 07-12-2019 19:30:00 8.2 C 7.62 g/m*3 8.2 C 3.2 km/h
Sensor: Nr:Datum:Temp:Abs-Feuchte:Windchill:Wind:
Aussen-T/F 1676 07-12-2019 19:35:00 8.2 C 7.62 g/m*3 8.2 C 1.6 km/h
1677 07-12-2019 19:40:00 8.2 C 7.62 g/m*3 8.2 C 1.6 km/h
1678 07-12-2019 19:45:00 8.2 C 7.62 g/m*3 8.2 C 1.6 km/h
1679 07-12-2019 19:50:00 8.2 C 7.62 g/m*3 8.2 C 0 km/h
1680 07-12-2019 19:55:00 8.2 C 7.62 g/m*3 8.2 C 0 km/h
1681 07-12-2019 20:00:00 8.1 C 7.57 g/m*3 8.1 C 0 km/h
1682 07-12-2019 20:05:00 8.1 C 7.57 g/m*3 8.1 C 0 km/h
1683 07-12-2019 20:10:00 8.1 C 7.57 g/m*3 8.1 C 0 km/h
1684 07-12-2019 20:15:00 8.1 C 7.57 g/m*3 8.1 C 0 km/h
1685 07-12-2019 20:20:00 8 C 7.52 g/m*3 8 C 0 km/h
1686 07-12-2019 20:25:00 8 C 7.52 g/m*3 8 C 1.6 km/h
1687 07-12-2019 20:30:00 8 C 7.52 g/m*3 8 C 0 km/h
1688 07-12-2019 20:35:00 7.9 C 7.47 g/m*3 7.9 C 0 km/h
1689 07-12-2019 20:40:00 7.9 C 7.47 g/m*3 7.9 C 0 km/h
1690 07-12-2019 20:45:00 7.9 C 7.47 g/m*3 7.9 C 0 km/h
1691 07-12-2019 20:50:00 8 C 7.52 g/m*3 8 C 4.8 km/h
1692 07-12-2019 20:55:00 8.1 C 7.57 g/m*3 8.1 C 0 km/h
1693 07-12-2019 21:00:00 8.1 C 7.57 g/m*3 8.1 C 0 km/h
1694 07-12-2019 21:05:00 8.1 C 7.57 g/m*3 8.1 C 1.6 km/h
1695 07-12-2019 21:10:00 8.1 C 7.57 g/m*3 8.1 C 1.6 km/h
1696 07-12-2019 21:15:00 8.2 C 7.62 g/m*3 7.29 C 6.4 km/h
1697 07-12-2019 21:20:00 8.2 C 7.62 g/m*3 8.2 C 3.2 km/h
1698 07-12-2019 21:25:00 8.3 C 7.59 g/m*3 8.3 C 3.2 km/h
1699 07-12-2019 21:30:00 8.3 C 7.59 g/m*3 8.3 C 4.8 km/h
1700 07-12-2019 21:35:00 8.3 C 7.59 g/m*3 8.3 C 4.8 km/h
Sensor: Nr:Datum:Temp:Abs-Feuchte:Windchill:Wind:
Aussen-T/F 1701 07-12-2019 21:40:00 8.4 C 7.63 g/m*3 8.4 C 4.8 km/h
1702 07-12-2019 21:45:00 8.4 C 7.63 g/m*3 8.4 C 4.8 km/h
1703 07-12-2019 21:50:00 8.4 C 7.63 g/m*3 7.11 C 8.1 km/h
1704 07-12-2019 21:55:00 8.4 C 7.63 g/m*3 8.4 C 4.8 km/h
1705 07-12-2019 22:00:00 8.4 C 7.63 g/m*3 8.4 C 3.2 km/h
1706 07-12-2019 22:05:00 8.4 C 7.63 g/m*3 7.11 C 8.1 km/h
1707 07-12-2019 22:10:00 8.5 C 7.68 g/m*3 8.5 C 1.6 km/h
1708 07-12-2019 22:15:00 8.5 C 7.68 g/m*3 8.5 C 0 km/h
1709 07-12-2019 22:20:00 8.5 C 7.68 g/m*3 8.5 C 0 km/h
1710 07-12-2019 22:25:00 8.4 C 7.63 g/m*3 8.4 C 1.6 km/h
1711 07-12-2019 22:30:00 8.4 C 7.63 g/m*3 8.4 C 0 km/h
1712 07-12-2019 22:35:00 8.4 C 7.63 g/m*3 8.4 C 0 km/h
1713 07-12-2019 22:40:00 8.3 C 7.59 g/m*3 8.3 C 1.6 km/h
1714 07-12-2019 22:45:00 8.3 C 7.59 g/m*3 8.3 C 0 km/h
1715 07-12-2019 22:50:00 8.3 C 7.59 g/m*3 8.3 C 0 km/h
1716 07-12-2019 22:55:00 8.3 C 7.59 g/m*3 8.3 C 0 km/h
1717 07-12-2019 23:00:00 8.2 C 7.62 g/m*3 8.2 C 0 km/h
1718 07-12-2019 23:05:00 8.2 C 7.62 g/m*3 8.2 C 0 km/h
1719 07-12-2019 23:10:00 8.2 C 7.62 g/m*3 8.2 C 4.8 km/h
1720 07-12-2019 23:15:00 8.2 C 7.62 g/m*3 8.2 C 0 km/h
1721 07-12-2019 23:20:00 8.2 C 7.62 g/m*3 8.2 C 3.2 km/h
1722 07-12-2019 23:25:00 8.2 C 7.7 g/m*3 8.2 C 1.6 km/h
1723 07-12-2019 23:30:00 8.2 C 7.62 g/m*3 8.2 C 0 km/h
1724 07-12-2019 23:35:00 8.2 C 7.62 g/m*3 8.2 C 0 km/h
1725 07-12-2019 23:40:00 8.2 C 7.7 g/m*3 8.2 C 1.6 km/h
Sensor: Nr:Datum:Temp:Abs-Feuchte:Windchill:Wind:
Aussen-T/F 1726 07-12-2019 23:45:00 8.2 C 7.7 g/m*3 8.2 C 3.2 km/h
1727 07-12-2019 23:50:00 8.2 C 7.7 g/m*3 8.2 C 4.8 km/h
1728 07-12-2019 23:55:00 8.2 C 7.62 g/m*3 6.25 C 11.3 km/h
1729 08-12-2019 00:00:00 8.3 C 7.59 g/m*3 7.41 C 6.4 km/h
1730 08-12-2019 00:05:00 8.3 C 7.59 g/m*3 8.3 C 1.6 km/h
1731 08-12-2019 00:10:00 8.4 C 7.47 g/m*3 6.24 C 12.9 km/h
1732 08-12-2019 00:15:00 8.7 C 7.44 g/m*3 6.6 C 12.9 km/h
1733 08-12-2019 00:20:00 8.9 C 7.45 g/m*3 6.42 C 16.1 km/h
1734 08-12-2019 00:25:00 9.1 C 7.54 g/m*3 8.33 C 6.4 km/h
1735 08-12-2019 00:30:00 9.2 C 7.5 g/m*3 7.46 C 11.3 km/h
1736 08-12-2019 00:35:00 9.2 C 7.5 g/m*3 8.45 C 6.4 km/h
1737 08-12-2019 00:40:00 9.2 C 7.5 g/m*3 8.05 C 8.1 km/h
1738 08-12-2019 00:45:00 9.2 C 7.5 g/m*3 8.05 C 8.1 km/h
1739 08-12-2019 00:50:00 9.2 C 7.5 g/m*3 9.2 C 1.6 km/h
1740 08-12-2019 00:55:00 9.1 C 7.54 g/m*3 9.1 C 4.8 km/h
1741 08-12-2019 01:00:00 9.1 C 7.54 g/m*3 9.1 C 0 km/h
1742 08-12-2019 01:05:00 9.1 C 7.54 g/m*3 9.1 C 0 km/h
1743 08-12-2019 01:10:00 9 C 7.58 g/m*3 7.81 C 8.1 km/h
1744 08-12-2019 01:15:00 9 C 7.58 g/m*3 9 C 1.6 km/h
1745 08-12-2019 01:20:00 8.9 C 7.53 g/m*3 8.9 C 1.6 km/h
1746 08-12-2019 01:25:00 9 C 7.58 g/m*3 8.21 C 6.4 km/h
1747 08-12-2019 01:30:00 9.2 C 7.59 g/m*3 7.21 C 12.9 km/h
1748 08-12-2019 01:35:00 9.2 C 7.59 g/m*3 9.2 C 4.8 km/h
1749 08-12-2019 01:40:00 9.3 C 7.55 g/m*3 8.56 C 6.4 km/h
1750 08-12-2019 01:45:00 9.3 C 7.55 g/m*3 7.33 C 12.9 km/h
Sensor: Nr:Datum:Temp:Abs-Feuchte:Windchill:Wind:
Aussen-T/F 1751 08-12-2019 01:50:00 9.4 C 7.51 g/m*3 7.46 C 12.9 km/h
1752 08-12-2019 01:55:00 9.4 C 7.42 g/m*3 7.7 C 11.3 km/h
1753 08-12-2019 02:00:00 9.5 C 7.46 g/m*3 7.82 C 11.3 km/h
1754 08-12-2019 02:05:00 9.5 C 7.37 g/m*3 7.36 C 14.5 km/h
1755 08-12-2019 02:10:00 9.6 C 7.42 g/m*3 8.52 C 8.1 km/h
1756 08-12-2019 02:15:00 9.5 C 7.37 g/m*3 8.4 C 8.1 km/h
1757 08-12-2019 02:20:00 9.4 C 7.33 g/m*3 7.97 C 9.7 km/h
1758 08-12-2019 02:25:00 9.4 C 7.33 g/m*3 7.46 C 12.9 km/h
1759 08-12-2019 02:30:00 9.4 C 7.24 g/m*3 7.97 C 9.7 km/h
1760 08-12-2019 02:35:00 9.4 C 7.24 g/m*3 8.68 C 6.4 km/h
1761 08-12-2019 02:40:00 9.4 C 7.24 g/m*3 8.68 C 6.4 km/h
1762 08-12-2019 02:45:00 9.4 C 7.24 g/m*3 7.97 C 9.7 km/h
1763 08-12-2019 02:50:00 9.4 C 7.24 g/m*3 8.68 C 6.4 km/h
1764 08-12-2019 02:55:00 9.4 C 7.24 g/m*3 8.68 C 6.4 km/h
1765 08-12-2019 03:00:00 9.4 C 7.24 g/m*3 7.46 C 12.9 km/h
1766 08-12-2019 03:05:00 9.4 C 7.24 g/m*3 7.7 C 11.3 km/h
1767 08-12-2019 03:10:00 9.6 C 7.33 g/m*3 7.94 C 11.3 km/h
1768 08-12-2019 03:15:00 9.6 C 7.33 g/m*3 9.6 C 4.8 km/h
1769 08-12-2019 03:20:00 9.4 C 7.33 g/m*3 9.4 C 4.8 km/h
1770 08-12-2019 03:25:00 9.4 C 7.33 g/m*3 7.97 C 9.7 km/h
1771 08-12-2019 03:30:00 9.5 C 7.28 g/m*3 7.16 C 16.1 km/h
1772 08-12-2019 03:35:00 9.6 C 7.42 g/m*3 8.91 C 6.4 km/h
1773 08-12-2019 03:40:00 9.6 C 7.42 g/m*3 8.52 C 8.1 km/h
1774 08-12-2019 03:45:00 9.6 C 7.42 g/m*3 7.48 C 14.5 km/h
1775 08-12-2019 03:50:00 9.7 C 7.47 g/m*3 7.82 C 12.9 km/h
Sensor: Nr:Datum:Temp:Abs-Feuchte:Windchill:Wind:
Aussen-T/F 1776 08-12-2019 03:55:00 9.8 C 7.52 g/m*3 7.04 C 20.9 km/h
1777 08-12-2019 04:00:00 9.9 C 7.56 g/m*3 7.16 C 20.9 km/h
1778 08-12-2019 04:05:00 9.9 C 7.56 g/m*3 7.66 C 16.1 km/h
1779 08-12-2019 04:10:00 10 C 7.71 g/m*3 7.29 C 20.9 km/h
1780 08-12-2019 04:15:00 10 C 7.71 g/m*3 8.42 C 11.3 km/h
1781 08-12-2019 04:20:00 9.9 C 7.66 g/m*3 8.3 C 11.3 km/h
1782 08-12-2019 04:25:00 9.9 C 7.75 g/m*3 8.3 C 11.3 km/h
1783 08-12-2019 04:30:00 9.9 C 7.75 g/m*3 7.32 C 19.3 km/h
1784 08-12-2019 04:35:00 9.9 C 7.75 g/m*3 7.02 C 22.5 km/h
1785 08-12-2019 04:40:00 9.9 C 7.75 g/m*3 7.48 C 17.7 km/h
1786 08-12-2019 04:45:00 9.9 C 7.75 g/m*3 7.48 C 17.7 km/h
1787 08-12-2019 04:50:00 9.9 C 7.75 g/m*3 8.06 C 12.9 km/h
1788 08-12-2019 04:55:00 9.9 C 7.75 g/m*3 8.3 C 11.3 km/h
1789 08-12-2019 05:00:00 9.9 C 7.75 g/m*3 6.89 C 24.1 km/h
1790 08-12-2019 05:05:00 9.9 C 7.84 g/m*3 8.87 C 8.1 km/h
1791 08-12-2019 05:10:00 9.9 C 7.75 g/m*3 7.66 C 16.1 km/h
1792 08-12-2019 05:15:00 9.9 C 7.84 g/m*3 7.85 C 14.5 km/h
1793 08-12-2019 05:20:00 9.9 C 7.84 g/m*3 7.66 C 16.1 km/h
1794 08-12-2019 05:25:00 9.9 C 7.94 g/m*3 7.16 C 20.9 km/h
1795 08-12-2019 05:30:00 9.9 C 7.94 g/m*3 7.66 C 16.1 km/h
1796 08-12-2019 05:35:00 9.9 C 7.94 g/m*3 8.06 C 12.9 km/h
1797 08-12-2019 05:40:00 9.9 C 7.94 g/m*3 7.85 C 14.5 km/h
1798 08-12-2019 05:45:00 9.9 C 7.94 g/m*3 7.32 C 19.3 km/h
1799 08-12-2019 05:50:00 9.9 C 7.94 g/m*3 7.48 C 17.7 km/h
1800 08-12-2019 05:55:00 9.8 C 7.89 g/m*3 8.18 C 11.3 km/h
Sensor: Nr:Datum:Temp:Abs-Feuchte:Windchill:Wind:
Aussen-T/F 1801 08-12-2019 06:00:00 9.8 C 7.89 g/m*3 8.75 C 8.1 km/h
1802 08-12-2019 06:05:00 9.8 C 7.89 g/m*3 6.17 C 32.2 km/h
1803 08-12-2019 06:10:00 9.9 C 7.94 g/m*3 7.48 C 17.7 km/h
1804 08-12-2019 06:15:00 9.9 C 7.94 g/m*3 7.16 C 20.9 km/h
1805 08-12-2019 06:20:00 10.1 C 7.94 g/m*3 7.42 C 20.9 km/h
1806 08-12-2019 06:25:00 10.2 C 7.99 g/m*3 7.7 C 19.3 km/h
1807 08-12-2019 06:30:00 10.2 C 8.09 g/m*3 7.27 C 24.1 km/h
1808 08-12-2019 06:35:00 10.2 C 8.09 g/m*3 7.54 C 20.9 km/h
1809 08-12-2019 06:40:00 10.2 C 8.09 g/m*3 7.7 C 19.3 km/h
1810 08-12-2019 06:45:00 10.2 C 8.09 g/m*3 6.69 C 32.2 km/h
1811 08-12-2019 06:50:00 10.2 C 8.09 g/m*3 7.54 C 20.9 km/h
1812 08-12-2019 06:55:00 10.3 C 8.04 g/m*3 7.98 C 17.7 km/h
1813 08-12-2019 07:00:00 10.3 C 8.04 g/m*3 7.98 C 17.7 km/h
1814 08-12-2019 07:05:00 10.3 C 8.04 g/m*3 8.55 C 12.9 km/h
1815 08-12-2019 07:10:00 10.3 C 7.95 g/m*3 7.98 C 17.7 km/h
1816 08-12-2019 07:15:00 10.4 C 8 g/m*3 8.11 C 17.7 km/h
1817 08-12-2019 07:20:00 10.5 C 8.05 g/m*3 7.79 C 22.5 km/h
1818 08-12-2019 07:25:00 10.5 C 8.15 g/m*3 8.4 C 16.1 km/h
1819 08-12-2019 07:30:00 10.4 C 8.1 g/m*3 9.16 C 9.7 km/h
1820 08-12-2019 07:35:00 10.4 C 8.1 g/m*3 7.53 C 24.1 km/h
1821 08-12-2019 07:40:00 10.5 C 8.05 g/m*3 8.07 C 19.3 km/h
1822 08-12-2019 07:45:00 10.5 C 8.05 g/m*3 9.02 C 11.3 km/h
1823 08-12-2019 07:50:00 10.5 C 8.05 g/m*3 8.59 C 14.5 km/h
1824 08-12-2019 07:55:00 10.5 C 8.05 g/m*3 8.07 C 19.3 km/h
1825 08-12-2019 08:00:00 10.5 C 8.05 g/m*3 9.28 C 9.7 km/h
Sensor: Nr:Datum:Temp:Abs-Feuchte:Windchill:Wind:
Aussen-T/F 1826 08-12-2019 08:05:00 10.4 C 8 g/m*3 8.9 C 11.3 km/h
1827 08-12-2019 08:10:00 10.5 C 8.05 g/m*3 7.79 C 22.5 km/h
1828 08-12-2019 08:15:00 10.6 C 8.1 g/m*3 8.53 C 16.1 km/h
1829 08-12-2019 08:20:00 10.6 C 8.2 g/m*3 7.91 C 22.5 km/h
1830 08-12-2019 08:25:00 10.6 C 8.2 g/m*3 8.71 C 14.5 km/h
1831 08-12-2019 08:30:00 10.6 C 8.2 g/m*3 7.78 C 24.1 km/h
1832 08-12-2019 08:35:00 10.6 C 8.2 g/m*3 7.78 C 24.1 km/h
1833 08-12-2019 08:40:00 10.6 C 8.2 g/m*3 8.05 C 20.9 km/h
1834 08-12-2019 08:45:00 10.6 C 8.2 g/m*3 7.32 C 30.6 km/h
1835 08-12-2019 08:50:00 10.6 C 8.2 g/m*3 7.03 C 35.4 km/h
1836 08-12-2019 08:55:00 10.6 C 8.2 g/m*3 8.05 C 20.9 km/h
1837 08-12-2019 09:00:00 10.6 C 8.2 g/m*3 7.42 C 29 km/h
1838 08-12-2019 09:05:00 10.6 C 8.2 g/m*3 8.2 C 19.3 km/h
1839 08-12-2019 09:10:00 10.6 C 8.3 g/m*3 7.91 C 22.5 km/h
1840 08-12-2019 09:15:00 10.6 C 8.3 g/m*3 7.54 C 27.4 km/h
1841 08-12-2019 09:20:00 10.6 C 8.3 g/m*3 7.42 C 29 km/h
1842 08-12-2019 09:25:00 10.6 C 8.3 g/m*3 7.03 C 35.4 km/h
1843 08-12-2019 09:30:00 10.7 C 8.25 g/m*3 7.66 C 27.4 km/h
1844 08-12-2019 09:35:00 10.7 C 8.25 g/m*3 7.55 C 29 km/h
1845 08-12-2019 09:40:00 10.7 C 8.25 g/m*3 7.91 C 24.1 km/h
1846 08-12-2019 09:45:00 10.7 C 8.25 g/m*3 7.35 C 32.2 km/h
1847 08-12-2019 09:50:00 10.7 C 8.25 g/m*3 7.91 C 24.1 km/h
1848 08-12-2019 09:55:00 10.7 C 8.35 g/m*3 8.18 C 20.9 km/h
1849 08-12-2019 10:00:00 10.7 C 8.35 g/m*3 6.82 C 41.8 km/h
1850 08-12-2019 10:05:00 10.8 C 8.4 g/m*3 7.92 C 25.7 km/h
Sensor: Nr:Datum:Temp:Abs-Feuchte:Windchill:Wind:
Aussen-T/F 1851 08-12-2019 10:10:00 10.8 C 8.4 g/m*3 7.79 C 27.4 km/h
1852 08-12-2019 10:15:00 10.8 C 8.4 g/m*3 7.48 C 32.2 km/h
1853 08-12-2019 10:20:00 10.8 C 8.4 g/m*3 7.92 C 25.7 km/h
1854 08-12-2019 10:25:00 10.8 C 8.4 g/m*3 7.2 C 37 km/h
1855 08-12-2019 10:30:00 10.8 C 8.5 g/m*3 8.04 C 24.1 km/h
1856 08-12-2019 10:35:00 10.8 C 8.5 g/m*3 7.92 C 25.7 km/h
1857 08-12-2019 10:40:00 10.7 C 8.45 g/m*3 8.18 C 20.9 km/h
1858 08-12-2019 10:45:00 10.7 C 8.45 g/m*3 8.18 C 20.9 km/h
1859 08-12-2019 10:50:00 10.7 C 8.55 g/m*3 7.79 C 25.7 km/h
1860 08-12-2019 10:55:00 10.7 C 8.55 g/m*3 8.48 C 17.7 km/h
1861 08-12-2019 11:00:00 10.8 C 8.5 g/m*3 8.45 C 19.3 km/h
1862 08-12-2019 11:05:00 10.8 C 8.5 g/m*3 8.61 C 17.7 km/h
1863 08-12-2019 11:10:00 10.8 C 8.5 g/m*3 8.3 C 20.9 km/h
1864 08-12-2019 11:15:00 10.9 C 8.55 g/m*3 7.81 C 29 km/h
1865 08-12-2019 11:20:00 11 C 8.51 g/m*3 8.3 C 24.1 km/h
1866 08-12-2019 11:25:00 11.1 C 8.56 g/m*3 11.1 C 27.4 km/h
1867 08-12-2019 11:30:00 11.1 C 8.56 g/m*3 11.1 C 19.3 km/h
1868 08-12-2019 11:35:00 11.1 C 8.56 g/m*3 11.1 C 24.1 km/h
1869 08-12-2019 11:40:00 11.1 C 8.56 g/m*3 11.1 C 19.3 km/h
1870 08-12-2019 11:45:00 11.1 C 8.56 g/m*3 11.1 C 16.1 km/h
1871 08-12-2019 11:50:00 11.2 C 8.62 g/m*3 11.2 C 30.6 km/h
1872 08-12-2019 11:55:00 11.2 C 8.62 g/m*3 11.2 C 20.9 km/h
1873 08-12-2019 12:00:00 11.2 C 8.62 g/m*3 11.2 C 19.3 km/h
1874 08-12-2019 12:05:00 11.3 C 8.67 g/m*3 11.3 C 19.3 km/h
1875 08-12-2019 12:10:00 11.4 C 8.72 g/m*3 11.4 C 22.5 km/h
Sensor: Nr:Datum:Temp:Abs-Feuchte:Windchill:Wind:
Aussen-T/F 1876 08-12-2019 12:15:00 11.5 C 8.78 g/m*3 11.5 C 24.1 km/h
1877 08-12-2019 12:20:00 11.5 C 8.78 g/m*3 11.5 C 20.9 km/h
1878 08-12-2019 12:25:00 11.6 C 8.73 g/m*3 11.6 C 24.1 km/h
1879 08-12-2019 12:30:00 11.6 C 8.73 g/m*3 11.6 C 17.7 km/h
1880 08-12-2019 12:35:00 11.6 C 8.83 g/m*3 11.6 C 27.4 km/h
1881 08-12-2019 12:40:00 11.7 C 8.89 g/m*3 11.7 C 24.1 km/h
1882 08-12-2019 12:45:00 11.7 C 8.89 g/m*3 11.7 C 20.9 km/h
1883 08-12-2019 12:50:00 11.7 C 8.89 g/m*3 11.7 C 25.7 km/h
1884 08-12-2019 12:55:00 11.7 C 8.99 g/m*3 11.7 C 17.7 km/h
1885 08-12-2019 13:00:00 11.7 C 8.99 g/m*3 11.7 C 22.5 km/h
1886 08-12-2019 13:05:00 11.7 C 8.99 g/m*3 11.7 C 16.1 km/h
1887 08-12-2019 13:10:00 11.7 C 8.99 g/m*3 11.7 C 20.9 km/h
1888 08-12-2019 13:15:00 11.7 C 8.99 g/m*3 11.7 C 14.5 km/h
1889 08-12-2019 13:20:00 11.7 C 8.99 g/m*3 11.7 C 20.9 km/h
1890 08-12-2019 13:25:00 11.7 C 8.99 g/m*3 11.7 C 20.9 km/h
1891 08-12-2019 13:30:00 11.7 C 9.1 g/m*3 11.7 C 16.1 km/h
1892 08-12-2019 13:35:00 11.7 C 9.1 g/m*3 11.7 C 17.7 km/h
1893 08-12-2019 13:40:00 11.7 C 9.1 g/m*3 11.7 C 12.9 km/h
1894 08-12-2019 13:45:00 11.7 C 9.1 g/m*3 11.7 C 17.7 km/h
1895 08-12-2019 13:50:00 11.7 C 9.1 g/m*3 11.7 C 12.9 km/h
1896 08-12-2019 13:55:00 11.8 C 9.16 g/m*3 11.8 C 27.4 km/h
1897 08-12-2019 14:00:00 11.8 C 9.16 g/m*3 11.8 C 17.7 km/h
1898 08-12-2019 14:05:00 11.8 C 9.16 g/m*3 11.8 C 9.7 km/h
1899 08-12-2019 14:10:00 11.8 C 9.16 g/m*3 11.8 C 20.9 km/h
1900 08-12-2019 14:15:00 11.8 C 9.16 g/m*3 11.8 C 19.3 km/h
Sensor: Nr:Datum:Temp:Abs-Feuchte:Windchill:Wind:
Aussen-T/F 1901 08-12-2019 14:20:00 11.9 C 9.21 g/m*3 11.9 C 17.7 km/h
1902 08-12-2019 14:25:00 11.9 C 9.21 g/m*3 11.9 C 22.5 km/h
1903 08-12-2019 14:30:00 11.9 C 9.21 g/m*3 11.9 C 11.3 km/h
1904 08-12-2019 14:35:00 11.9 C 9.21 g/m*3 11.9 C 16.1 km/h
1905 08-12-2019 14:40:00 12 C 9.27 g/m*3 12 C 14.5 km/h
1906 08-12-2019 14:45:00 12 C 9.27 g/m*3 12 C 14.5 km/h
1907 08-12-2019 14:50:00 12 C 9.27 g/m*3 12 C 12.9 km/h
1908 08-12-2019 14:55:00 12 C 9.27 g/m*3 12 C 17.7 km/h
1909 08-12-2019 15:00:00 12 C 9.27 g/m*3 12 C 16.1 km/h
1910 08-12-2019 15:05:00 12.1 C 9.33 g/m*3 12.1 C 17.7 km/h
1911 08-12-2019 15:10:00 12.1 C 9.33 g/m*3 12.1 C 19.3 km/h
1912 08-12-2019 15:15:00 12.1 C 9.33 g/m*3 12.1 C 16.1 km/h
1913 08-12-2019 15:20:00 12.1 C 9.33 g/m*3 12.1 C 12.9 km/h
1914 08-12-2019 15:25:00 12.1 C 9.33 g/m*3 12.1 C 12.9 km/h
1915 08-12-2019 15:30:00 12.1 C 9.33 g/m*3 12.1 C 12.9 km/h
1916 08-12-2019 15:35:00 12.1 C 9.33 g/m*3 12.1 C 12.9 km/h
1917 08-12-2019 15:40:00 12.1 C 9.33 g/m*3 12.1 C 17.7 km/h
1918 08-12-2019 15:45:00 12.1 C 9.33 g/m*3 12.1 C 17.7 km/h
1919 08-12-2019 15:50:00 12.1 C 9.33 g/m*3 12.1 C 12.9 km/h
1920 08-12-2019 15:55:00 12.1 C 9.33 g/m*3 12.1 C 11.3 km/h
1921 08-12-2019 16:00:00 12.1 C 9.44 g/m*3 12.1 C 11.3 km/h
1922 08-12-2019 16:05:00 12.1 C 9.44 g/m*3 12.1 C 11.3 km/h
1923 08-12-2019 16:10:00 12.1 C 9.44 g/m*3 12.1 C 16.1 km/h
1924 08-12-2019 16:15:00 12.1 C 9.44 g/m*3 12.1 C 12.9 km/h
1925 08-12-2019 16:20:00 12.1 C 9.44 g/m*3 12.1 C 16.1 km/h
Sensor: Nr:Datum:Temp:Abs-Feuchte:Windchill:Wind:
Aussen-T/F 1926 08-12-2019 16:25:00 12.1 C 9.44 g/m*3 12.1 C 12.9 km/h
1927 08-12-2019 16:30:00 12.1 C 9.44 g/m*3 12.1 C 11.3 km/h
1928 08-12-2019 16:35:00 12 C 9.38 g/m*3 12 C 17.7 km/h
1929 08-12-2019 16:40:00 12 C 9.48 g/m*3 12 C 16.1 km/h
1930 08-12-2019 16:45:00 11.6 C 9.04 g/m*3 11.6 C 22.5 km/h
1931 08-12-2019 16:50:00 10.9 C 8.75 g/m*3 9.08 C 14.5 km/h
1932 08-12-2019 16:55:00 10.3 C 8.52 g/m*3 7.82 C 19.3 km/h
1933 08-12-2019 17:00:00 10 C 8.46 g/m*3 8.68 C 9.7 km/h
1934 08-12-2019 17:05:00 9.8 C 8.44 g/m*3 8.45 C 9.7 km/h
1935 08-12-2019 17:10:00 9.6 C 8.34 g/m*3 8.21 C 9.7 km/h
1936 08-12-2019 17:15:00 9.5 C 8.37 g/m*3 8.79 C 6.4 km/h
1937 08-12-2019 17:20:00 9.4 C 8.32 g/m*3 7.7 C 11.3 km/h
1938 08-12-2019 17:25:00 9.3 C 8.27 g/m*3 8.56 C 6.4 km/h
1939 08-12-2019 17:30:00 9.2 C 8.22 g/m*3 8.05 C 8.1 km/h
1940 08-12-2019 17:35:00 9.2 C 8.22 g/m*3 8.45 C 6.4 km/h
1941 08-12-2019 17:40:00 9.1 C 8.16 g/m*3 9.1 C 3.2 km/h
1942 08-12-2019 17:45:00 9.1 C 8.16 g/m*3 9.1 C 4.8 km/h
1943 08-12-2019 17:50:00 9 C 8.11 g/m*3 9 C 4.8 km/h
1944 08-12-2019 17:55:00 9 C 8.2 g/m*3 9 C 1.6 km/h
1945 08-12-2019 18:00:00 8.9 C 8.15 g/m*3 8.1 C 6.4 km/h
1946 08-12-2019 18:05:00 8.9 C 8.15 g/m*3 8.9 C 4.8 km/h
1947 08-12-2019 18:10:00 8.9 C 8.15 g/m*3 8.9 C 4.8 km/h
1948 08-12-2019 18:15:00 8.9 C 8.15 g/m*3 8.1 C 6.4 km/h
1949 08-12-2019 18:20:00 8.8 C 8.09 g/m*3 7.25 C 9.7 km/h
1950 08-12-2019 18:25:00 8.8 C 8.09 g/m*3 8.8 C 4.8 km/h
Sensor: Nr:Datum:Temp:Abs-Feuchte:Windchill:Wind:
Aussen-T/F 1951 08-12-2019 18:30:00 8.7 C 8.04 g/m*3 7.87 C 6.4 km/h
1952 08-12-2019 18:35:00 8.7 C 8.04 g/m*3 7.87 C 6.4 km/h
1953 08-12-2019 18:40:00 8.7 C 8.04 g/m*3 7.87 C 6.4 km/h
1954 08-12-2019 18:45:00 8.6 C 7.91 g/m*3 7.01 C 9.7 km/h
1955 08-12-2019 18:50:00 8.7 C 7.87 g/m*3 6.6 C 12.9 km/h
1956 08-12-2019 18:55:00 8.7 C 7.96 g/m*3 7.87 C 6.4 km/h
1957 08-12-2019 19:00:00 8.7 C 7.87 g/m*3 7.87 C 6.4 km/h
1958 08-12-2019 19:05:00 8.7 C 7.87 g/m*3 8.7 C 4.8 km/h
1959 08-12-2019 19:10:00 8.8 C 7.92 g/m*3 7.58 C 8.1 km/h
1960 08-12-2019 19:15:00 8.8 C 7.92 g/m*3 6.97 C 11.3 km/h
1961 08-12-2019 19:20:00 8.8 C 7.83 g/m*3 7.58 C 8.1 km/h
1962 08-12-2019 19:25:00 8.8 C 7.83 g/m*3 7.25 C 9.7 km/h
1963 08-12-2019 19:30:00 8.8 C 7.83 g/m*3 7.98 C 6.4 km/h
1964 08-12-2019 19:35:00 8.8 C 7.83 g/m*3 8.8 C 4.8 km/h
1965 08-12-2019 19:40:00 8.8 C 7.92 g/m*3 8.8 C 3.2 km/h
1966 08-12-2019 19:45:00 8.7 C 7.87 g/m*3 7.13 C 9.7 km/h
1967 08-12-2019 19:50:00 8.7 C 7.87 g/m*3 8.7 C 1.6 km/h
1968 08-12-2019 19:55:00 8.6 C 7.91 g/m*3 8.6 C 4.8 km/h
1969 08-12-2019 20:00:00 8.5 C 7.85 g/m*3 8.5 C 3.2 km/h
1970 08-12-2019 20:05:00 8.4 C 7.8 g/m*3 8.4 C 4.8 km/h
1971 08-12-2019 20:10:00 8.3 C 7.75 g/m*3 8.3 C 4.8 km/h
1972 08-12-2019 20:15:00 8.4 C 7.89 g/m*3 6.78 C 9.7 km/h
1973 08-12-2019 20:20:00 8.4 C 7.8 g/m*3 7.11 C 8.1 km/h
1974 08-12-2019 20:25:00 8.4 C 7.8 g/m*3 6.49 C 11.3 km/h
1975 08-12-2019 20:30:00 8.5 C 7.77 g/m*3 6.13 C 14.5 km/h
Sensor: Nr:Datum:Temp:Abs-Feuchte:Windchill:Wind:
Aussen-T/F 1976 08-12-2019 20:35:00 8.5 C 7.77 g/m*3 6.9 C 9.7 km/h
1977 08-12-2019 20:40:00 8.5 C 7.77 g/m*3 7.64 C 6.4 km/h
1978 08-12-2019 20:45:00 8.6 C 7.73 g/m*3 6.48 C 12.9 km/h
1979 08-12-2019 20:50:00 8.6 C 7.73 g/m*3 7.75 C 6.4 km/h
1980 08-12-2019 20:55:00 8.7 C 7.7 g/m*3 6.38 C 14.5 km/h
1981 08-12-2019 21:00:00 8.7 C 7.61 g/m*3 6.6 C 12.9 km/h
1982 08-12-2019 21:05:00 8.8 C 7.66 g/m*3 7.58 C 8.1 km/h
1983 08-12-2019 21:10:00 8.8 C 7.57 g/m*3 6.97 C 11.3 km/h
1984 08-12-2019 21:15:00 8.8 C 7.57 g/m*3 6.72 C 12.9 km/h
1985 08-12-2019 21:20:00 8.9 C 7.53 g/m*3 7.37 C 9.7 km/h
1986 08-12-2019 21:25:00 8.9 C 7.62 g/m*3 7.09 C 11.3 km/h
1987 08-12-2019 21:30:00 8.9 C 7.53 g/m*3 6.62 C 14.5 km/h
1988 08-12-2019 21:35:00 8.9 C 7.62 g/m*3 6.42 C 16.1 km/h
1989 08-12-2019 21:40:00 8.9 C 7.62 g/m*3 7.69 C 8.1 km/h
1990 08-12-2019 21:45:00 8.8 C 7.57 g/m*3 7.25 C 9.7 km/h
1991 08-12-2019 21:50:00 8.8 C 7.57 g/m*3 6.72 C 12.9 km/h
1992 08-12-2019 21:55:00 8.8 C 7.57 g/m*3 7.58 C 8.1 km/h
1993 08-12-2019 22:00:00 8.8 C 7.57 g/m*3 7.58 C 8.1 km/h
1994 08-12-2019 22:05:00 8.7 C 7.52 g/m*3 7.46 C 8.1 km/h
1995 08-12-2019 22:10:00 8.7 C 7.61 g/m*3 7.46 C 8.1 km/h
1996 08-12-2019 22:15:00 8.6 C 7.56 g/m*3 8.6 C 4.8 km/h
1997 08-12-2019 22:20:00 8.6 C 7.56 g/m*3 6.48 C 12.9 km/h
1998 08-12-2019 22:25:00 8.6 C 7.56 g/m*3 6.25 C 14.5 km/h
1999 08-12-2019 22:30:00 8.7 C 7.61 g/m*3 5.98 C 17.7 km/h
2000 08-12-2019 22:35:00 8.8 C 7.57 g/m*3 5.93 C 19.3 km/h
Sensor: Nr:Datum:Temp:Abs-Feuchte:Windchill:Wind:
Aussen-T/F 2001 08-12-2019 22:40:00 8.9 C 7.62 g/m*3 6.42 C 16.1 km/h
2002 08-12-2019 22:45:00 9.1 C 7.63 g/m*3 5.86 C 24.1 km/h
2003 08-12-2019 22:50:00 9.1 C 7.63 g/m*3 6.15 C 20.9 km/h
2004 08-12-2019 22:55:00 9.1 C 7.63 g/m*3 6.15 C 20.9 km/h
2005 08-12-2019 23:00:00 9.1 C 7.63 g/m*3 7.33 C 11.3 km/h
2006 08-12-2019 23:05:00 9 C 7.58 g/m*3 6.75 C 14.5 km/h
2007 08-12-2019 23:10:00 9 C 7.58 g/m*3 6.75 C 14.5 km/h
2008 08-12-2019 23:15:00 9 C 7.58 g/m*3 7.21 C 11.3 km/h
2009 08-12-2019 23:20:00 9.1 C 7.63 g/m*3 6.87 C 14.5 km/h
2010 08-12-2019 23:25:00 9.1 C 7.54 g/m*3 7.09 C 12.9 km/h
2011 08-12-2019 23:30:00 9.1 C 7.54 g/m*3 5.86 C 24.1 km/h
2012 08-12-2019 23:35:00 9.1 C 7.54 g/m*3 6.31 C 19.3 km/h
2013 08-12-2019 23:40:00 9 C 7.41 g/m*3 6.19 C 19.3 km/h
2014 08-12-2019 23:45:00 9 C 7.32 g/m*3 5.73 C 24.1 km/h
2015 08-12-2019 23:50:00 8.9 C 7.27 g/m*3 6.62 C 14.5 km/h
2016 08-12-2019 23:55:00 8.9 C 7.18 g/m*3 6.06 C 19.3 km/h
2017 09-12-2019 00:00:00 8.9 C 7.18 g/m*3 6.06 C 19.3 km/h
2018 09-12-2019 00:05:00 8.8 C 7.14 g/m*3 6.97 C 11.3 km/h
2019 09-12-2019 00:10:00 8.8 C 7.14 g/m*3 6.11 C 17.7 km/h
2020 09-12-2019 00:15:00 8.7 C 7.18 g/m*3 6.85 C 11.3 km/h
2021 09-12-2019 00:20:00 8.6 C 7.13 g/m*3 5.68 C 19.3 km/h
2022 09-12-2019 00:25:00 8.7 C 7.26 g/m*3 5.98 C 17.7 km/h
2023 09-12-2019 00:30:00 8.8 C 7.31 g/m*3 5.62 C 22.5 km/h
2024 09-12-2019 00:35:00 8.8 C 7.22 g/m*3 6.5 C 14.5 km/h
2025 09-12-2019 00:40:00 8.8 C 7.22 g/m*3 6.11 C 17.7 km/h
Sensor: Nr:Datum:Temp:Abs-Feuchte:Windchill:Wind:
Aussen-T/F 2026 09-12-2019 00:45:00 8.7 C 7.09 g/m*3 5.98 C 17.7 km/h
2027 09-12-2019 00:50:00 8.7 C 7.01 g/m*3 6.6 C 12.9 km/h
2028 09-12-2019 00:55:00 8.8 C 7.05 g/m*3 6.72 C 12.9 km/h
2029 09-12-2019 01:00:00 8.8 C 7.05 g/m*3 6.3 C 16.1 km/h
2030 09-12-2019 01:05:00 8.7 C 7.01 g/m*3 5.81 C 19.3 km/h
2031 09-12-2019 01:10:00 8.7 C 6.92 g/m*3 5.35 C 24.1 km/h
2032 09-12-2019 01:15:00 8.7 C 6.92 g/m*3 5.35 C 24.1 km/h
2033 09-12-2019 01:20:00 8.7 C 7.01 g/m*3 6.38 C 14.5 km/h
2034 09-12-2019 01:25:00 8.6 C 6.96 g/m*3 5.08 C 25.7 km/h
2035 09-12-2019 01:30:00 8.5 C 7 g/m*3 5.92 C 16.1 km/h
2036 09-12-2019 01:35:00 8.4 C 6.96 g/m*3 6.01 C 14.5 km/h
2037 09-12-2019 01:40:00 8.4 C 6.96 g/m*3 5.43 C 19.3 km/h
2038 09-12-2019 01:45:00 8.5 C 7 g/m*3 5.56 C 19.3 km/h
2039 09-12-2019 01:50:00 8.5 C 6.92 g/m*3 5.09 C 24.1 km/h
2040 09-12-2019 01:55:00 8.4 C 6.79 g/m*3 5.11 C 22.5 km/h
2041 09-12-2019 02:00:00 8.3 C 6.74 g/m*3 5.48 C 17.7 km/h
2042 09-12-2019 02:05:00 8.2 C 6.78 g/m*3 4.86 C 22.5 km/h
2043 09-12-2019 02:10:00 8.1 C 6.82 g/m*3 5.43 C 16.1 km/h
2044 09-12-2019 02:15:00 8 C 6.86 g/m*3 5.52 C 14.5 km/h
2045 09-12-2019 02:20:00 7.9 C 6.9 g/m*3 5.89 C 11.3 km/h
2046 09-12-2019 02:25:00 7.9 C 6.9 g/m*3 5.39 C 14.5 km/h
2047 09-12-2019 02:30:00 7.9 C 6.9 g/m*3 5.39 C 14.5 km/h
2048 09-12-2019 02:35:00 7.9 C 6.9 g/m*3 6.18 C 9.7 km/h
2049 09-12-2019 02:40:00 7.8 C 6.86 g/m*3 5.77 C 11.3 km/h
2050 09-12-2019 02:45:00 7.8 C 6.86 g/m*3 4.86 C 17.7 km/h
Sensor: Nr:Datum:Temp:Abs-Feuchte:Windchill:Wind:
Aussen-T/F 2051 09-12-2019 02:50:00 7.9 C 6.82 g/m*3 5.39 C 14.5 km/h
2052 09-12-2019 02:55:00 8 C 6.78 g/m*3 4.6 C 22.5 km/h
2053 09-12-2019 03:00:00 8.1 C 6.82 g/m*3 5.05 C 19.3 km/h
2054 09-12-2019 03:05:00 8.1 C 6.82 g/m*3 5.23 C 17.7 km/h
2055 09-12-2019 03:10:00 8 C 6.78 g/m*3 4.93 C 19.3 km/h
2056 09-12-2019 03:15:00 8 C 6.78 g/m*3 4.6 C 22.5 km/h
2057 09-12-2019 03:20:00 8.1 C 6.82 g/m*3 5.43 C 16.1 km/h
2058 09-12-2019 03:25:00 8.1 C 6.82 g/m*3 5.43 C 16.1 km/h
2059 09-12-2019 03:30:00 8 C 6.78 g/m*3 5.75 C 12.9 km/h
2060 09-12-2019 03:35:00 7.9 C 6.74 g/m*3 5.18 C 16.1 km/h
2061 09-12-2019 03:40:00 7.9 C 6.82 g/m*3 6.18 C 9.7 km/h
2062 09-12-2019 03:45:00 7.8 C 6.77 g/m*3 5.77 C 11.3 km/h
2063 09-12-2019 03:50:00 7.7 C 6.73 g/m*3 4.73 C 17.7 km/h
2064 09-12-2019 03:55:00 7.8 C 6.86 g/m*3 5.51 C 12.9 km/h
2065 09-12-2019 04:00:00 7.8 C 6.77 g/m*3 4.86 C 17.7 km/h
2066 09-12-2019 04:05:00 7.9 C 6.82 g/m*3 4.47 C 22.5 km/h
2067 09-12-2019 04:10:00 8.1 C 6.91 g/m*3 5.64 C 14.5 km/h
2068 09-12-2019 04:15:00 8.2 C 6.87 g/m*3 5.01 C 20.9 km/h
2069 09-12-2019 04:20:00 8.3 C 6.91 g/m*3 5.68 C 16.1 km/h
2070 09-12-2019 04:25:00 8.4 C 6.96 g/m*3 5.61 C 17.7 km/h
2071 09-12-2019 04:30:00 8.4 C 6.96 g/m*3 5.8 C 16.1 km/h
2072 09-12-2019 04:35:00 8.3 C 6.91 g/m*3 5.68 C 16.1 km/h
2073 09-12-2019 04:40:00 8.3 C 6.91 g/m*3 4.43 C 29 km/h
2074 09-12-2019 04:45:00 8.2 C 7.03 g/m*3 4.3 C 29 km/h
2075 09-12-2019 04:50:00 8 C 6.94 g/m*3 4.76 C 20.9 km/h
Sensor: Nr:Datum:Temp:Abs-Feuchte:Windchill:Wind:
Aussen-T/F 2076 09-12-2019 04:55:00 7.9 C 6.98 g/m*3 4.98 C 17.7 km/h
2077 09-12-2019 05:00:00 7.8 C 6.86 g/m*3 5.51 C 12.9 km/h
2078 09-12-2019 05:05:00 7.7 C 6.73 g/m*3 4.93 C 16.1 km/h
2079 09-12-2019 05:10:00 7.8 C 6.69 g/m*3 4.68 C 19.3 km/h
2080 09-12-2019 05:15:00 7.9 C 6.65 g/m*3 4.98 C 17.7 km/h
2081 09-12-2019 05:20:00 8 C 6.61 g/m*3 5.11 C 17.7 km/h
2082 09-12-2019 05:25:00 7.9 C 6.49 g/m*3 5.89 C 11.3 km/h
2083 09-12-2019 05:30:00 7.9 C 6.41 g/m*3 4.32 C 24.1 km/h
2084 09-12-2019 05:35:00 7.9 C 6.41 g/m*3 5.63 C 12.9 km/h
2085 09-12-2019 05:40:00 7.9 C 6.41 g/m*3 5.39 C 14.5 km/h
2086 09-12-2019 05:45:00 7.8 C 6.37 g/m*3 4.35 C 22.5 km/h
2087 09-12-2019 05:50:00 7.9 C 6.41 g/m*3 4.32 C 24.1 km/h
2088 09-12-2019 05:55:00 7.8 C 6.45 g/m*3 4.51 C 20.9 km/h
2089 09-12-2019 06:00:00 7.9 C 6.49 g/m*3 4.63 C 20.9 km/h
2090 09-12-2019 06:05:00 7.9 C 6.57 g/m*3 5.18 C 16.1 km/h
2091 09-12-2019 06:10:00 7.9 C 6.57 g/m*3 4.8 C 19.3 km/h
2092 09-12-2019 06:15:00 7.9 C 6.57 g/m*3 4.63 C 20.9 km/h
2093 09-12-2019 06:20:00 7.9 C 6.57 g/m*3 5.18 C 16.1 km/h
2094 09-12-2019 06:25:00 7.9 C 6.57 g/m*3 4.63 C 20.9 km/h
2095 09-12-2019 06:30:00 7.9 C 6.57 g/m*3 4.98 C 17.7 km/h
2096 09-12-2019 06:35:00 8 C 6.61 g/m*3 5.3 C 16.1 km/h
2097 09-12-2019 06:40:00 8.1 C 6.66 g/m*3 5.23 C 17.7 km/h
2098 09-12-2019 06:45:00 8.1 C 6.66 g/m*3 5.23 C 17.7 km/h
2099 09-12-2019 06:50:00 8.2 C 6.78 g/m*3 5.76 C 14.5 km/h
2100 09-12-2019 06:55:00 8.2 C 6.78 g/m*3 5.36 C 17.7 km/h
Sensor: Nr:Datum:Temp:Abs-Feuchte:Windchill:Wind:
Aussen-T/F 2101 09-12-2019 07:00:00 8.2 C 6.78 g/m*3 4.86 C 22.5 km/h
2102 09-12-2019 07:05:00 8.1 C 6.82 g/m*3 5.43 C 16.1 km/h
2103 09-12-2019 07:10:00 8.1 C 6.82 g/m*3 5.05 C 19.3 km/h
2104 09-12-2019 07:15:00 8.1 C 6.82 g/m*3 5.43 C 16.1 km/h
2105 09-12-2019 07:20:00 8.1 C 6.82 g/m*3 5.64 C 14.5 km/h
2106 09-12-2019 07:25:00 8 C 6.86 g/m*3 5.11 C 17.7 km/h
2107 09-12-2019 07:30:00 8 C 6.86 g/m*3 5.11 C 17.7 km/h
2108 09-12-2019 07:35:00 7.9 C 6.82 g/m*3 6.94 C 6.4 km/h
2109 09-12-2019 07:40:00 7.9 C 6.82 g/m*3 4.98 C 17.7 km/h
2110 09-12-2019 07:45:00 8 C 6.86 g/m*3 4.93 C 19.3 km/h
2111 09-12-2019 07:50:00 8 C 6.86 g/m*3 6.01 C 11.3 km/h
2112 09-12-2019 07:55:00 8.1 C 6.82 g/m*3 5.05 C 19.3 km/h
2113 09-12-2019 08:00:00 8.1 C 6.82 g/m*3 5.87 C 12.9 km/h
2114 09-12-2019 08:05:00 8.2 C 6.87 g/m*3 5.76 C 14.5 km/h
2115 09-12-2019 08:10:00 8.2 C 6.78 g/m*3 5.36 C 17.7 km/h
2116 09-12-2019 08:15:00 8.3 C 6.83 g/m*3 5.89 C 14.5 km/h
2117 09-12-2019 08:20:00 8.3 C 6.83 g/m*3 5.31 C 19.3 km/h
2118 09-12-2019 08:25:00 8.3 C 6.83 g/m*3 5.48 C 17.7 km/h
2119 09-12-2019 08:30:00 8.3 C 6.83 g/m*3 5.14 C 20.9 km/h
2120 09-12-2019 08:35:00 8.3 C 6.83 g/m*3 5.14 C 20.9 km/h
2121 09-12-2019 08:40:00 8.3 C 6.83 g/m*3 4.84 C 24.1 km/h
2122 09-12-2019 08:45:00 8.3 C 6.83 g/m*3 5.31 C 19.3 km/h
2123 09-12-2019 08:50:00 8.3 C 6.83 g/m*3 5.68 C 16.1 km/h
2124 09-12-2019 08:55:00 8.3 C 6.83 g/m*3 5.48 C 17.7 km/h
2125 09-12-2019 09:00:00 8.3 C 6.83 g/m*3 5.68 C 16.1 km/h
Sensor: Nr:Datum:Temp:Abs-Feuchte:Windchill:Wind:
Aussen-T/F 2126 09-12-2019 09:05:00 8.3 C 6.91 g/m*3 5.14 C 20.9 km/h
2127 09-12-2019 09:10:00 8.3 C 6.91 g/m*3 5.68 C 16.1 km/h
2128 09-12-2019 09:15:00 8.3 C 6.91 g/m*3 4.98 C 22.5 km/h
2129 09-12-2019 09:20:00 8.3 C 7 g/m*3 5.68 C 16.1 km/h
2130 09-12-2019 09:25:00 8.2 C 7.03 g/m*3 4.86 C 22.5 km/h
2131 09-12-2019 09:30:00 8.2 C 7.03 g/m*3 6.25 C 11.3 km/h
2132 09-12-2019 09:35:00 8.1 C 7.07 g/m*3 6.13 C 11.3 km/h
2133 09-12-2019 09:40:00 8.1 C 7.07 g/m*3 5.87 C 12.9 km/h
2134 09-12-2019 09:45:00 8.1 C 7.07 g/m*3 4.58 C 24.1 km/h
2135 09-12-2019 09:50:00 8.1 C 7.07 g/m*3 5.23 C 17.7 km/h
2136 09-12-2019 09:55:00 8.2 C 7.12 g/m*3 4.71 C 24.1 km/h
2137 09-12-2019 10:00:00 8.2 C 7.12 g/m*3 5.55 C 16.1 km/h
2138 09-12-2019 10:05:00 8.3 C 7.08 g/m*3 5.14 C 20.9 km/h
2139 09-12-2019 10:10:00 8.3 C 7.16 g/m*3 5.89 C 14.5 km/h
2140 09-12-2019 10:15:00 8.3 C 7.08 g/m*3 5.89 C 14.5 km/h
2141 09-12-2019 10:20:00 8.3 C 7.08 g/m*3 6.37 C 11.3 km/h
2142 09-12-2019 10:25:00 8.3 C 7.08 g/m*3 6.66 C 9.7 km/h
2143 09-12-2019 10:30:00 8.3 C 7.08 g/m*3 5.48 C 17.7 km/h
2144 09-12-2019 10:35:00 8.3 C 7.08 g/m*3 6.37 C 11.3 km/h
2145 09-12-2019 10:40:00 8.3 C 7.16 g/m*3 5.48 C 17.7 km/h
2146 09-12-2019 10:45:00 8.3 C 7.08 g/m*3 5.31 C 19.3 km/h
2147 09-12-2019 10:50:00 8.4 C 7.13 g/m*3 6.49 C 11.3 km/h
2148 09-12-2019 10:55:00 8.4 C 7.13 g/m*3 6.24 C 12.9 km/h
2149 09-12-2019 11:00:00 8.4 C 7.04 g/m*3 4.96 C 24.1 km/h
2150 09-12-2019 11:05:00 8.4 C 7.13 g/m*3 6.01 C 14.5 km/h
Sensor: Nr:Datum:Temp:Abs-Feuchte:Windchill:Wind:
Aussen-T/F 2151 09-12-2019 11:10:00 8.4 C 7.04 g/m*3 5.61 C 17.7 km/h
2152 09-12-2019 11:15:00 8.5 C 7.17 g/m*3 6.9 C 9.7 km/h
2153 09-12-2019 11:20:00 8.6 C 7.13 g/m*3 6.25 C 14.5 km/h
2154 09-12-2019 11:25:00 8.6 C 7.13 g/m*3 7.01 C 9.7 km/h
2155 09-12-2019 11:30:00 8.7 C 7.09 g/m*3 6.6 C 12.9 km/h
2156 09-12-2019 11:35:00 8.6 C 7.05 g/m*3 5.86 C 17.7 km/h
2157 09-12-2019 11:40:00 8.6 C 7.05 g/m*3 6.73 C 11.3 km/h
2158 09-12-2019 11:45:00 8.6 C 7.05 g/m*3 6.48 C 12.9 km/h
2159 09-12-2019 11:50:00 8.6 C 7.05 g/m*3 6.25 C 14.5 km/h
2160 09-12-2019 11:55:00 8.5 C 7.09 g/m*3 6.36 C 12.9 km/h
2161 09-12-2019 12:00:00 8.5 C 7 g/m*3 6.36 C 12.9 km/h
2162 09-12-2019 12:05:00 8.5 C 7.09 g/m*3 6.36 C 12.9 km/h
2163 09-12-2019 12:10:00 8.4 C 7.04 g/m*3 7.52 C 6.4 km/h
2164 09-12-2019 12:15:00 8.4 C 7.04 g/m*3 6.24 C 12.9 km/h
2165 09-12-2019 12:20:00 8.4 C 7.04 g/m*3 6.49 C 11.3 km/h
2166 09-12-2019 12:25:00 8.4 C 7.04 g/m*3 6.78 C 9.7 km/h
2167 09-12-2019 12:30:00 8.5 C 7.09 g/m*3 6.9 C 9.7 km/h
2168 09-12-2019 12:35:00 8.5 C 7.09 g/m*3 6.36 C 12.9 km/h
2169 09-12-2019 12:40:00 8.6 C 7.13 g/m*3 5.86 C 17.7 km/h
2170 09-12-2019 12:45:00 8.6 C 7.13 g/m*3 6.73 C 11.3 km/h
2171 09-12-2019 12:50:00 8.6 C 7.22 g/m*3 6.73 C 11.3 km/h
2172 09-12-2019 12:55:00 8.6 C 7.22 g/m*3 6.48 C 12.9 km/h
2173 09-12-2019 13:00:00 8.6 C 7.22 g/m*3 6.73 C 11.3 km/h
2174 09-12-2019 13:05:00 8.6 C 7.22 g/m*3 5.86 C 17.7 km/h
2175 09-12-2019 13:10:00 8.6 C 7.22 g/m*3 6.25 C 14.5 km/h
Sensor: Nr:Datum:Temp:Abs-Feuchte:Windchill:Wind:
Aussen-T/F 2176 09-12-2019 13:15:00 8.6 C 7.22 g/m*3 6.48 C 12.9 km/h
2177 09-12-2019 13:20:00 8.6 C 7.22 g/m*3 7.01 C 9.7 km/h
2178 09-12-2019 13:25:00 8.6 C 7.13 g/m*3 7.01 C 9.7 km/h
2179 09-12-2019 13:30:00 8.5 C 7.09 g/m*3 6.61 C 11.3 km/h
2180 09-12-2019 13:35:00 8.5 C 7.09 g/m*3 6.36 C 12.9 km/h
2181 09-12-2019 13:40:00 8.6 C 7.13 g/m*3 5.86 C 17.7 km/h
2182 09-12-2019 13:45:00 8.7 C 7.18 g/m*3 5.81 C 19.3 km/h
2183 09-12-2019 13:50:00 8.8 C 7.14 g/m*3 6.5 C 14.5 km/h
2184 09-12-2019 13:55:00 8.9 C 7.18 g/m*3 7.09 C 11.3 km/h
2185 09-12-2019 14:00:00 8.9 C 7.18 g/m*3 6.85 C 12.9 km/h
2186 09-12-2019 14:05:00 8.9 C 7.18 g/m*3 7.37 C 9.7 km/h
2187 09-12-2019 14:10:00 8.9 C 7.18 g/m*3 7.37 C 9.7 km/h
2188 09-12-2019 14:15:00 8.9 C 7.18 g/m*3 7.37 C 9.7 km/h
2189 09-12-2019 14:20:00 8.8 C 7.05 g/m*3 6.97 C 11.3 km/h
2190 09-12-2019 14:25:00 8.8 C 7.05 g/m*3 6.72 C 12.9 km/h
2191 09-12-2019 14:30:00 8.9 C 7.1 g/m*3 6.42 C 16.1 km/h
2192 09-12-2019 14:35:00 8.9 C 7.1 g/m*3 6.85 C 12.9 km/h
2193 09-12-2019 14:40:00 8.8 C 7.14 g/m*3 6.97 C 11.3 km/h
2194 09-12-2019 14:45:00 8.8 C 7.05 g/m*3 6.5 C 14.5 km/h
2195 09-12-2019 14:50:00 8.8 C 7.05 g/m*3 7.25 C 9.7 km/h
2196 09-12-2019 14:55:00 8.8 C 7.05 g/m*3 6.97 C 11.3 km/h
2197 09-12-2019 15:00:00 8.8 C 7.14 g/m*3 6.97 C 11.3 km/h
2198 09-12-2019 15:05:00 8.7 C 7.09 g/m*3 7.13 C 9.7 km/h
2199 09-12-2019 15:10:00 8.6 C 7.13 g/m*3 7.01 C 9.7 km/h
2200 09-12-2019 15:15:00 8.3 C 7.08 g/m*3 6.99 C 8.1 km/h
Sensor: Nr:Datum:Temp:Abs-Feuchte:Windchill:Wind:
Aussen-T/F 2201 09-12-2019 15:20:00 8.2 C 7.12 g/m*3 6.87 C 8.1 km/h
2202 09-12-2019 15:25:00 8.1 C 7.16 g/m*3 8.1 C 1.6 km/h
2203 09-12-2019 15:30:00 8 C 7.11 g/m*3 8 C 3.2 km/h
2204 09-12-2019 15:35:00 7.9 C 7.06 g/m*3 7.9 C 3.2 km/h
2205 09-12-2019 15:40:00 7.8 C 7.1 g/m*3 6.83 C 6.4 km/h
2206 09-12-2019 15:45:00 7.8 C 7.02 g/m*3 7.8 C 4.8 km/h
2207 09-12-2019 15:50:00 7.8 C 7.02 g/m*3 5.77 C 11.3 km/h
2208 09-12-2019 15:55:00 7.8 C 6.94 g/m*3 5.51 C 12.9 km/h
2209 09-12-2019 16:00:00 7.8 C 6.86 g/m*3 6.4 C 8.1 km/h
2210 09-12-2019 16:05:00 7.8 C 6.86 g/m*3 5.77 C 11.3 km/h
2211 09-12-2019 16:10:00 7.8 C 6.77 g/m*3 5.51 C 12.9 km/h
2212 09-12-2019 16:15:00 7.8 C 6.77 g/m*3 6.06 C 9.7 km/h
2213 09-12-2019 16:20:00 7.8 C 6.77 g/m*3 6.06 C 9.7 km/h
2214 09-12-2019 16:25:00 7.8 C 6.69 g/m*3 6.06 C 9.7 km/h
2215 09-12-2019 16:30:00 7.8 C 6.69 g/m*3 5.77 C 11.3 km/h
2216 09-12-2019 16:35:00 7.7 C 6.73 g/m*3 5.94 C 9.7 km/h
2217 09-12-2019 16:40:00 7.7 C 6.73 g/m*3 6.28 C 8.1 km/h
2218 09-12-2019 16:45:00 7.7 C 6.73 g/m*3 7.7 C 4.8 km/h
2219 09-12-2019 16:50:00 7.7 C 6.73 g/m*3 7.7 C 4.8 km/h
2220 09-12-2019 16:55:00 7.7 C 6.81 g/m*3 7.7 C 3.2 km/h
2221 09-12-2019 17:00:00 7.6 C 6.77 g/m*3 6.16 C 8.1 km/h
2222 09-12-2019 17:05:00 7.6 C 6.77 g/m*3 7.6 C 4.8 km/h
2223 09-12-2019 17:10:00 7.6 C 6.77 g/m*3 6.6 C 6.4 km/h
2224 09-12-2019 17:15:00 7.6 C 6.77 g/m*3 6.6 C 6.4 km/h
2225 09-12-2019 17:20:00 7.6 C 6.77 g/m*3 6.6 C 6.4 km/h
Sensor: Nr:Datum:Temp:Abs-Feuchte:Windchill:Wind:
Aussen-T/F 2226 09-12-2019 17:25:00 7.6 C 6.93 g/m*3 6.6 C 6.4 km/h
2227 09-12-2019 17:30:00 7.5 C 6.96 g/m*3 7.5 C 1.6 km/h
2228 09-12-2019 17:35:00 7.4 C 7 g/m*3 7.4 C 3.2 km/h
2229 09-12-2019 17:40:00 7.3 C 6.95 g/m*3 7.3 C 1.6 km/h
2230 09-12-2019 17:45:00 7.2 C 6.99 g/m*3 7.2 C 4.8 km/h
2231 09-12-2019 17:50:00 7.1 C 7.02 g/m*3 7.1 C 4.8 km/h
2232 09-12-2019 17:55:00 7 C 6.97 g/m*3 7 C 3.2 km/h
2233 09-12-2019 18:00:00 6.9 C 6.85 g/m*3 5.34 C 8.1 km/h
2234 09-12-2019 18:05:00 6.9 C 6.93 g/m*3 6.9 C 4.8 km/h
2235 09-12-2019 18:10:00 6.9 C 6.93 g/m*3 6.9 C 4.8 km/h
2236 09-12-2019 18:15:00 6.9 C 6.93 g/m*3 6.9 C 1.6 km/h
2237 09-12-2019 18:20:00 6.9 C 7.01 g/m*3 6.9 C 4.8 km/h
2238 09-12-2019 18:25:00 6.9 C 7.01 g/m*3 6.9 C 3.2 km/h
2239 09-12-2019 18:30:00 6.8 C 6.96 g/m*3 5.22 C 8.1 km/h
2240 09-12-2019 18:35:00 6.8 C 6.96 g/m*3 4.87 C 9.7 km/h
2241 09-12-2019 18:40:00 6.8 C 7.04 g/m*3 6.8 C 3.2 km/h
2242 09-12-2019 18:45:00 6.8 C 7.04 g/m*3 6.8 C 3.2 km/h
2243 09-12-2019 18:50:00 6.8 C 7.04 g/m*3 6.8 C 4.8 km/h
2244 09-12-2019 18:55:00 6.7 C 6.99 g/m*3 4.17 C 12.9 km/h
2245 09-12-2019 19:00:00 6.7 C 6.99 g/m*3 5.11 C 8.1 km/h
2246 09-12-2019 19:05:00 6.7 C 6.99 g/m*3 6.7 C 4.8 km/h
2247 09-12-2019 19:10:00 6.6 C 6.95 g/m*3 6.6 C 0 km/h
2248 09-12-2019 19:15:00 6.6 C 6.95 g/m*3 5.44 C 6.4 km/h
2249 09-12-2019 19:20:00 6.6 C 6.95 g/m*3 6.6 C 1.6 km/h
2250 09-12-2019 19:25:00 6.6 C 6.95 g/m*3 4.63 C 9.7 km/h
Sensor: Nr:Datum:Temp:Abs-Feuchte:Windchill:Wind:
Aussen-T/F 2251 09-12-2019 19:30:00 6.6 C 7.02 g/m*3 4.04 C 12.9 km/h
2252 09-12-2019 19:35:00 6.6 C 7.02 g/m*3 6.6 C 4.8 km/h
2253 09-12-2019 19:40:00 6.5 C 6.97 g/m*3 2.86 C 20.9 km/h
2254 09-12-2019 19:45:00 6.5 C 6.97 g/m*3 4.2 C 11.3 km/h
2255 09-12-2019 19:50:00 6.5 C 6.97 g/m*3 3.67 C 14.5 km/h
2256 09-12-2019 19:55:00 6.5 C 6.97 g/m*3 3.92 C 12.9 km/h
2257 09-12-2019 20:00:00 6.4 C 6.85 g/m*3 2.73 C 20.9 km/h
2258 09-12-2019 20:05:00 6.5 C 6.9 g/m*3 3.44 C 16.1 km/h
2259 09-12-2019 20:10:00 6.6 C 6.95 g/m*3 4.32 C 11.3 km/h
2260 09-12-2019 20:15:00 6.6 C 6.95 g/m*3 3.57 C 16.1 km/h
2261 09-12-2019 20:20:00 6.6 C 6.87 g/m*3 4.04 C 12.9 km/h
2262 09-12-2019 20:25:00 6.7 C 6.99 g/m*3 4.75 C 9.7 km/h
2263 09-12-2019 20:30:00 6.6 C 6.87 g/m*3 2.82 C 22.5 km/h
2264 09-12-2019 20:35:00 6.7 C 6.91 g/m*3 4.17 C 12.9 km/h
2265 09-12-2019 20:40:00 6.6 C 6.87 g/m*3 3.57 C 16.1 km/h
2266 09-12-2019 20:45:00 6.6 C 6.87 g/m*3 3.57 C 16.1 km/h
2267 09-12-2019 20:50:00 6.5 C 6.82 g/m*3 4.51 C 9.7 km/h
2268 09-12-2019 20:55:00 6.5 C 6.75 g/m*3 4.51 C 9.7 km/h
2269 09-12-2019 21:00:00 6.5 C 6.75 g/m*3 3.23 C 17.7 km/h
2270 09-12-2019 21:05:00 6.4 C 6.71 g/m*3 3.11 C 17.7 km/h
2271 09-12-2019 21:10:00 6.3 C 6.66 g/m*3 2.98 C 17.7 km/h
2272 09-12-2019 21:15:00 6.3 C 6.74 g/m*3 6.3 C 3.2 km/h
2273 09-12-2019 21:20:00 6.2 C 6.69 g/m*3 4.52 C 8.1 km/h
2274 09-12-2019 21:25:00 6.2 C 6.69 g/m*3 4.15 C 9.7 km/h
2275 09-12-2019 21:30:00 6.2 C 6.69 g/m*3 3.84 C 11.3 km/h
Sensor: Nr:Datum:Temp:Abs-Feuchte:Windchill:Wind:
Aussen-T/F 2276 09-12-2019 21:35:00 6.2 C 6.69 g/m*3 4.52 C 8.1 km/h
2277 09-12-2019 21:40:00 6.2 C 6.62 g/m*3 4.15 C 9.7 km/h
2278 09-12-2019 21:45:00 6.2 C 6.62 g/m*3 4.52 C 8.1 km/h
2279 09-12-2019 21:50:00 6.1 C 6.58 g/m*3 3.72 C 11.3 km/h
2280 09-12-2019 21:55:00 6.1 C 6.58 g/m*3 6.1 C 1.6 km/h
2281 09-12-2019 22:00:00 5.9 C 6.49 g/m*3 3.48 C 11.3 km/h
2282 09-12-2019 22:05:00 5.9 C 6.42 g/m*3 2.48 C 17.7 km/h
2283 09-12-2019 22:10:00 5.8 C 6.38 g/m*3 4.52 C 6.4 km/h
2284 09-12-2019 22:15:00 5.8 C 6.38 g/m*3 4.05 C 8.1 km/h
2285 09-12-2019 22:20:00 5.7 C 6.33 g/m*3 2.95 C 12.9 km/h
2286 09-12-2019 22:25:00 5.7 C 6.33 g/m*3 3.23 C 11.3 km/h
2287 09-12-2019 22:30:00 5.7 C 6.33 g/m*3 3.23 C 11.3 km/h
2288 09-12-2019 22:35:00 5.7 C 6.33 g/m*3 5.7 C 4.8 km/h
2289 09-12-2019 22:40:00 5.7 C 6.33 g/m*3 3.93 C 8.1 km/h
2290 09-12-2019 22:45:00 5.7 C 6.33 g/m*3 3.93 C 8.1 km/h
2291 09-12-2019 22:50:00 5.7 C 6.26 g/m*3 2.95 C 12.9 km/h
2292 09-12-2019 22:55:00 5.7 C 6.26 g/m*3 2.69 C 14.5 km/h
2293 09-12-2019 23:00:00 5.7 C 6.26 g/m*3 2.69 C 14.5 km/h
2294 09-12-2019 23:05:00 5.6 C 6.22 g/m*3 2.83 C 12.9 km/h
2295 09-12-2019 23:10:00 5.6 C 6.22 g/m*3 3.81 C 8.1 km/h
2296 09-12-2019 23:15:00 5.6 C 6.22 g/m*3 5.6 C 3.2 km/h
2297 09-12-2019 23:20:00 5.4 C 6.14 g/m*3 2.87 C 11.3 km/h
2298 09-12-2019 23:25:00 5.4 C 6.14 g/m*3 3.2 C 9.7 km/h
2299 09-12-2019 23:30:00 5.3 C 6.03 g/m*3 2.46 C 12.9 km/h
2300 09-12-2019 23:35:00 5.3 C 6.1 g/m*3 2.75 C 11.3 km/h
Sensor: Nr:Datum:Temp:Abs-Feuchte:Windchill:Wind:
Aussen-T/F 2301 09-12-2019 23:40:00 5.3 C 6.1 g/m*3 3.46 C 8.1 km/h
2302 09-12-2019 23:45:00 5.2 C 6.06 g/m*3 2.96 C 9.7 km/h
2303 09-12-2019 23:50:00 5.2 C 6.06 g/m*3 5.2 C 4.8 km/h
2304 09-12-2019 23:55:00 5.1 C 6.02 g/m*3 3.71 C 6.4 km/h
2305 10-12-2019 00:00:00 5 C 5.98 g/m*3 3.59 C 6.4 km/h
2306 10-12-2019 00:05:00 5 C 5.98 g/m*3 5 C 4.8 km/h
2307 10-12-2019 00:10:00 5 C 5.91 g/m*3 3.11 C 8.1 km/h
2308 10-12-2019 00:15:00 5 C 5.91 g/m*3 2.09 C 12.9 km/h
2309 10-12-2019 00:20:00 4.9 C 5.87 g/m*3 4.9 C 4.8 km/h
2310 10-12-2019 00:25:00 4.8 C 5.83 g/m*3 2.49 C 9.7 km/h
2311 10-12-2019 00:30:00 4.8 C 5.83 g/m*3 2.87 C 8.1 km/h
2312 10-12-2019 00:35:00 4.8 C 5.83 g/m*3 4.8 C 1.6 km/h
2313 10-12-2019 00:40:00 4.7 C 5.8 g/m*3 4.7 C 4.8 km/h
2314 10-12-2019 00:45:00 4.6 C 5.76 g/m*3 3.13 C 6.4 km/h
2315 10-12-2019 00:50:00 4.5 C 5.78 g/m*3 3.02 C 6.4 km/h
2316 10-12-2019 00:55:00 4.4 C 5.75 g/m*3 4.4 C 0 km/h
2317 10-12-2019 01:00:00 4.2 C 5.67 g/m*3 4.2 C 0 km/h
2318 10-12-2019 01:05:00 4 C 5.59 g/m*3 4 C 1.6 km/h
2319 10-12-2019 01:10:00 3.8 C 5.58 g/m*3 3.8 C 4.8 km/h
2320 10-12-2019 01:15:00 3.8 C 5.65 g/m*3 3.8 C 3.2 km/h
2321 10-12-2019 01:20:00 3.7 C 5.61 g/m*3 3.7 C 1.6 km/h
2322 10-12-2019 01:25:00 3.7 C 5.61 g/m*3 3.7 C 3.2 km/h
2323 10-12-2019 01:30:00 3.7 C 5.61 g/m*3 3.7 C 4.8 km/h
2324 10-12-2019 01:35:00 3.7 C 5.61 g/m*3 3.7 C 3.2 km/h
2325 10-12-2019 01:40:00 3.7 C 5.61 g/m*3 3.7 C 4.8 km/h
Sensor: Nr:Datum:Temp:Abs-Feuchte:Windchill:Wind:
Aussen-T/F 2326 10-12-2019 01:45:00 3.7 C 5.61 g/m*3 3.7 C 3.2 km/h
2327 10-12-2019 01:50:00 3.8 C 5.65 g/m*3 3.8 C 3.2 km/h
2328 10-12-2019 01:55:00 3.8 C 5.58 g/m*3 2.21 C 6.4 km/h
2329 10-12-2019 02:00:00 3.8 C 5.65 g/m*3 3.8 C 4.8 km/h
2330 10-12-2019 02:05:00 3.8 C 5.65 g/m*3 3.8 C 3.2 km/h
2331 10-12-2019 02:10:00 3.8 C 5.58 g/m*3 0.94 C 11.3 km/h
2332 10-12-2019 02:15:00 3.7 C 5.55 g/m*3 3.7 C 1.6 km/h
2333 10-12-2019 02:20:00 3.6 C 5.51 g/m*3 3.6 C 4.8 km/h
2334 10-12-2019 02:25:00 3.5 C 5.47 g/m*3 3.5 C 1.6 km/h
2335 10-12-2019 02:30:00 3.3 C 5.46 g/m*3 3.3 C 4.8 km/h
2336 10-12-2019 02:35:00 3.3 C 5.46 g/m*3 3.3 C 0 km/h
2337 10-12-2019 02:40:00 3.1 C 5.39 g/m*3 3.1 C 1.6 km/h
2338 10-12-2019 02:45:00 3 C 5.41 g/m*3 3 C 3.2 km/h
2339 10-12-2019 02:50:00 2.9 C 5.37 g/m*3 2.9 C 1.6 km/h
2340 10-12-2019 02:55:00 2.8 C 5.34 g/m*3 2.8 C 4.8 km/h
2341 10-12-2019 03:00:00 2.8 C 5.4 g/m*3 2.8 C 3.2 km/h
2342 10-12-2019 03:05:00 2.8 C 5.4 g/m*3 2.8 C 3.2 km/h
2343 10-12-2019 03:10:00 2.7 C 5.36 g/m*3 2.7 C 3.2 km/h
2344 10-12-2019 03:15:00 2.6 C 5.32 g/m*3 2.6 C 3.2 km/h
2345 10-12-2019 03:20:00 2.6 C 5.32 g/m*3 2.6 C 3.2 km/h
2346 10-12-2019 03:25:00 2.6 C 5.38 g/m*3 2.6 C 4.8 km/h
2347 10-12-2019 03:30:00 2.7 C 5.42 g/m*3 2.7 C 1.6 km/h
2348 10-12-2019 03:35:00 2.7 C 5.42 g/m*3 2.7 C 0 km/h
2349 10-12-2019 03:40:00 2.7 C 5.42 g/m*3 2.7 C 0 km/h
2350 10-12-2019 03:45:00 2.6 C 5.38 g/m*3 2.6 C 0 km/h
Sensor: Nr:Datum:Temp:Abs-Feuchte:Windchill:Wind:
Aussen-T/F 2351 10-12-2019 03:50:00 2.5 C 5.35 g/m*3 2.5 C 1.6 km/h
2352 10-12-2019 03:55:00 2.4 C 5.31 g/m*3 2.4 C 0 km/h
2353 10-12-2019 04:00:00 2.3 C 5.27 g/m*3 2.3 C 1.6 km/h
2354 10-12-2019 04:05:00 2.3 C 5.27 g/m*3 2.3 C 1.6 km/h
2355 10-12-2019 04:10:00 2.2 C 5.24 g/m*3 2.2 C 3.2 km/h
2356 10-12-2019 04:15:00 2.2 C 5.24 g/m*3 2.2 C 1.6 km/h
2357 10-12-2019 04:20:00 2.1 C 5.2 g/m*3 2.1 C 0 km/h
2358 10-12-2019 04:25:00 2 C 5.17 g/m*3 2 C 1.6 km/h
2359 10-12-2019 04:30:00 1.9 C 5.19 g/m*3 1.9 C 0 km/h
2360 10-12-2019 04:35:00 1.8 C 5.15 g/m*3 1.8 C 0 km/h
2361 10-12-2019 04:40:00 1.8 C 5.15 g/m*3 1.8 C 0 km/h
2362 10-12-2019 04:45:00 1.8 C 5.15 g/m*3 1.8 C 1.6 km/h
2363 10-12-2019 04:50:00 1.9 C 5.19 g/m*3 1.9 C 1.6 km/h
2364 10-12-2019 04:55:00 2 C 5.28 g/m*3 2 C 3.2 km/h
2365 10-12-2019 05:00:00 2 C 5.22 g/m*3 2 C 0 km/h
2366 10-12-2019 05:05:00 2 C 5.22 g/m*3 2 C 0 km/h
2367 10-12-2019 05:10:00 2.1 C 5.31 g/m*3 2.1 C 4.8 km/h
2368 10-12-2019 05:15:00 2.2 C 5.35 g/m*3 2.2 C 3.2 km/h
2369 10-12-2019 05:20:00 2.3 C 5.39 g/m*3 2.3 C 3.2 km/h
2370 10-12-2019 05:25:00 2.3 C 5.39 g/m*3 2.3 C 3.2 km/h
2371 10-12-2019 05:30:00 2.4 C 5.42 g/m*3 2.4 C 3.2 km/h
2372 10-12-2019 05:35:00 2.4 C 5.42 g/m*3 2.4 C 1.6 km/h
2373 10-12-2019 05:40:00 2.4 C 5.37 g/m*3 2.4 C 4.8 km/h
2374 10-12-2019 05:45:00 2.4 C 5.37 g/m*3 2.4 C 3.2 km/h
2375 10-12-2019 05:50:00 2.4 C 5.37 g/m*3 2.4 C 3.2 km/h
Sensor: Nr:Datum:Temp:Abs-Feuchte:Windchill:Wind:
Aussen-T/F 2376 10-12-2019 05:55:00 2.4 C 5.37 g/m*3 2.4 C 3.2 km/h
2377 10-12-2019 06:00:00 2.3 C 5.33 g/m*3 2.3 C 3.2 km/h
2378 10-12-2019 06:05:00 2.3 C 5.33 g/m*3 2.3 C 1.6 km/h
2379 10-12-2019 06:10:00 2.2 C 5.29 g/m*3 2.2 C 3.2 km/h
2380 10-12-2019 06:15:00 2.2 C 5.29 g/m*3 2.2 C 4.8 km/h
2381 10-12-2019 06:20:00 2.2 C 5.29 g/m*3 2.2 C 4.8 km/h
2382 10-12-2019 06:25:00 2.1 C 5.26 g/m*3 2.1 C 3.2 km/h
2383 10-12-2019 06:30:00 2 C 5.22 g/m*3 2 C 3.2 km/h
2384 10-12-2019 06:35:00 1.9 C 5.19 g/m*3 1.9 C 1.6 km/h
2385 10-12-2019 06:40:00 1.9 C 5.19 g/m*3 1.9 C 0 km/h
2386 10-12-2019 06:45:00 1.8 C 5.15 g/m*3 1.8 C 3.2 km/h
2387 10-12-2019 06:50:00 1.9 C 5.19 g/m*3 1.9 C 4.8 km/h
2388 10-12-2019 06:55:00 1.9 C 5.19 g/m*3 1.9 C 1.6 km/h
2389 10-12-2019 07:00:00 2 C 5.22 g/m*3 2 C 3.2 km/h
2390 10-12-2019 07:05:00 2.1 C 5.31 g/m*3 2.1 C 1.6 km/h
2391 10-12-2019 07:10:00 2.1 C 5.31 g/m*3 2.1 C 4.8 km/h
2392 10-12-2019 07:15:00 2.2 C 5.35 g/m*3 2.2 C 4.8 km/h
2393 10-12-2019 07:20:00 2.3 C 5.39 g/m*3 2.3 C 1.6 km/h
2394 10-12-2019 07:25:00 2.3 C 5.39 g/m*3 2.3 C 1.6 km/h
2395 10-12-2019 07:30:00 2.2 C 5.35 g/m*3 2.2 C 1.6 km/h
2396 10-12-2019 07:35:00 2.2 C 5.29 g/m*3 2.2 C 3.2 km/h
2397 10-12-2019 07:40:00 2 C 5.22 g/m*3 2 C 1.6 km/h
2398 10-12-2019 07:45:00 1.9 C 5.19 g/m*3 1.9 C 3.2 km/h
2399 10-12-2019 07:50:00 1.8 C 5.15 g/m*3 1.8 C 1.6 km/h
2400 10-12-2019 07:55:00 1.8 C 5.15 g/m*3 1.8 C 3.2 km/h
Sensor: Nr:Datum:Temp:Abs-Feuchte:Windchill:Wind:
Aussen-T/F 2401 10-12-2019 08:00:00 1.7 C 5.12 g/m*3 1.7 C 3.2 km/h
2402 10-12-2019 08:05:00 1.7 C 5.12 g/m*3 1.7 C 3.2 km/h
2403 10-12-2019 08:10:00 1.6 C 5.08 g/m*3 1.6 C 3.2 km/h
2404 10-12-2019 08:15:00 1.6 C 5.08 g/m*3 1.6 C 3.2 km/h
2405 10-12-2019 08:20:00 1.6 C 5.14 g/m*3 1.6 C 1.6 km/h
2406 10-12-2019 08:25:00 1.6 C 5.14 g/m*3 1.6 C 1.6 km/h
2407 10-12-2019 08:30:00 1.5 C 5.05 g/m*3 1.5 C 4.8 km/h
2408 10-12-2019 08:35:00 1.5 C 5.05 g/m*3 1.5 C 1.6 km/h
2409 10-12-2019 08:40:00 1.5 C 5.1 g/m*3 1.5 C 4.8 km/h
2410 10-12-2019 08:45:00 1.5 C 5.1 g/m*3 1.5 C 1.6 km/h
2411 10-12-2019 08:50:00 1.5 C 5.1 g/m*3 1.5 C 0 km/h
2412 10-12-2019 08:55:00 1.5 C 5.1 g/m*3 1.5 C 0 km/h
2413 10-12-2019 09:00:00 1.4 C 5.07 g/m*3 1.4 C 1.6 km/h
2414 10-12-2019 09:05:00 1.5 C 5.1 g/m*3 1.5 C 0 km/h
2415 10-12-2019 09:10:00 1.5 C 5.1 g/m*3 1.5 C 4.8 km/h
2416 10-12-2019 09:15:00 1.6 C 5.14 g/m*3 1.6 C 3.2 km/h
2417 10-12-2019 09:20:00 1.7 C 5.17 g/m*3 1.7 C 3.2 km/h
2418 10-12-2019 09:25:00 1.8 C 5.21 g/m*3 1.8 C 3.2 km/h
2419 10-12-2019 09:30:00 2 C 5.28 g/m*3 2 C 1.6 km/h
2420 10-12-2019 09:35:00 2.3 C 5.39 g/m*3 2.3 C 4.8 km/h
2421 10-12-2019 09:40:00 2.3 C 5.39 g/m*3 2.3 C 3.2 km/h
2422 10-12-2019 09:45:00 2.4 C 5.42 g/m*3 2.4 C 3.2 km/h
2423 10-12-2019 09:50:00 2.4 C 5.42 g/m*3 2.4 C 1.6 km/h
2424 10-12-2019 09:55:00 2.6 C 5.5 g/m*3 2.6 C 1.6 km/h
2425 10-12-2019 10:00:00 2.7 C 5.54 g/m*3 2.7 C 0 km/h
Sensor: Nr:Datum:Temp:Abs-Feuchte:Windchill:Wind:
Aussen-T/F 2426 10-12-2019 10:05:00 2.7 C 5.54 g/m*3 2.7 C 0 km/h
2427 10-12-2019 10:10:00 2.8 C 5.51 g/m*3 0.52 C 8.1 km/h
2428 10-12-2019 10:15:00 3 C 5.59 g/m*3 3 C 3.2 km/h
2429 10-12-2019 10:20:00 3.1 C 5.63 g/m*3 3.1 C 3.2 km/h
2430 10-12-2019 10:25:00 3.2 C 5.66 g/m*3 3.2 C 4.8 km/h
2431 10-12-2019 10:30:00 3.3 C 5.64 g/m*3 3.3 C 3.2 km/h
2432 10-12-2019 10:35:00 3.3 C 5.64 g/m*3 3.3 C 3.2 km/h
2433 10-12-2019 10:40:00 3.4 C 5.68 g/m*3 3.4 C 0 km/h
2434 10-12-2019 10:45:00 3.4 C 5.68 g/m*3 3.4 C 3.2 km/h
2435 10-12-2019 10:50:00 3.4 C 5.68 g/m*3 3.4 C 0 km/h
2436 10-12-2019 10:55:00 3.3 C 5.64 g/m*3 3.3 C 0 km/h
2437 10-12-2019 11:00:00 3.3 C 5.64 g/m*3 3.3 C 1.6 km/h
2438 10-12-2019 11:05:00 3.3 C 5.64 g/m*3 3.3 C 3.2 km/h
2439 10-12-2019 11:10:00 3.2 C 5.6 g/m*3 3.2 C 1.6 km/h
2440 10-12-2019 11:15:00 3.2 C 5.6 g/m*3 1.51 C 6.4 km/h
2441 10-12-2019 11:20:00 3.2 C 5.6 g/m*3 3.2 C 3.2 km/h
2442 10-12-2019 11:25:00 3.2 C 5.6 g/m*3 3.2 C 0 km/h
2443 10-12-2019 11:30:00 3.2 C 5.6 g/m*3 3.2 C 0 km/h
2444 10-12-2019 11:35:00 3.2 C 5.6 g/m*3 3.2 C 4.8 km/h
2445 10-12-2019 11:40:00 3.3 C 5.7 g/m*3 1.63 C 6.4 km/h
2446 10-12-2019 11:45:00 3.5 C 5.72 g/m*3 0.27 C 12.9 km/h
2447 10-12-2019 11:50:00 3.8 C 5.83 g/m*3 -0.14 C 17.7 km/h
2448 10-12-2019 11:55:00 3.9 C 5.81 g/m*3 1.82 C 8.1 km/h
2449 10-12-2019 12:00:00 4.1 C 5.82 g/m*3 1 C 12.9 km/h
2450 10-12-2019 12:05:00 4.2 C 5.8 g/m*3 0.84 C 14.5 km/h
Sensor: Nr:Datum:Temp:Abs-Feuchte:Windchill:Wind:
Aussen-T/F 2451 10-12-2019 12:10:00 4.3 C 5.84 g/m*3 0.72 C 16.1 km/h
2452 10-12-2019 12:15:00 4.3 C 5.84 g/m*3 4.3 C 4.8 km/h
2453 10-12-2019 12:20:00 4.4 C 5.88 g/m*3 1.67 C 11.3 km/h
2454 10-12-2019 12:25:00 4.4 C 5.88 g/m*3 2.01 C 9.7 km/h
2455 10-12-2019 12:30:00 4.5 C 5.92 g/m*3 3.02 C 6.4 km/h
2456 10-12-2019 12:35:00 4.6 C 5.96 g/m*3 1.61 C 12.9 km/h
2457 10-12-2019 12:40:00 4.6 C 5.89 g/m*3 2.25 C 9.7 km/h
2458 10-12-2019 12:45:00 4.7 C 5.93 g/m*3 2.37 C 9.7 km/h
2459 10-12-2019 12:50:00 4.8 C 5.97 g/m*3 2.49 C 9.7 km/h
2460 10-12-2019 12:55:00 4.8 C 5.97 g/m*3 1.85 C 12.9 km/h
2461 10-12-2019 13:00:00 4.9 C 6.01 g/m*3 2.99 C 8.1 km/h
2462 10-12-2019 13:05:00 5 C 6.05 g/m*3 3.11 C 8.1 km/h
2463 10-12-2019 13:10:00 5.1 C 6.02 g/m*3 2.84 C 9.7 km/h
2464 10-12-2019 13:15:00 5.2 C 6.06 g/m*3 2.96 C 9.7 km/h
2465 10-12-2019 13:20:00 5.2 C 6.06 g/m*3 3.34 C 8.1 km/h
2466 10-12-2019 13:25:00 5.2 C 6.06 g/m*3 3.34 C 8.1 km/h
2467 10-12-2019 13:30:00 5.2 C 5.99 g/m*3 3.82 C 6.4 km/h
2468 10-12-2019 13:35:00 5.3 C 6.03 g/m*3 3.94 C 6.4 km/h
2469 10-12-2019 13:40:00 5.3 C 6.03 g/m*3 3.94 C 6.4 km/h
2470 10-12-2019 13:45:00 5.4 C 6.07 g/m*3 5.4 C 0 km/h
2471 10-12-2019 13:50:00 5.4 C 6.07 g/m*3 5.4 C 1.6 km/h
2472 10-12-2019 13:55:00 5.4 C 6 g/m*3 3.2 C 9.7 km/h
2473 10-12-2019 14:00:00 5.4 C 6 g/m*3 5.4 C 4.8 km/h
2474 10-12-2019 14:05:00 5.4 C 6.07 g/m*3 5.4 C 1.6 km/h
2475 10-12-2019 14:10:00 5.3 C 6.03 g/m*3 5.3 C 0 km/h
Sensor: Nr:Datum:Temp:Abs-Feuchte:Windchill:Wind:
Aussen-T/F 2476 10-12-2019 14:15:00 5.2 C 5.99 g/m*3 3.34 C 8.1 km/h
2477 10-12-2019 14:20:00 5.1 C 5.95 g/m*3 5.1 C 3.2 km/h
2478 10-12-2019 14:25:00 4.9 C 5.87 g/m*3 4.9 C 4.8 km/h
2479 10-12-2019 14:30:00 5 C 5.91 g/m*3 3.59 C 6.4 km/h
2480 10-12-2019 14:35:00 4.9 C 5.87 g/m*3 4.9 C 0 km/h
2481 10-12-2019 14:40:00 4.8 C 5.83 g/m*3 4.8 C 4.8 km/h
2482 10-12-2019 14:45:00 4.8 C 5.9 g/m*3 4.8 C 3.2 km/h
2483 10-12-2019 14:50:00 4.7 C 5.86 g/m*3 4.7 C 3.2 km/h
2484 10-12-2019 14:55:00 4.6 C 5.82 g/m*3 4.6 C 3.2 km/h
2485 10-12-2019 15:00:00 4.5 C 5.78 g/m*3 4.5 C 1.6 km/h
2486 10-12-2019 15:05:00 4.4 C 5.75 g/m*3 4.4 C 3.2 km/h
2487 10-12-2019 15:10:00 4.3 C 5.77 g/m*3 4.3 C 4.8 km/h
2488 10-12-2019 15:15:00 4.3 C 5.77 g/m*3 4.3 C 3.2 km/h
2489 10-12-2019 15:20:00 4.2 C 5.73 g/m*3 4.2 C 1.6 km/h
2490 10-12-2019 15:25:00 4.1 C 5.7 g/m*3 4.1 C 0 km/h
2491 10-12-2019 15:30:00 4.1 C 5.76 g/m*3 4.1 C 3.2 km/h
2492 10-12-2019 15:35:00 4.1 C 5.7 g/m*3 4.1 C 4.8 km/h
2493 10-12-2019 15:40:00 4 C 5.66 g/m*3 4 C 3.2 km/h
2494 10-12-2019 15:45:00 3.9 C 5.68 g/m*3 3.9 C 4.8 km/h
2495 10-12-2019 15:50:00 3.9 C 5.62 g/m*3 3.9 C 4.8 km/h
2496 10-12-2019 15:55:00 3.8 C 5.58 g/m*3 3.8 C 3.2 km/h
2497 10-12-2019 16:00:00 3.7 C 5.55 g/m*3 3.7 C 3.2 km/h
2498 10-12-2019 16:05:00 3.6 C 5.57 g/m*3 3.6 C 3.2 km/h
2499 10-12-2019 16:10:00 3.5 C 5.53 g/m*3 3.5 C 3.2 km/h
2500 10-12-2019 16:15:00 3.6 C 5.57 g/m*3 3.6 C 0 km/h
Sensor: Nr:Datum:Temp:Abs-Feuchte:Windchill:Wind:
Aussen-T/F 2501 10-12-2019 16:20:00 3.7 C 5.61 g/m*3 3.7 C 0 km/h
2502 10-12-2019 16:25:00 3.8 C 5.65 g/m*3 3.8 C 1.6 km/h
2503 10-12-2019 16:30:00 3.9 C 5.68 g/m*3 3.9 C 3.2 km/h
2504 10-12-2019 16:35:00 4 C 5.59 g/m*3 1.93 C 8.1 km/h
2505 10-12-2019 16:40:00 4.2 C 5.67 g/m*3 4.2 C 1.6 km/h
2506 10-12-2019 16:45:00 4.1 C 5.57 g/m*3 1 C 12.9 km/h
2507 10-12-2019 16:50:00 4 C 5.47 g/m*3 2.44 C 6.4 km/h
2508 10-12-2019 16:55:00 4 C 5.47 g/m*3 4 C 3.2 km/h
2509 10-12-2019 17:00:00 3.9 C 5.43 g/m*3 3.9 C 4.8 km/h
2510 10-12-2019 17:05:00 3.8 C 5.4 g/m*3 2.21 C 6.4 km/h
2511 10-12-2019 17:10:00 3.7 C 5.36 g/m*3 1.18 C 9.7 km/h
2512 10-12-2019 17:15:00 3.7 C 5.36 g/m*3 1.58 C 8.1 km/h
2513 10-12-2019 17:20:00 3.7 C 5.36 g/m*3 3.7 C 3.2 km/h
2514 10-12-2019 17:25:00 3.7 C 5.36 g/m*3 2.09 C 6.4 km/h
2515 10-12-2019 17:30:00 3.7 C 5.36 g/m*3 3.7 C 4.8 km/h
2516 10-12-2019 17:35:00 3.7 C 5.3 g/m*3 3.7 C 3.2 km/h
2517 10-12-2019 17:40:00 3.6 C 5.32 g/m*3 3.6 C 3.2 km/h
2518 10-12-2019 17:45:00 3.6 C 5.32 g/m*3 3.6 C 4.8 km/h
2519 10-12-2019 17:50:00 3.6 C 5.32 g/m*3 3.6 C 0 km/h
2520 10-12-2019 17:55:00 3.4 C 5.25 g/m*3 3.4 C 4.8 km/h
2521 10-12-2019 18:00:00 3.4 C 5.25 g/m*3 3.4 C 4.8 km/h
2522 10-12-2019 18:05:00 3.3 C 5.28 g/m*3 3.3 C 0 km/h
2523 10-12-2019 18:10:00 3.3 C 5.28 g/m*3 3.3 C 0 km/h
2524 10-12-2019 18:15:00 3.1 C 5.21 g/m*3 3.1 C 0 km/h
2525 10-12-2019 18:20:00 3 C 5.23 g/m*3 3 C 0 km/h
Sensor: Nr:Datum:Temp:Abs-Feuchte:Windchill:Wind:
Aussen-T/F 2526 10-12-2019 18:25:00 3 C 5.29 g/m*3 3 C 0 km/h
2527 10-12-2019 18:30:00 2.9 C 5.26 g/m*3 2.9 C 0 km/h
2528 10-12-2019 18:35:00 2.8 C 5.22 g/m*3 2.8 C 0 km/h
2529 10-12-2019 18:40:00 2.8 C 5.28 g/m*3 2.8 C 0 km/h
2530 10-12-2019 18:45:00 2.8 C 5.28 g/m*3 2.8 C 0 km/h
2531 10-12-2019 18:50:00 2.7 C 5.24 g/m*3 2.7 C 0 km/h
2532 10-12-2019 18:55:00 2.7 C 5.24 g/m*3 2.7 C 0 km/h
2533 10-12-2019 19:00:00 2.6 C 5.21 g/m*3 2.6 C 0 km/h
2534 10-12-2019 19:05:00 2.6 C 5.27 g/m*3 2.6 C 0 km/h
2535 10-12-2019 19:10:00 2.5 C 5.23 g/m*3 2.5 C 0 km/h
2536 10-12-2019 19:15:00 2.4 C 5.2 g/m*3 2.4 C 0 km/h
2537 10-12-2019 19:20:00 2.4 C 5.2 g/m*3 2.4 C 0 km/h
2538 10-12-2019 19:25:00 2.4 C 5.2 g/m*3 2.4 C 0 km/h
2539 10-12-2019 19:30:00 2.4 C 5.25 g/m*3 2.4 C 0 km/h
2540 10-12-2019 19:35:00 2.4 C 5.25 g/m*3 2.4 C 0 km/h
2541 10-12-2019 19:40:00 2.4 C 5.25 g/m*3 2.4 C 0 km/h
2542 10-12-2019 19:45:00 2.4 C 5.25 g/m*3 2.4 C 3.2 km/h
2543 10-12-2019 19:50:00 2.4 C 5.25 g/m*3 2.4 C 0 km/h
2544 10-12-2019 19:55:00 2.4 C 5.25 g/m*3 2.4 C 0 km/h
2545 10-12-2019 20:00:00 2.5 C 5.29 g/m*3 2.5 C 0 km/h
2546 10-12-2019 20:05:00 2.6 C 5.32 g/m*3 2.6 C 1.6 km/h
2547 10-12-2019 20:10:00 2.7 C 5.36 g/m*3 2.7 C 3.2 km/h
2548 10-12-2019 20:15:00 2.8 C 5.4 g/m*3 2.8 C 4.8 km/h
2549 10-12-2019 20:20:00 3 C 5.41 g/m*3 3 C 4.8 km/h
2550 10-12-2019 20:25:00 3.2 C 5.42 g/m*3 3.2 C 1.6 km/h
Sensor: Nr:Datum:Temp:Abs-Feuchte:Windchill:Wind:
Aussen-T/F 2551 10-12-2019 20:30:00 3.4 C 5.5 g/m*3 3.4 C 4.8 km/h
2552 10-12-2019 20:35:00 3.4 C 5.44 g/m*3 3.4 C 0 km/h
2553 10-12-2019 20:40:00 3.4 C 5.44 g/m*3 1.23 C 8.1 km/h
2554 10-12-2019 20:45:00 3.5 C 5.47 g/m*3 1.86 C 6.4 km/h
2555 10-12-2019 20:50:00 3.4 C 5.44 g/m*3 3.4 C 0 km/h
2556 10-12-2019 20:55:00 3.4 C 5.44 g/m*3 3.4 C 0 km/h
2557 10-12-2019 21:00:00 3.3 C 5.4 g/m*3 3.3 C 3.2 km/h
2558 10-12-2019 21:05:00 3.3 C 5.4 g/m*3 3.3 C 3.2 km/h
2559 10-12-2019 21:10:00 3.4 C 5.5 g/m*3 3.4 C 0 km/h
2560 10-12-2019 21:15:00 3.3 C 5.46 g/m*3 3.3 C 0 km/h
2561 10-12-2019 21:20:00 3.3 C 5.46 g/m*3 3.3 C 0 km/h
2562 10-12-2019 21:25:00 3.2 C 5.42 g/m*3 3.2 C 0 km/h
2563 10-12-2019 21:30:00 3.2 C 5.42 g/m*3 3.2 C 0 km/h
2564 10-12-2019 21:35:00 3.1 C 5.39 g/m*3 3.1 C 0 km/h
2565 10-12-2019 21:40:00 3.1 C 5.39 g/m*3 3.1 C 1.6 km/h
2566 10-12-2019 21:45:00 3.1 C 5.45 g/m*3 3.1 C 0 km/h
2567 10-12-2019 21:50:00 3 C 5.35 g/m*3 3 C 0 km/h
2568 10-12-2019 21:55:00 2.9 C 5.37 g/m*3 2.9 C 0 km/h
2569 10-12-2019 22:00:00 2.9 C 5.37 g/m*3 2.9 C 0 km/h
2570 10-12-2019 22:05:00 2.8 C 5.34 g/m*3 2.8 C 1.6 km/h
2571 10-12-2019 22:10:00 2.9 C 5.37 g/m*3 2.9 C 0 km/h
2572 10-12-2019 22:15:00 2.9 C 5.43 g/m*3 2.9 C 1.6 km/h
2573 10-12-2019 22:20:00 3 C 5.47 g/m*3 3 C 4.8 km/h
2574 10-12-2019 22:25:00 3.1 C 5.51 g/m*3 3.1 C 0 km/h
2575 10-12-2019 22:30:00 3.1 C 5.51 g/m*3 3.1 C 3.2 km/h
Sensor: Nr:Datum:Temp:Abs-Feuchte:Windchill:Wind:
Aussen-T/F 2576 10-12-2019 22:35:00 3.2 C 5.48 g/m*3 3.2 C 0 km/h
2577 10-12-2019 22:40:00 3.2 C 5.48 g/m*3 3.2 C 3.2 km/h
2578 10-12-2019 22:45:00 3.2 C 5.48 g/m*3 3.2 C 1.6 km/h
2579 10-12-2019 22:50:00 3.3 C 5.52 g/m*3 3.3 C 1.6 km/h
2580 10-12-2019 22:55:00 3.4 C 5.56 g/m*3 3.4 C 3.2 km/h
2581 10-12-2019 23:00:00 3.5 C 5.6 g/m*3 3.5 C 0 km/h
2582 10-12-2019 23:05:00 3.6 C 5.63 g/m*3 3.6 C 1.6 km/h
2583 10-12-2019 23:10:00 3.7 C 5.61 g/m*3 3.7 C 0 km/h
2584 10-12-2019 23:15:00 3.7 C 5.67 g/m*3 2.09 C 6.4 km/h
2585 10-12-2019 23:20:00 3.7 C 5.61 g/m*3 3.7 C 0 km/h
2586 10-12-2019 23:25:00 3.7 C 5.61 g/m*3 3.7 C 0 km/h
2587 10-12-2019 23:30:00 3.7 C 5.61 g/m*3 3.7 C 1.6 km/h
2588 10-12-2019 23:35:00 3.7 C 5.61 g/m*3 3.7 C 3.2 km/h
2589 10-12-2019 23:40:00 3.8 C 5.65 g/m*3 3.8 C 0 km/h
2590 10-12-2019 23:45:00 3.8 C 5.65 g/m*3 3.8 C 0 km/h
2591 10-12-2019 23:50:00 3.9 C 5.68 g/m*3 3.9 C 0 km/h
2592 10-12-2019 23:55:00 3.9 C 5.68 g/m*3 3.9 C 0 km/h
2593 11-12-2019 00:00:00 3.9 C 5.68 g/m*3 3.9 C 0 km/h
2594 11-12-2019 00:05:00 3.9 C 5.62 g/m*3 3.9 C 1.6 km/h
2595 11-12-2019 00:10:00 4 C 5.66 g/m*3 4 C 0 km/h
2596 11-12-2019 00:15:00 4 C 5.66 g/m*3 4 C 4.8 km/h
2597 11-12-2019 00:20:00 4.1 C 5.7 g/m*3 4.1 C 1.6 km/h
2598 11-12-2019 00:25:00 4.1 C 5.7 g/m*3 4.1 C 0 km/h
2599 11-12-2019 00:30:00 4.1 C 5.7 g/m*3 4.1 C 1.6 km/h
2600 11-12-2019 00:35:00 4.1 C 5.7 g/m*3 4.1 C 0 km/h
Sensor: Nr:Datum:Temp:Abs-Feuchte:Windchill:Wind:
Aussen-T/F 2601 11-12-2019 00:40:00 4.1 C 5.63 g/m*3 4.1 C 0 km/h
2602 11-12-2019 00:45:00 4.1 C 5.63 g/m*3 4.1 C 0 km/h
2603 11-12-2019 00:50:00 4.1 C 5.63 g/m*3 4.1 C 0 km/h
2604 11-12-2019 00:55:00 4.2 C 5.61 g/m*3 4.2 C 4.8 km/h
2605 11-12-2019 01:00:00 4.2 C 5.61 g/m*3 4.2 C 0 km/h
2606 11-12-2019 01:05:00 4.2 C 5.61 g/m*3 4.2 C 1.6 km/h
2607 11-12-2019 01:10:00 4.2 C 5.61 g/m*3 4.2 C 0 km/h
2608 11-12-2019 01:15:00 4.3 C 5.64 g/m*3 4.3 C 1.6 km/h
2609 11-12-2019 01:20:00 4.3 C 5.58 g/m*3 4.3 C 1.6 km/h
2610 11-12-2019 01:25:00 4.3 C 5.64 g/m*3 4.3 C 0 km/h
2611 11-12-2019 01:30:00 4.3 C 5.64 g/m*3 4.3 C 0 km/h
2612 11-12-2019 01:35:00 4.3 C 5.71 g/m*3 4.3 C 0 km/h
2613 11-12-2019 01:40:00 4.3 C 5.71 g/m*3 4.3 C 0 km/h
2614 11-12-2019 01:45:00 4.3 C 5.64 g/m*3 4.3 C 4.8 km/h
2615 11-12-2019 01:50:00 4.3 C 5.77 g/m*3 4.3 C 1.6 km/h
2616 11-12-2019 01:55:00 4.3 C 5.77 g/m*3 4.3 C 0 km/h
2617 11-12-2019 02:00:00 4.3 C 5.84 g/m*3 4.3 C 0 km/h
2618 11-12-2019 02:05:00 4.2 C 5.8 g/m*3 4.2 C 3.2 km/h
2619 11-12-2019 02:10:00 4.2 C 5.8 g/m*3 4.2 C 0 km/h
2620 11-12-2019 02:15:00 4.1 C 5.7 g/m*3 2.55 C 6.4 km/h
2621 11-12-2019 02:20:00 4.1 C 5.7 g/m*3 4.1 C 0 km/h
2622 11-12-2019 02:25:00 4.1 C 5.76 g/m*3 4.1 C 0 km/h
2623 11-12-2019 02:30:00 4.1 C 5.76 g/m*3 4.1 C 0 km/h
2624 11-12-2019 02:35:00 4.1 C 5.76 g/m*3 4.1 C 0 km/h
2625 11-12-2019 02:40:00 4 C 5.72 g/m*3 4 C 3.2 km/h
Sensor: Nr:Datum:Temp:Abs-Feuchte:Windchill:Wind:
Aussen-T/F 2626 11-12-2019 02:45:00 3.9 C 5.62 g/m*3 3.9 C 0 km/h
2627 11-12-2019 02:50:00 3.9 C 5.62 g/m*3 3.9 C 3.2 km/h
2628 11-12-2019 02:55:00 4 C 5.66 g/m*3 4 C 0 km/h
2629 11-12-2019 03:00:00 4 C 5.72 g/m*3 4 C 1.6 km/h
2630 11-12-2019 03:05:00 4.1 C 5.76 g/m*3 4.1 C 0 km/h
2631 11-12-2019 03:10:00 4.1 C 5.76 g/m*3 4.1 C 1.6 km/h
2632 11-12-2019 03:15:00 4.1 C 5.82 g/m*3 4.1 C 4.8 km/h
2633 11-12-2019 03:20:00 4 C 5.66 g/m*3 2.44 C 6.4 km/h
2634 11-12-2019 03:25:00 4.1 C 5.7 g/m*3 4.1 C 1.6 km/h
2635 11-12-2019 03:30:00 4.1 C 5.76 g/m*3 4.1 C 0 km/h
2636 11-12-2019 03:35:00 4.1 C 5.76 g/m*3 4.1 C 0 km/h
2637 11-12-2019 03:40:00 4.1 C 5.82 g/m*3 4.1 C 0 km/h
2638 11-12-2019 03:45:00 4.1 C 5.82 g/m*3 4.1 C 0 km/h
2639 11-12-2019 03:50:00 4.1 C 5.82 g/m*3 4.1 C 0 km/h
2640 11-12-2019 03:55:00 4.1 C 5.82 g/m*3 4.1 C 0 km/h
2641 11-12-2019 04:00:00 4 C 5.85 g/m*3 4 C 3.2 km/h
2642 11-12-2019 04:05:00 3.9 C 5.75 g/m*3 3.9 C 3.2 km/h
2643 11-12-2019 04:10:00 3.9 C 5.75 g/m*3 3.9 C 0 km/h
2644 11-12-2019 04:15:00 3.8 C 5.71 g/m*3 3.8 C 3.2 km/h
2645 11-12-2019 04:20:00 3.8 C 5.77 g/m*3 3.8 C 1.6 km/h
2646 11-12-2019 04:25:00 3.8 C 5.77 g/m*3 3.8 C 0 km/h
2647 11-12-2019 04:30:00 3.8 C 5.77 g/m*3 3.8 C 0 km/h
2648 11-12-2019 04:35:00 3.8 C 5.77 g/m*3 3.8 C 0 km/h
2649 11-12-2019 04:40:00 3.8 C 5.77 g/m*3 3.8 C 0 km/h
2650 11-12-2019 04:45:00 3.8 C 5.83 g/m*3 3.8 C 0 km/h
Sensor: Nr:Datum:Temp:Abs-Feuchte:Windchill:Wind:
Aussen-T/F 2651 11-12-2019 04:50:00 3.7 C 5.8 g/m*3 3.7 C 0 km/h
2652 11-12-2019 04:55:00 3.7 C 5.8 g/m*3 3.7 C 0 km/h
2653 11-12-2019 05:00:00 3.8 C 5.83 g/m*3 3.8 C 0 km/h
2654 11-12-2019 05:05:00 3.8 C 5.83 g/m*3 3.8 C 0 km/h
2655 11-12-2019 05:10:00 3.8 C 5.83 g/m*3 3.8 C 0 km/h
2656 11-12-2019 05:15:00 3.7 C 5.8 g/m*3 3.7 C 0 km/h
2657 11-12-2019 05:20:00 3.7 C 5.86 g/m*3 3.7 C 0 km/h
2658 11-12-2019 05:25:00 3.7 C 5.86 g/m*3 3.7 C 0 km/h
2659 11-12-2019 05:30:00 3.7 C 5.86 g/m*3 3.7 C 0 km/h
2660 11-12-2019 05:35:00 3.7 C 5.86 g/m*3 3.7 C 0 km/h
2661 11-12-2019 05:40:00 3.6 C 5.82 g/m*3 3.6 C 0 km/h
2662 11-12-2019 05:45:00 3.6 C 5.82 g/m*3 3.6 C 0 km/h
2663 11-12-2019 05:50:00 3.6 C 5.82 g/m*3 3.6 C 0 km/h
2664 11-12-2019 05:55:00 3.6 C 5.82 g/m*3 3.6 C 0 km/h
2665 11-12-2019 06:00:00 3.5 C 5.78 g/m*3 3.5 C 0 km/h
2666 11-12-2019 06:05:00 3.5 C 5.84 g/m*3 3.5 C 0 km/h
2667 11-12-2019 06:10:00 3.5 C 5.84 g/m*3 3.5 C 0 km/h
2668 11-12-2019 06:15:00 3.4 C 5.8 g/m*3 3.4 C 0 km/h
2669 11-12-2019 06:20:00 3.4 C 5.8 g/m*3 3.4 C 0 km/h
2670 11-12-2019 06:25:00 3.4 C 5.8 g/m*3 3.4 C 0 km/h
2671 11-12-2019 06:30:00 3.4 C 5.8 g/m*3 3.4 C 0 km/h
2672 11-12-2019 06:35:00 3.4 C 5.8 g/m*3 3.4 C 0 km/h
2673 11-12-2019 06:40:00 3.4 C 5.8 g/m*3 3.4 C 0 km/h
2674 11-12-2019 06:45:00 3.4 C 5.8 g/m*3 3.4 C 0 km/h
2675 11-12-2019 06:50:00 3.4 C 5.8 g/m*3 3.4 C 0 km/h
Sensor: Nr:Datum:Temp:Abs-Feuchte:Windchill:Wind:
Aussen-T/F 2676 11-12-2019 06:55:00 3.4 C 5.8 g/m*3 3.4 C 0 km/h
2677 11-12-2019 07:00:00 3.4 C 5.8 g/m*3 3.4 C 0 km/h
2678 11-12-2019 07:05:00 3.4 C 5.8 g/m*3 3.4 C 0 km/h
2679 11-12-2019 07:10:00 3.4 C 5.8 g/m*3 3.4 C 0 km/h
2680 11-12-2019 07:15:00 3.4 C 5.8 g/m*3 3.4 C 0 km/h
2681 11-12-2019 07:20:00 3.3 C 5.76 g/m*3 3.3 C 0 km/h
2682 11-12-2019 07:25:00 3.3 C 5.76 g/m*3 3.3 C 0 km/h
2683 11-12-2019 07:30:00 3.3 C 5.76 g/m*3 3.3 C 0 km/h
2684 11-12-2019 07:35:00 3.3 C 5.76 g/m*3 3.3 C 0 km/h
2685 11-12-2019 07:40:00 3.3 C 5.76 g/m*3 3.3 C 0 km/h
2686 11-12-2019 07:45:00 3.3 C 5.76 g/m*3 3.3 C 0 km/h
2687 11-12-2019 07:50:00 3.3 C 5.76 g/m*3 3.3 C 0 km/h
2688 11-12-2019 07:55:00 3.3 C 5.76 g/m*3 3.3 C 0 km/h
2689 11-12-2019 08:00:00 3.3 C 5.76 g/m*3 3.3 C 0 km/h
2690 11-12-2019 08:05:00 3.3 C 5.76 g/m*3 3.3 C 0 km/h
2691 11-12-2019 08:10:00 3.3 C 5.76 g/m*3 3.3 C 0 km/h
2692 11-12-2019 08:15:00 3.3 C 5.76 g/m*3 3.3 C 0 km/h
2693 11-12-2019 08:20:00 3.3 C 5.82 g/m*3 3.3 C 0 km/h
2694 11-12-2019 08:25:00 3.3 C 5.82 g/m*3 3.3 C 0 km/h
2695 11-12-2019 08:30:00 3.3 C 5.82 g/m*3 3.3 C 0 km/h
2696 11-12-2019 08:35:00 3.2 C 5.79 g/m*3 3.2 C 0 km/h
2697 11-12-2019 08:40:00 3.2 C 5.79 g/m*3 3.2 C 0 km/h
2698 11-12-2019 08:45:00 3.2 C 5.79 g/m*3 3.2 C 0 km/h
2699 11-12-2019 08:50:00 3.2 C 5.79 g/m*3 3.2 C 0 km/h
2700 11-12-2019 08:55:00 3.2 C 5.79 g/m*3 3.2 C 0 km/h
Sensor: Nr:Datum:Temp:Abs-Feuchte:Windchill:Wind:
Aussen-T/F 2701 11-12-2019 09:00:00 3.2 C 5.79 g/m*3 3.2 C 0 km/h
2702 11-12-2019 09:05:00 3.2 C 5.79 g/m*3 3.2 C 0 km/h
2703 11-12-2019 09:10:00 3.2 C 5.79 g/m*3 3.2 C 0 km/h
2704 11-12-2019 09:15:00 3.2 C 5.79 g/m*3 3.2 C 0 km/h
2705 11-12-2019 09:20:00 3.2 C 5.79 g/m*3 3.2 C 0 km/h
2706 11-12-2019 09:25:00 3.3 C 5.82 g/m*3 3.3 C 0 km/h
2707 11-12-2019 09:30:00 3.3 C 5.82 g/m*3 3.3 C 0 km/h
2708 11-12-2019 09:35:00 3.3 C 5.82 g/m*3 3.3 C 0 km/h
2709 11-12-2019 09:40:00 3.3 C 5.82 g/m*3 3.3 C 0 km/h
2710 11-12-2019 09:45:00 3.3 C 5.82 g/m*3 3.3 C 0 km/h
2711 11-12-2019 09:50:00 3.3 C 5.82 g/m*3 3.3 C 0 km/h
2712 11-12-2019 09:55:00 3.4 C 5.86 g/m*3 3.4 C 0 km/h
2713 11-12-2019 10:00:00 3.4 C 5.86 g/m*3 3.4 C 0 km/h
2714 11-12-2019 10:05:00 3.4 C 5.86 g/m*3 3.4 C 0 km/h
2715 11-12-2019 10:10:00 3.4 C 5.86 g/m*3 3.4 C 0 km/h
2716 11-12-2019 10:15:00 3.5 C 5.9 g/m*3 3.5 C 0 km/h
2717 11-12-2019 10:20:00 3.5 C 5.9 g/m*3 3.5 C 0 km/h
2718 11-12-2019 10:25:00 3.6 C 5.94 g/m*3 3.6 C 0 km/h
2719 11-12-2019 10:30:00 3.6 C 5.94 g/m*3 3.6 C 0 km/h
2720 11-12-2019 10:35:00 3.6 C 5.94 g/m*3 3.6 C 0 km/h
2721 11-12-2019 10:40:00 3.6 C 5.94 g/m*3 3.6 C 0 km/h
2722 11-12-2019 10:45:00 3.6 C 5.94 g/m*3 3.6 C 0 km/h
2723 11-12-2019 10:50:00 3.6 C 5.94 g/m*3 3.6 C 0 km/h
2724 11-12-2019 10:55:00 3.7 C 5.98 g/m*3 3.7 C 0 km/h
2725 11-12-2019 11:00:00 3.7 C 5.98 g/m*3 3.7 C 0 km/h
Sensor: Nr:Datum:Temp:Abs-Feuchte:Windchill:Wind:
Aussen-T/F 2726 11-12-2019 11:05:00 3.7 C 5.98 g/m*3 3.7 C 0 km/h
2727 11-12-2019 11:10:00 3.7 C 5.98 g/m*3 3.7 C 0 km/h
2728 11-12-2019 11:15:00 3.7 C 5.98 g/m*3 3.7 C 0 km/h
2729 11-12-2019 11:20:00 3.7 C 5.98 g/m*3 3.7 C 0 km/h
2730 11-12-2019 11:25:00 3.8 C 6.02 g/m*3 3.8 C 0 km/h
2731 11-12-2019 11:30:00 3.8 C 6.02 g/m*3 3.8 C 0 km/h
2732 11-12-2019 11:35:00 3.8 C 6.02 g/m*3 3.8 C 0 km/h
2733 11-12-2019 11:40:00 3.8 C 6.02 g/m*3 3.8 C 0 km/h
2734 11-12-2019 11:45:00 3.8 C 6.02 g/m*3 3.8 C 0 km/h
2735 11-12-2019 11:50:00 3.8 C 6.02 g/m*3 3.8 C 0 km/h
2736 11-12-2019 11:55:00 3.8 C 6.02 g/m*3 3.8 C 0 km/h
2737 11-12-2019 12:00:00 3.9 C 6.06 g/m*3 3.9 C 0 km/h
2738 11-12-2019 12:05:00 3.9 C 6.06 g/m*3 3.9 C 0 km/h
2739 11-12-2019 12:10:00 3.9 C 6.06 g/m*3 3.9 C 0 km/h
2740 11-12-2019 12:15:00 3.9 C 6.06 g/m*3 3.9 C 0 km/h
2741 11-12-2019 12:20:00 3.9 C 6.06 g/m*3 3.9 C 0 km/h
2742 11-12-2019 12:25:00 3.9 C 6.06 g/m*3 3.9 C 0 km/h
2743 11-12-2019 12:30:00 3.9 C 6.06 g/m*3 3.9 C 0 km/h
2744 11-12-2019 12:35:00 3.9 C 6.06 g/m*3 3.9 C 0 km/h
2745 11-12-2019 12:40:00 3.9 C 6.06 g/m*3 3.9 C 0 km/h
2746 11-12-2019 12:45:00 3.9 C 6.06 g/m*3 3.9 C 0 km/h
2747 11-12-2019 12:50:00 3.9 C 6.06 g/m*3 3.9 C 0 km/h
2748 11-12-2019 12:55:00 3.9 C 6.06 g/m*3 3.9 C 0 km/h
2749 11-12-2019 13:00:00 3.9 C 6.06 g/m*3 3.9 C 0 km/h
2750 11-12-2019 13:05:00 3.9 C 6.06 g/m*3 3.9 C 0 km/h
Sensor: Nr:Datum:Temp:Abs-Feuchte:Windchill:Wind:
Aussen-T/F 2751 11-12-2019 13:10:00 3.9 C 6.06 g/m*3 3.9 C 0 km/h
2752 11-12-2019 13:15:00 3.9 C 6.06 g/m*3 3.9 C 0 km/h
2753 11-12-2019 13:20:00 3.9 C 6.06 g/m*3 3.9 C 0 km/h
2754 11-12-2019 13:25:00 3.9 C 6.06 g/m*3 3.9 C 0 km/h
2755 11-12-2019 13:30:00 3.9 C 6.06 g/m*3 3.9 C 0 km/h
2756 11-12-2019 13:35:00 4 C 6.1 g/m*3 4 C 0 km/h
2757 11-12-2019 13:40:00 3.9 C 6.06 g/m*3 3.9 C 0 km/h
2758 11-12-2019 13:45:00 4 C 6.1 g/m*3 4 C 0 km/h
2759 11-12-2019 13:50:00 4 C 6.1 g/m*3 4 C 0 km/h
2760 11-12-2019 13:55:00 4 C 6.1 g/m*3 4 C 0 km/h
2761 11-12-2019 14:00:00 4 C 6.1 g/m*3 4 C 0 km/h
2762 11-12-2019 14:05:00 4 C 6.1 g/m*3 4 C 0 km/h
2763 11-12-2019 14:10:00 4.1 C 6.14 g/m*3 4.1 C 0 km/h
2764 11-12-2019 14:15:00 4.1 C 6.14 g/m*3 4.1 C 0 km/h
2765 11-12-2019 14:20:00 4.1 C 6.14 g/m*3 4.1 C 0 km/h
2766 11-12-2019 14:25:00 4.1 C 6.14 g/m*3 4.1 C 0 km/h
2767 11-12-2019 14:30:00 4.1 C 6.14 g/m*3 4.1 C 0 km/h
2768 11-12-2019 14:35:00 4.1 C 6.14 g/m*3 4.1 C 0 km/h
2769 11-12-2019 14:40:00 4.1 C 6.14 g/m*3 4.1 C 0 km/h
2770 11-12-2019 14:45:00 4.1 C 6.14 g/m*3 4.1 C 0 km/h
2771 11-12-2019 14:50:00 4.1 C 6.14 g/m*3 4.1 C 0 km/h
2772 11-12-2019 14:55:00 4.2 C 6.19 g/m*3 4.2 C 0 km/h
2773 11-12-2019 15:00:00 4.2 C 6.19 g/m*3 4.2 C 0 km/h
2774 11-12-2019 15:05:00 4.2 C 6.19 g/m*3 4.2 C 0 km/h
2775 11-12-2019 15:10:00 4.2 C 6.19 g/m*3 4.2 C 0 km/h
Sensor: Nr:Datum:Temp:Abs-Feuchte:Windchill:Wind:
Aussen-T/F 2776 11-12-2019 15:15:00 4.2 C 6.19 g/m*3 4.2 C 0 km/h
2777 11-12-2019 15:20:00 4.2 C 6.19 g/m*3 4.2 C 0 km/h
2778 11-12-2019 15:25:00 4.2 C 6.19 g/m*3 4.2 C 0 km/h
2779 11-12-2019 15:30:00 4.2 C 6.19 g/m*3 4.2 C 0 km/h
2780 11-12-2019 15:35:00 4.2 C 6.19 g/m*3 4.2 C 0 km/h
2781 11-12-2019 15:40:00 4.2 C 6.19 g/m*3 4.2 C 0 km/h
2782 11-12-2019 15:45:00 4.2 C 6.19 g/m*3 4.2 C 0 km/h
2783 11-12-2019 15:50:00 4.2 C 6.19 g/m*3 4.2 C 0 km/h
2784 11-12-2019 15:55:00 4.2 C 6.19 g/m*3 4.2 C 0 km/h
2785 11-12-2019 16:00:00 4.2 C 6.19 g/m*3 4.2 C 0 km/h
2786 11-12-2019 16:05:00 4.2 C 6.19 g/m*3 4.2 C 0 km/h
2787 11-12-2019 16:10:00 4.2 C 6.19 g/m*3 4.2 C 0 km/h
2788 11-12-2019 16:15:00 4.1 C 6.14 g/m*3 4.1 C 0 km/h
2789 11-12-2019 16:20:00 4.1 C 6.14 g/m*3 4.1 C 0 km/h
2790 11-12-2019 16:25:00 4.1 C 6.14 g/m*3 4.1 C 0 km/h
2791 11-12-2019 16:30:00 4.1 C 6.14 g/m*3 4.1 C 0 km/h
2792 11-12-2019 16:35:00 4.1 C 6.14 g/m*3 4.1 C 0 km/h
2793 11-12-2019 16:40:00 4.1 C 6.14 g/m*3 4.1 C 0 km/h
2794 11-12-2019 16:45:00 4.1 C 6.21 g/m*3 4.1 C 0 km/h
2795 11-12-2019 16:50:00 4.1 C 6.14 g/m*3 4.1 C 0 km/h
2796 11-12-2019 16:55:00 4 C 6.1 g/m*3 4 C 0 km/h
2797 11-12-2019 17:00:00 4 C 6.1 g/m*3 4 C 0 km/h
2798 11-12-2019 17:05:00 4 C 6.1 g/m*3 4 C 1.6 km/h
2799 11-12-2019 17:10:00 3.9 C 6.06 g/m*3 3.9 C 1.6 km/h
2800 11-12-2019 17:15:00 3.9 C 6.06 g/m*3 3.9 C 0 km/h
Sensor: Nr:Datum:Temp:Abs-Feuchte:Windchill:Wind:
Aussen-T/F 2801 11-12-2019 17:20:00 3.9 C 6.06 g/m*3 3.9 C 0 km/h
2802 11-12-2019 17:25:00 3.9 C 6.06 g/m*3 3.9 C 0 km/h
2803 11-12-2019 17:30:00 3.9 C 6.06 g/m*3 3.9 C 0 km/h
2804 11-12-2019 17:35:00 3.9 C 6.06 g/m*3 3.9 C 0 km/h
2805 11-12-2019 17:40:00 3.9 C 6.06 g/m*3 3.9 C 0 km/h
2806 11-12-2019 17:45:00 3.9 C 6.06 g/m*3 3.9 C 0 km/h
2807 11-12-2019 17:50:00 3.9 C 6.06 g/m*3 3.9 C 0 km/h
2808 11-12-2019 17:55:00 3.9 C 6.06 g/m*3 3.9 C 0 km/h
2809 11-12-2019 18:00:00 4 C 6.1 g/m*3 4 C 0 km/h
2810 11-12-2019 18:05:00 4 C 6.17 g/m*3 4 C 0 km/h
2811 11-12-2019 18:10:00 4 C 6.17 g/m*3 4 C 0 km/h
2812 11-12-2019 18:15:00 4.1 C 6.21 g/m*3 4.1 C 0 km/h
2813 11-12-2019 18:20:00 4.1 C 6.21 g/m*3 4.1 C 0 km/h
2814 11-12-2019 18:25:00 4.1 C 6.21 g/m*3 4.1 C 0 km/h
2815 11-12-2019 18:30:00 4.2 C 6.25 g/m*3 4.2 C 0 km/h
2816 11-12-2019 18:35:00 4.2 C 6.25 g/m*3 4.2 C 0 km/h
2817 11-12-2019 18:40:00 4.2 C 6.25 g/m*3 4.2 C 0 km/h
2818 11-12-2019 18:45:00 4.2 C 6.25 g/m*3 4.2 C 0 km/h
2819 11-12-2019 18:50:00 4.2 C 6.25 g/m*3 4.2 C 0 km/h
2820 11-12-2019 18:55:00 4.3 C 6.29 g/m*3 4.3 C 0 km/h
2821 11-12-2019 19:00:00 4.3 C 6.29 g/m*3 4.3 C 0 km/h
2822 11-12-2019 19:05:00 4.3 C 6.29 g/m*3 4.3 C 0 km/h
2823 11-12-2019 19:10:00 4.3 C 6.29 g/m*3 4.3 C 0 km/h
2824 11-12-2019 19:15:00 4.3 C 6.29 g/m*3 4.3 C 0 km/h
2825 11-12-2019 19:20:00 4.3 C 6.29 g/m*3 4.3 C 0 km/h
Sensor: Nr:Datum:Temp:Abs-Feuchte:Windchill:Wind:
Aussen-T/F 2826 11-12-2019 19:25:00 4.3 C 6.29 g/m*3 4.3 C 0 km/h
2827 11-12-2019 19:30:00 4.4 C 6.33 g/m*3 4.4 C 0 km/h
2828 11-12-2019 19:35:00 4.4 C 6.33 g/m*3 4.4 C 0 km/h
2829 11-12-2019 19:40:00 4.4 C 6.33 g/m*3 4.4 C 0 km/h
2830 11-12-2019 19:45:00 4.4 C 6.33 g/m*3 4.4 C 0 km/h
2831 11-12-2019 19:50:00 4.4 C 6.33 g/m*3 4.4 C 0 km/h
2832 11-12-2019 19:55:00 4.4 C 6.33 g/m*3 4.4 C 0 km/h
2833 11-12-2019 20:00:00 4.5 C 6.38 g/m*3 4.5 C 0 km/h
2834 11-12-2019 20:05:00 4.5 C 6.38 g/m*3 4.5 C 0 km/h
2835 11-12-2019 20:10:00 4.5 C 6.38 g/m*3 4.5 C 1.6 km/h
2836 11-12-2019 20:15:00 4.6 C 6.42 g/m*3 4.6 C 1.6 km/h
2837 11-12-2019 20:20:00 4.6 C 6.42 g/m*3 4.6 C 0 km/h
2838 11-12-2019 20:25:00 4.6 C 6.42 g/m*3 4.6 C 1.6 km/h
2839 11-12-2019 20:30:00 4.6 C 6.42 g/m*3 4.6 C 0 km/h
2840 11-12-2019 20:35:00 4.6 C 6.42 g/m*3 4.6 C 1.6 km/h
2841 11-12-2019 20:40:00 4.7 C 6.46 g/m*3 4.7 C 1.6 km/h
2842 11-12-2019 20:45:00 4.7 C 6.46 g/m*3 4.7 C 1.6 km/h
2843 11-12-2019 20:50:00 4.7 C 6.46 g/m*3 2.76 C 8.1 km/h
2844 11-12-2019 20:55:00 4.7 C 6.46 g/m*3 2.76 C 8.1 km/h
2845 11-12-2019 21:00:00 4.8 C 6.5 g/m*3 3.36 C 6.4 km/h
2846 11-12-2019 21:05:00 4.8 C 6.5 g/m*3 3.36 C 6.4 km/h
2847 11-12-2019 21:10:00 4.8 C 6.5 g/m*3 2.49 C 9.7 km/h
2848 11-12-2019 21:15:00 4.8 C 6.5 g/m*3 2.87 C 8.1 km/h
2849 11-12-2019 21:20:00 4.8 C 6.5 g/m*3 2.49 C 9.7 km/h
2850 11-12-2019 21:25:00 4.8 C 6.5 g/m*3 2.15 C 11.3 km/h
Sensor: Nr:Datum:Temp:Abs-Feuchte:Windchill:Wind:
Aussen-T/F 2851 11-12-2019 21:30:00 4.8 C 6.5 g/m*3 2.87 C 8.1 km/h
2852 11-12-2019 21:35:00 4.7 C 6.46 g/m*3 2.76 C 8.1 km/h
2853 11-12-2019 21:40:00 4.7 C 6.46 g/m*3 1.73 C 12.9 km/h
2854 11-12-2019 21:45:00 4.7 C 6.46 g/m*3 1.73 C 12.9 km/h
2855 11-12-2019 21:50:00 4.7 C 6.46 g/m*3 2.03 C 11.3 km/h
2856 11-12-2019 21:55:00 4.7 C 6.46 g/m*3 1.73 C 12.9 km/h
2857 11-12-2019 22:00:00 4.7 C 6.46 g/m*3 3.25 C 6.4 km/h
2858 11-12-2019 22:05:00 4.7 C 6.46 g/m*3 2.03 C 11.3 km/h
2859 11-12-2019 22:10:00 4.7 C 6.46 g/m*3 2.76 C 8.1 km/h
2860 11-12-2019 22:15:00 4.7 C 6.46 g/m*3 2.37 C 9.7 km/h
2861 11-12-2019 22:20:00 4.6 C 6.35 g/m*3 1.91 C 11.3 km/h
2862 11-12-2019 22:25:00 4.6 C 6.35 g/m*3 3.13 C 6.4 km/h
2863 11-12-2019 22:30:00 4.5 C 6.31 g/m*3 2.52 C 8.1 km/h
2864 11-12-2019 22:35:00 4.4 C 6.27 g/m*3 2.9 C 6.4 km/h
2865 11-12-2019 22:40:00 4.4 C 6.33 g/m*3 2.01 C 9.7 km/h
2866 11-12-2019 22:45:00 4.4 C 6.33 g/m*3 4.4 C 4.8 km/h
2867 11-12-2019 22:50:00 4.3 C 6.23 g/m*3 4.3 C 4.8 km/h
2868 11-12-2019 22:55:00 4.3 C 6.23 g/m*3 4.3 C 4.8 km/h
2869 11-12-2019 23:00:00 4.3 C 6.23 g/m*3 4.3 C 4.8 km/h
2870 11-12-2019 23:05:00 4.4 C 6.27 g/m*3 4.4 C 0 km/h
2871 11-12-2019 23:10:00 4.4 C 6.33 g/m*3 4.4 C 4.8 km/h
2872 11-12-2019 23:15:00 4.4 C 6.33 g/m*3 4.4 C 3.2 km/h
2873 11-12-2019 23:20:00 4.3 C 6.23 g/m*3 4.3 C 4.8 km/h
2874 11-12-2019 23:25:00 4.2 C 6.19 g/m*3 4.2 C 3.2 km/h
2875 11-12-2019 23:30:00 4.2 C 6.19 g/m*3 4.2 C 0 km/h
Sensor: Nr:Datum:Temp:Abs-Feuchte:Windchill:Wind:
Aussen-T/F 2876 11-12-2019 23:35:00 4.1 C 6.14 g/m*3 4.1 C 3.2 km/h
2877 11-12-2019 23:40:00 4.1 C 6.14 g/m*3 4.1 C 3.2 km/h
2878 11-12-2019 23:45:00 4.1 C 6.21 g/m*3 4.1 C 3.2 km/h
2879 11-12-2019 23:50:00 4.1 C 6.14 g/m*3 4.1 C 1.6 km/h
2880 11-12-2019 23:55:00 4.1 C 6.14 g/m*3 4.1 C 3.2 km/h
2881 12-12-2019 00:00:00 4.1 C 6.21 g/m*3 4.1 C 0 km/h
2882 12-12-2019 00:05:00 4 C 6.1 g/m*3 4 C 1.6 km/h
2883 12-12-2019 00:10:00 3.9 C 6.06 g/m*3 3.9 C 1.6 km/h
2884 12-12-2019 00:15:00 3.9 C 6.06 g/m*3 3.9 C 0 km/h
2885 12-12-2019 00:20:00 3.8 C 6.09 g/m*3 3.8 C 3.2 km/h
2886 12-12-2019 00:25:00 3.8 C 6.09 g/m*3 3.8 C 3.2 km/h
2887 12-12-2019 00:30:00 3.7 C 6.04 g/m*3 3.7 C 0 km/h
2888 12-12-2019 00:35:00 3.6 C 5.94 g/m*3 3.6 C 0 km/h
2889 12-12-2019 00:40:00 3.4 C 5.86 g/m*3 3.4 C 0 km/h
2890 12-12-2019 00:45:00 3.4 C 5.86 g/m*3 3.4 C 0 km/h
2891 12-12-2019 00:50:00 3.4 C 5.92 g/m*3 3.4 C 0 km/h
2892 12-12-2019 00:55:00 3.3 C 5.82 g/m*3 3.3 C 0 km/h
2893 12-12-2019 01:00:00 3.3 C 5.82 g/m*3 3.3 C 3.2 km/h
2894 12-12-2019 01:05:00 3.3 C 5.82 g/m*3 3.3 C 4.8 km/h
2895 12-12-2019 01:10:00 3.3 C 5.88 g/m*3 3.3 C 4.8 km/h
2896 12-12-2019 01:15:00 3.4 C 5.92 g/m*3 3.4 C 1.6 km/h
2897 12-12-2019 01:20:00 3.5 C 5.96 g/m*3 3.5 C 0 km/h
2898 12-12-2019 01:25:00 3.5 C 5.96 g/m*3 3.5 C 0 km/h
2899 12-12-2019 01:30:00 3.4 C 5.92 g/m*3 3.4 C 0 km/h
2900 12-12-2019 01:35:00 3.4 C 5.92 g/m*3 3.4 C 3.2 km/h
Sensor: Nr:Datum:Temp:Abs-Feuchte:Windchill:Wind:
Aussen-T/F 2901 12-12-2019 01:40:00 3.4 C 5.92 g/m*3 3.4 C 3.2 km/h
2902 12-12-2019 01:45:00 3.4 C 5.92 g/m*3 3.4 C 0 km/h
2903 12-12-2019 01:50:00 3.3 C 5.88 g/m*3 3.3 C 0 km/h
2904 12-12-2019 01:55:00 3.2 C 5.85 g/m*3 3.2 C 0 km/h
2905 12-12-2019 02:00:00 3.1 C 5.81 g/m*3 3.1 C 0 km/h
2906 12-12-2019 02:05:00 3.1 C 5.81 g/m*3 3.1 C 0 km/h
2907 12-12-2019 02:10:00 2.9 C 5.73 g/m*3 2.9 C 0 km/h
2908 12-12-2019 02:15:00 2.8 C 5.69 g/m*3 2.8 C 0 km/h
2909 12-12-2019 02:20:00 2.7 C 5.65 g/m*3 2.7 C 0 km/h
2910 12-12-2019 02:25:00 2.7 C 5.59 g/m*3 2.7 C 0 km/h
2911 12-12-2019 02:30:00 2.7 C 5.65 g/m*3 2.7 C 0 km/h
2912 12-12-2019 02:35:00 2.7 C 5.65 g/m*3 2.7 C 0 km/h
2913 12-12-2019 02:40:00 2.7 C 5.65 g/m*3 2.7 C 0 km/h
2914 12-12-2019 02:45:00 2.8 C 5.69 g/m*3 2.8 C 0 km/h
2915 12-12-2019 02:50:00 2.9 C 5.73 g/m*3 2.9 C 0 km/h
2916 12-12-2019 02:55:00 2.9 C 5.73 g/m*3 2.9 C 0 km/h
2917 12-12-2019 03:00:00 3 C 5.77 g/m*3 3 C 0 km/h
2918 12-12-2019 03:05:00 3.1 C 5.81 g/m*3 3.1 C 0 km/h
2919 12-12-2019 03:10:00 3.1 C 5.81 g/m*3 3.1 C 1.6 km/h
2920 12-12-2019 03:15:00 3.2 C 5.85 g/m*3 3.2 C 0 km/h
2921 12-12-2019 03:20:00 3.3 C 5.88 g/m*3 3.3 C 1.6 km/h
2922 12-12-2019 03:25:00 3.4 C 5.92 g/m*3 3.4 C 3.2 km/h
2923 12-12-2019 03:30:00 3.4 C 5.92 g/m*3 3.4 C 3.2 km/h
2924 12-12-2019 03:35:00 3.4 C 5.92 g/m*3 3.4 C 0 km/h
2925 12-12-2019 03:40:00 3.4 C 5.92 g/m*3 3.4 C 0 km/h
Sensor: Nr:Datum:Temp:Abs-Feuchte:Windchill:Wind:
Aussen-T/F 2926 12-12-2019 03:45:00 3.4 C 5.92 g/m*3 3.4 C 0 km/h
2927 12-12-2019 03:50:00 3.4 C 5.92 g/m*3 3.4 C 0 km/h
2928 12-12-2019 03:55:00 3.4 C 5.92 g/m*3 3.4 C 0 km/h
2929 12-12-2019 04:00:00 3.5 C 5.96 g/m*3 3.5 C 0 km/h
2930 12-12-2019 04:05:00 3.6 C 6 g/m*3 3.6 C 0 km/h
2931 12-12-2019 04:10:00 3.6 C 6 g/m*3 3.6 C 0 km/h
2932 12-12-2019 04:15:00 3.7 C 6.04 g/m*3 3.7 C 0 km/h
2933 12-12-2019 04:20:00 3.7 C 6.04 g/m*3 3.7 C 0 km/h
2934 12-12-2019 04:25:00 3.7 C 6.04 g/m*3 3.7 C 0 km/h
2935 12-12-2019 04:30:00 3.7 C 6.04 g/m*3 3.7 C 0 km/h
2936 12-12-2019 04:35:00 3.7 C 6.04 g/m*3 3.7 C 0 km/h
2937 12-12-2019 04:40:00 3.8 C 6.09 g/m*3 3.8 C 0 km/h
2938 12-12-2019 04:45:00 3.8 C 6.09 g/m*3 3.8 C 0 km/h
2939 12-12-2019 04:50:00 3.8 C 6.09 g/m*3 3.8 C 0 km/h
2940 12-12-2019 04:55:00 3.7 C 6.04 g/m*3 3.7 C 0 km/h
2941 12-12-2019 05:00:00 3.4 C 5.92 g/m*3 3.4 C 0 km/h
2942 12-12-2019 05:05:00 3.3 C 5.88 g/m*3 3.3 C 0 km/h
2943 12-12-2019 05:10:00 3.2 C 5.85 g/m*3 3.2 C 0 km/h
2944 12-12-2019 05:15:00 3.2 C 5.85 g/m*3 3.2 C 0 km/h
2945 12-12-2019 05:20:00 3.2 C 5.85 g/m*3 3.2 C 0 km/h
2946 12-12-2019 05:25:00 3.2 C 5.85 g/m*3 3.2 C 0 km/h
2947 12-12-2019 05:30:00 3.1 C 5.81 g/m*3 3.1 C 0 km/h
2948 12-12-2019 05:35:00 3.1 C 5.81 g/m*3 3.1 C 0 km/h
2949 12-12-2019 05:40:00 3.2 C 5.85 g/m*3 3.2 C 0 km/h
2950 12-12-2019 05:45:00 3.1 C 5.81 g/m*3 3.1 C 0 km/h
Sensor: Nr:Datum:Temp:Abs-Feuchte:Windchill:Wind:
Aussen-T/F 2951 12-12-2019 05:50:00 3.1 C 5.81 g/m*3 3.1 C 0 km/h
2952 12-12-2019 05:55:00 3 C 5.77 g/m*3 3 C 0 km/h
2953 12-12-2019 06:00:00 2.9 C 5.73 g/m*3 2.9 C 0 km/h
2954 12-12-2019 06:05:00 2.9 C 5.73 g/m*3 2.9 C 0 km/h
2955 12-12-2019 06:10:00 3 C 5.77 g/m*3 3 C 0 km/h
2956 12-12-2019 06:15:00 2.9 C 5.73 g/m*3 2.9 C 0 km/h
2957 12-12-2019 06:20:00 2.9 C 5.73 g/m*3 2.9 C 1.6 km/h
2958 12-12-2019 06:25:00 2.9 C 5.73 g/m*3 2.9 C 1.6 km/h
2959 12-12-2019 06:30:00 2.8 C 5.69 g/m*3 2.8 C 0 km/h
2960 12-12-2019 06:35:00 2.8 C 5.69 g/m*3 2.8 C 0 km/h
2961 12-12-2019 06:40:00 2.9 C 5.73 g/m*3 2.9 C 0 km/h
2962 12-12-2019 06:45:00 3 C 5.77 g/m*3 3 C 0 km/h
2963 12-12-2019 06:50:00 3.1 C 5.81 g/m*3 3.1 C 1.6 km/h
2964 12-12-2019 06:55:00 3.3 C 5.88 g/m*3 3.3 C 1.6 km/h
2965 12-12-2019 07:00:00 3.4 C 5.99 g/m*3 3.4 C 0 km/h
2966 12-12-2019 07:05:00 3.6 C 6 g/m*3 3.6 C 0 km/h
2967 12-12-2019 07:10:00 3.7 C 6.04 g/m*3 3.7 C 0 km/h
2968 12-12-2019 07:15:00 3.8 C 6.15 g/m*3 3.8 C 0 km/h
2969 12-12-2019 07:20:00 3.8 C 6.15 g/m*3 3.8 C 0 km/h
2970 12-12-2019 07:25:00 3.8 C 6.15 g/m*3 3.8 C 0 km/h
2971 12-12-2019 07:30:00 3.9 C 6.19 g/m*3 3.9 C 0 km/h
2972 12-12-2019 07:35:00 3.8 C 6.15 g/m*3 3.8 C 0 km/h
2973 12-12-2019 07:40:00 3.8 C 6.15 g/m*3 3.8 C 0 km/h
2974 12-12-2019 07:45:00 3.8 C 6.09 g/m*3 3.8 C 0 km/h
2975 12-12-2019 07:50:00 3.8 C 6.09 g/m*3 3.8 C 0 km/h
Sensor: Nr:Datum:Temp:Abs-Feuchte:Windchill:Wind:
Aussen-T/F 2976 12-12-2019 07:55:00 3.8 C 6.09 g/m*3 3.8 C 0 km/h
2977 12-12-2019 08:00:00 3.8 C 6.09 g/m*3 3.8 C 0 km/h
2978 12-12-2019 08:05:00 3.8 C 6.09 g/m*3 3.8 C 0 km/h
2979 12-12-2019 08:10:00 3.9 C 6.13 g/m*3 3.9 C 0 km/h
2980 12-12-2019 08:15:00 3.9 C 6.13 g/m*3 3.9 C 0 km/h
2981 12-12-2019 08:20:00 3.9 C 6.13 g/m*3 3.9 C 0 km/h
2982 12-12-2019 08:25:00 4 C 6.23 g/m*3 4 C 0 km/h
2983 12-12-2019 08:30:00 4.1 C 6.21 g/m*3 4.1 C 0 km/h
2984 12-12-2019 08:35:00 4.1 C 6.27 g/m*3 4.1 C 0 km/h
2985 12-12-2019 08:40:00 4.2 C 6.31 g/m*3 4.2 C 0 km/h
2986 12-12-2019 08:45:00 4.2 C 6.31 g/m*3 4.2 C 0 km/h
2987 12-12-2019 08:50:00 4.2 C 6.31 g/m*3 4.2 C 0 km/h
2988 12-12-2019 08:55:00 4.2 C 6.31 g/m*3 4.2 C 0 km/h
2989 12-12-2019 09:00:00 4.3 C 6.36 g/m*3 4.3 C 0 km/h
2990 12-12-2019 09:05:00 4.3 C 6.36 g/m*3 4.3 C 0 km/h
2991 12-12-2019 09:10:00 4.3 C 6.36 g/m*3 4.3 C 0 km/h
2992 12-12-2019 09:15:00 4.4 C 6.4 g/m*3 4.4 C 0 km/h
2993 12-12-2019 09:20:00 4.4 C 6.4 g/m*3 4.4 C 0 km/h
2994 12-12-2019 09:25:00 4.6 C 6.48 g/m*3 4.6 C 3.2 km/h
2995 12-12-2019 09:30:00 4.6 C 6.48 g/m*3 4.6 C 3.2 km/h
2996 12-12-2019 09:35:00 4.7 C 6.53 g/m*3 4.7 C 1.6 km/h
2997 12-12-2019 09:40:00 4.7 C 6.53 g/m*3 4.7 C 0 km/h
2998 12-12-2019 09:45:00 4.7 C 6.53 g/m*3 4.7 C 0 km/h
2999 12-12-2019 09:50:00 4.7 C 6.53 g/m*3 4.7 C 0 km/h
3000 12-12-2019 09:55:00 4.6 C 6.48 g/m*3 4.6 C 1.6 km/h
Sensor: Nr:Datum:Temp:Abs-Feuchte:Windchill:Wind:
Aussen-T/F 3001 12-12-2019 10:00:00 4.6 C 6.48 g/m*3 4.6 C 3.2 km/h
3002 12-12-2019 10:05:00 4.7 C 6.53 g/m*3 4.7 C 4.8 km/h
3003 12-12-2019 10:10:00 4.7 C 6.53 g/m*3 4.7 C 4.8 km/h
3004 12-12-2019 10:15:00 4.7 C 6.53 g/m*3 4.7 C 4.8 km/h
3005 12-12-2019 10:20:00 4.8 C 6.57 g/m*3 2.49 C 9.7 km/h
3006 12-12-2019 10:25:00 4.8 C 6.57 g/m*3 4.8 C 3.2 km/h
3007 12-12-2019 10:30:00 4.9 C 6.62 g/m*3 2.99 C 8.1 km/h
3008 12-12-2019 10:35:00 4.9 C 6.62 g/m*3 4.9 C 4.8 km/h
3009 12-12-2019 10:40:00 4.9 C 6.62 g/m*3 4.9 C 4.8 km/h
3010 12-12-2019 10:45:00 4.9 C 6.55 g/m*3 3.48 C 6.4 km/h
3011 12-12-2019 10:50:00 4.9 C 6.55 g/m*3 4.9 C 4.8 km/h
3012 12-12-2019 10:55:00 4.9 C 6.62 g/m*3 2.99 C 8.1 km/h
3013 12-12-2019 11:00:00 4.9 C 6.55 g/m*3 2.61 C 9.7 km/h
3014 12-12-2019 11:05:00 4.9 C 6.55 g/m*3 2.99 C 8.1 km/h
3015 12-12-2019 11:10:00 4.8 C 6.5 g/m*3 3.36 C 6.4 km/h
3016 12-12-2019 11:15:00 4.8 C 6.5 g/m*3 3.36 C 6.4 km/h
3017 12-12-2019 11:20:00 4.8 C 6.5 g/m*3 2.87 C 8.1 km/h
3018 12-12-2019 11:25:00 4.8 C 6.5 g/m*3 4.8 C 4.8 km/h
3019 12-12-2019 11:30:00 4.8 C 6.44 g/m*3 2.49 C 9.7 km/h
3020 12-12-2019 11:35:00 4.9 C 6.48 g/m*3 3.48 C 6.4 km/h
3021 12-12-2019 11:40:00 4.9 C 6.48 g/m*3 3.48 C 6.4 km/h
3022 12-12-2019 11:45:00 5 C 6.52 g/m*3 5 C 1.6 km/h
3023 12-12-2019 11:50:00 5.1 C 6.57 g/m*3 3.71 C 6.4 km/h
3024 12-12-2019 11:55:00 5.1 C 6.5 g/m*3 5.1 C 3.2 km/h
3025 12-12-2019 12:00:00 5.1 C 6.5 g/m*3 5.1 C 3.2 km/h
Sensor: Nr:Datum:Temp:Abs-Feuchte:Windchill:Wind:
Aussen-T/F 3026 12-12-2019 12:05:00 5.2 C 6.54 g/m*3 3.34 C 8.1 km/h
3027 12-12-2019 12:10:00 5.1 C 6.43 g/m*3 3.71 C 6.4 km/h
3028 12-12-2019 12:15:00 5.2 C 6.4 g/m*3 3.82 C 6.4 km/h
3029 12-12-2019 12:20:00 5.3 C 6.38 g/m*3 3.08 C 9.7 km/h
3030 12-12-2019 12:25:00 5.3 C 6.31 g/m*3 5.3 C 4.8 km/h
3031 12-12-2019 12:30:00 5.2 C 6.27 g/m*3 3.82 C 6.4 km/h
3032 12-12-2019 12:35:00 5.2 C 6.27 g/m*3 5.2 C 4.8 km/h
3033 12-12-2019 12:40:00 5.2 C 6.27 g/m*3 1.83 C 16.1 km/h
3034 12-12-2019 12:45:00 5.2 C 6.27 g/m*3 2.96 C 9.7 km/h
3035 12-12-2019 12:50:00 5.2 C 6.27 g/m*3 2.63 C 11.3 km/h
3036 12-12-2019 12:55:00 5.2 C 6.27 g/m*3 2.96 C 9.7 km/h
3037 12-12-2019 13:00:00 5.3 C 6.24 g/m*3 2.46 C 12.9 km/h
3038 12-12-2019 13:05:00 5.3 C 6.24 g/m*3 2.75 C 11.3 km/h
3039 12-12-2019 13:10:00 5.3 C 6.24 g/m*3 3.08 C 9.7 km/h
3040 12-12-2019 13:15:00 5.3 C 6.24 g/m*3 3.94 C 6.4 km/h
3041 12-12-2019 13:20:00 5.2 C 6.13 g/m*3 2.63 C 11.3 km/h
3042 12-12-2019 13:25:00 5.2 C 6.13 g/m*3 3.34 C 8.1 km/h
3043 12-12-2019 13:30:00 5.2 C 6.06 g/m*3 2.96 C 9.7 km/h
3044 12-12-2019 13:35:00 5.2 C 5.99 g/m*3 3.82 C 6.4 km/h
3045 12-12-2019 13:40:00 5.1 C 5.95 g/m*3 5.1 C 0 km/h
3046 12-12-2019 13:45:00 4.9 C 5.87 g/m*3 4.9 C 3.2 km/h
3047 12-12-2019 13:50:00 4.8 C 5.77 g/m*3 2.15 C 11.3 km/h
3048 12-12-2019 13:55:00 4.9 C 5.74 g/m*3 2.61 C 9.7 km/h
3049 12-12-2019 14:00:00 5.1 C 5.81 g/m*3 3.71 C 6.4 km/h
3050 12-12-2019 14:05:00 5.1 C 5.88 g/m*3 2.84 C 9.7 km/h
Sensor: Nr:Datum:Temp:Abs-Feuchte:Windchill:Wind:
Aussen-T/F 3051 12-12-2019 14:10:00 5.1 C 5.75 g/m*3 3.23 C 8.1 km/h
3052 12-12-2019 14:15:00 5.1 C 5.75 g/m*3 2.84 C 9.7 km/h
3053 12-12-2019 14:20:00 5.1 C 5.88 g/m*3 5.1 C 0 km/h
3054 12-12-2019 14:25:00 5.1 C 5.88 g/m*3 5.1 C 1.6 km/h
3055 12-12-2019 14:30:00 5 C 5.84 g/m*3 3.59 C 6.4 km/h
3056 12-12-2019 14:35:00 5.1 C 5.88 g/m*3 3.23 C 8.1 km/h
3057 12-12-2019 14:40:00 5.2 C 5.92 g/m*3 5.2 C 0 km/h
3058 12-12-2019 14:45:00 5.2 C 5.85 g/m*3 5.2 C 3.2 km/h
3059 12-12-2019 14:50:00 5.3 C 6.03 g/m*3 5.3 C 4.8 km/h
3060 12-12-2019 14:55:00 5.3 C 5.96 g/m*3 2.75 C 11.3 km/h
3061 12-12-2019 15:00:00 5.3 C 6.03 g/m*3 1.74 C 17.7 km/h
3062 12-12-2019 15:05:00 5.2 C 5.99 g/m*3 3.82 C 6.4 km/h
3063 12-12-2019 15:10:00 5.2 C 5.99 g/m*3 2.63 C 11.3 km/h
3064 12-12-2019 15:15:00 5.1 C 5.95 g/m*3 2.22 C 12.9 km/h
3065 12-12-2019 15:20:00 4.9 C 5.87 g/m*3 2.99 C 8.1 km/h
3066 12-12-2019 15:25:00 4.8 C 5.83 g/m*3 4.8 C 4.8 km/h
3067 12-12-2019 15:30:00 4.7 C 5.8 g/m*3 4.7 C 3.2 km/h
3068 12-12-2019 15:35:00 4.6 C 5.76 g/m*3 3.13 C 6.4 km/h
3069 12-12-2019 15:40:00 4.6 C 5.76 g/m*3 4.6 C 1.6 km/h
3070 12-12-2019 15:45:00 4.7 C 5.8 g/m*3 4.7 C 4.8 km/h
3071 12-12-2019 15:50:00 4.7 C 5.8 g/m*3 3.25 C 6.4 km/h
3072 12-12-2019 15:55:00 4.7 C 5.8 g/m*3 2.76 C 8.1 km/h
3073 12-12-2019 16:00:00 4.6 C 5.76 g/m*3 4.6 C 4.8 km/h
3074 12-12-2019 16:05:00 4.6 C 5.76 g/m*3 4.6 C 0 km/h
3075 12-12-2019 16:10:00 4.5 C 5.65 g/m*3 4.5 C 1.6 km/h
Sensor: Nr:Datum:Temp:Abs-Feuchte:Windchill:Wind:
Aussen-T/F 3076 12-12-2019 16:15:00 4.5 C 5.72 g/m*3 4.5 C 1.6 km/h
3077 12-12-2019 16:20:00 4.4 C 5.68 g/m*3 4.4 C 3.2 km/h
3078 12-12-2019 16:25:00 4.4 C 5.62 g/m*3 4.4 C 3.2 km/h
3079 12-12-2019 16:30:00 4.3 C 5.64 g/m*3 4.3 C 1.6 km/h
3080 12-12-2019 16:35:00 4.3 C 5.58 g/m*3 4.3 C 3.2 km/h
3081 12-12-2019 16:40:00 4.3 C 5.58 g/m*3 4.3 C 1.6 km/h
3082 12-12-2019 16:45:00 4.3 C 5.64 g/m*3 4.3 C 0 km/h
3083 12-12-2019 16:50:00 4.2 C 5.61 g/m*3 4.2 C 1.6 km/h
3084 12-12-2019 16:55:00 4.2 C 5.67 g/m*3 4.2 C 0 km/h
3085 12-12-2019 17:00:00 4.1 C 5.63 g/m*3 4.1 C 0 km/h
3086 12-12-2019 17:05:00 3.9 C 5.56 g/m*3 3.9 C 0 km/h
3087 12-12-2019 17:10:00 3.7 C 5.48 g/m*3 3.7 C 0 km/h
3088 12-12-2019 17:15:00 3.3 C 5.34 g/m*3 3.3 C 1.6 km/h
3089 12-12-2019 17:20:00 3 C 5.23 g/m*3 3 C 0 km/h
3090 12-12-2019 17:25:00 2.8 C 5.22 g/m*3 2.8 C 3.2 km/h
3091 12-12-2019 17:30:00 2.6 C 5.21 g/m*3 2.6 C 0 km/h
3092 12-12-2019 17:35:00 2.4 C 5.14 g/m*3 2.4 C 1.6 km/h
3093 12-12-2019 17:40:00 2.3 C 5.16 g/m*3 2.3 C 1.6 km/h
3094 12-12-2019 17:45:00 2.2 C 5.13 g/m*3 2.2 C 1.6 km/h
3095 12-12-2019 17:50:00 2.1 C 5.15 g/m*3 2.1 C 1.6 km/h
3096 12-12-2019 17:55:00 2.1 C 5.15 g/m*3 2.1 C 1.6 km/h
3097 12-12-2019 18:00:00 2 C 5.11 g/m*3 2 C 1.6 km/h
3098 12-12-2019 18:05:00 2 C 5.17 g/m*3 2 C 0 km/h
3099 12-12-2019 18:10:00 2 C 5.17 g/m*3 2 C 3.2 km/h
3100 12-12-2019 18:15:00 2 C 5.17 g/m*3 2 C 1.6 km/h
Sensor: Nr:Datum:Temp:Abs-Feuchte:Windchill:Wind:
Aussen-T/F 3101 12-12-2019 18:20:00 2.1 C 5.26 g/m*3 2.1 C 0 km/h
3102 12-12-2019 18:25:00 2.1 C 5.26 g/m*3 2.1 C 3.2 km/h
3103 12-12-2019 18:30:00 2.1 C 5.26 g/m*3 2.1 C 0 km/h
3104 12-12-2019 18:35:00 2.1 C 5.26 g/m*3 2.1 C 1.6 km/h
3105 12-12-2019 18:40:00 2 C 5.22 g/m*3 2 C 3.2 km/h
3106 12-12-2019 18:45:00 1.9 C 5.19 g/m*3 1.9 C 1.6 km/h
3107 12-12-2019 18:50:00 1.9 C 5.19 g/m*3 1.9 C 1.6 km/h
3108 12-12-2019 18:55:00 1.9 C 5.19 g/m*3 1.9 C 0 km/h
3109 12-12-2019 19:00:00 1.8 C 5.15 g/m*3 1.8 C 0 km/h
3110 12-12-2019 19:05:00 1.8 C 5.15 g/m*3 1.8 C 0 km/h
3111 12-12-2019 19:10:00 1.8 C 5.15 g/m*3 1.8 C 0 km/h
3112 12-12-2019 19:15:00 1.7 C 5.12 g/m*3 1.7 C 3.2 km/h
3113 12-12-2019 19:20:00 1.6 C 5.08 g/m*3 1.6 C 0 km/h
3114 12-12-2019 19:25:00 1.6 C 5.08 g/m*3 1.6 C 0 km/h
3115 12-12-2019 19:30:00 1.6 C 5.08 g/m*3 1.6 C 1.6 km/h
3116 12-12-2019 19:35:00 1.6 C 5.14 g/m*3 1.6 C 1.6 km/h
3117 12-12-2019 19:40:00 1.6 C 5.14 g/m*3 1.6 C 3.2 km/h
3118 12-12-2019 19:45:00 1.7 C 5.17 g/m*3 1.7 C 0 km/h
3119 12-12-2019 19:50:00 1.7 C 5.17 g/m*3 1.7 C 3.2 km/h
3120 12-12-2019 19:55:00 1.7 C 5.17 g/m*3 1.7 C 0 km/h
3121 12-12-2019 20:00:00 1.7 C 5.17 g/m*3 1.7 C 0 km/h
3122 12-12-2019 20:05:00 1.7 C 5.17 g/m*3 1.7 C 3.2 km/h
3123 12-12-2019 20:10:00 1.7 C 5.17 g/m*3 1.7 C 1.6 km/h
3124 12-12-2019 20:15:00 1.6 C 5.14 g/m*3 1.6 C 0 km/h
3125 12-12-2019 20:20:00 1.6 C 5.14 g/m*3 1.6 C 1.6 km/h
Sensor: Nr:Datum:Temp:Abs-Feuchte:Windchill:Wind:
Aussen-T/F 3126 12-12-2019 20:25:00 1.7 C 5.17 g/m*3 1.7 C 0 km/h
3127 12-12-2019 20:30:00 1.6 C 5.14 g/m*3 1.6 C 1.6 km/h
3128 12-12-2019 20:35:00 1.6 C 5.14 g/m*3 1.6 C 1.6 km/h
3129 12-12-2019 20:40:00 1.6 C 5.14 g/m*3 1.6 C 0 km/h
3130 12-12-2019 20:45:00 1.6 C 5.14 g/m*3 1.6 C 3.2 km/h
3131 12-12-2019 20:50:00 1.8 C 5.21 g/m*3 1.8 C 1.6 km/h
3132 12-12-2019 20:55:00 1.9 C 5.24 g/m*3 1.9 C 4.8 km/h
3133 12-12-2019 21:00:00 2.1 C 5.31 g/m*3 2.1 C 0 km/h
3134 12-12-2019 21:05:00 2.2 C 5.35 g/m*3 2.2 C 3.2 km/h
3135 12-12-2019 21:10:00 2.3 C 5.39 g/m*3 2.3 C 3.2 km/h
3136 12-12-2019 21:15:00 2.3 C 5.33 g/m*3 2.3 C 0 km/h
3137 12-12-2019 21:20:00 2.4 C 5.37 g/m*3 0.59 C 6.4 km/h
3138 12-12-2019 21:25:00 2.4 C 5.37 g/m*3 2.4 C 4.8 km/h
3139 12-12-2019 21:30:00 2.5 C 5.35 g/m*3 2.5 C 3.2 km/h
3140 12-12-2019 21:35:00 2.4 C 5.31 g/m*3 2.4 C 3.2 km/h
3141 12-12-2019 21:40:00 2.4 C 5.25 g/m*3 2.4 C 3.2 km/h
3142 12-12-2019 21:45:00 2.3 C 5.22 g/m*3 2.3 C 1.6 km/h
3143 12-12-2019 21:50:00 2.2 C 5.18 g/m*3 2.2 C 1.6 km/h
3144 12-12-2019 21:55:00 2.3 C 5.27 g/m*3 0.47 C 6.4 km/h
3145 12-12-2019 22:00:00 2.3 C 5.22 g/m*3 2.3 C 1.6 km/h
3146 12-12-2019 22:05:00 2.3 C 5.27 g/m*3 2.3 C 1.6 km/h
3147 12-12-2019 22:10:00 2.2 C 5.24 g/m*3 2.2 C 1.6 km/h
3148 12-12-2019 22:15:00 2.1 C 5.15 g/m*3 2.1 C 0 km/h
3149 12-12-2019 22:20:00 1.9 C 5.08 g/m*3 1.9 C 3.2 km/h
3150 12-12-2019 22:25:00 1.8 C 5.04 g/m*3 1.8 C 0 km/h
Sensor: Nr:Datum:Temp:Abs-Feuchte:Windchill:Wind:
Aussen-T/F 3151 12-12-2019 22:30:00 1.7 C 5.06 g/m*3 1.7 C 0 km/h
3152 12-12-2019 22:35:00 1.6 C 5.03 g/m*3 1.6 C 0 km/h
3153 12-12-2019 22:40:00 1.6 C 5.03 g/m*3 1.6 C 1.6 km/h
3154 12-12-2019 22:45:00 1.6 C 5.03 g/m*3 1.6 C 3.2 km/h
3155 12-12-2019 22:50:00 1.6 C 5.03 g/m*3 1.6 C 4.8 km/h
3156 12-12-2019 22:55:00 1.6 C 5.03 g/m*3 1.6 C 3.2 km/h
3157 12-12-2019 23:00:00 1.6 C 5.03 g/m*3 1.6 C 3.2 km/h
3158 12-12-2019 23:05:00 1.8 C 5.1 g/m*3 1.8 C 3.2 km/h
3159 12-12-2019 23:10:00 1.9 C 5.13 g/m*3 1.9 C 3.2 km/h
3160 12-12-2019 23:15:00 2.2 C 5.24 g/m*3 0.36 C 6.4 km/h
3161 12-12-2019 23:20:00 2.4 C 5.25 g/m*3 2.4 C 4.8 km/h
3162 12-12-2019 23:25:00 2.6 C 5.27 g/m*3 -0.83 C 12.9 km/h
3163 12-12-2019 23:30:00 2.7 C 5.3 g/m*3 2.7 C 1.6 km/h
3164 12-12-2019 23:35:00 2.7 C 5.24 g/m*3 2.7 C 3.2 km/h
3165 12-12-2019 23:40:00 2.7 C 5.24 g/m*3 -0.38 C 11.3 km/h
3166 12-12-2019 23:45:00 2.7 C 5.24 g/m*3 2.7 C 4.8 km/h
3167 12-12-2019 23:50:00 2.7 C 5.19 g/m*3 0.94 C 6.4 km/h
3168 12-12-2019 23:55:00 2.8 C 5.22 g/m*3 2.8 C 3.2 km/h
3169 13-12-2019 00:00:00 2.7 C 5.19 g/m*3 0.4 C 8.1 km/h
3170 13-12-2019 00:05:00 2.6 C 5.15 g/m*3 2.6 C 4.8 km/h
3171 13-12-2019 00:10:00 2.5 C 5.12 g/m*3 2.5 C 3.2 km/h
3172 13-12-2019 00:15:00 2.4 C 5.08 g/m*3 -0.37 C 9.7 km/h
3173 13-12-2019 00:20:00 2.4 C 5.14 g/m*3 -0.37 C 9.7 km/h
3174 13-12-2019 00:25:00 2.4 C 5.08 g/m*3 0.59 C 6.4 km/h
3175 13-12-2019 00:30:00 2.4 C 5.08 g/m*3 0.59 C 6.4 km/h
Sensor: Nr:Datum:Temp:Abs-Feuchte:Windchill:Wind:
Aussen-T/F 3176 13-12-2019 00:35:00 2.3 C 5.1 g/m*3 2.3 C 1.6 km/h
3177 13-12-2019 00:40:00 2.2 C 5.07 g/m*3 2.2 C 4.8 km/h
3178 13-12-2019 00:45:00 2.2 C 5.07 g/m*3 2.2 C 1.6 km/h
3179 13-12-2019 00:50:00 2.2 C 5.07 g/m*3 2.2 C 4.8 km/h
3180 13-12-2019 00:55:00 2.3 C 5.1 g/m*3 2.3 C 3.2 km/h
3181 13-12-2019 01:00:00 2.4 C 5.14 g/m*3 2.4 C 4.8 km/h
3182 13-12-2019 01:05:00 2.6 C 5.15 g/m*3 0.82 C 6.4 km/h
3183 13-12-2019 01:10:00 2.6 C 5.15 g/m*3 0.29 C 8.1 km/h
3184 13-12-2019 01:15:00 2.7 C 5.13 g/m*3 -0.02 C 9.7 km/h
3185 13-12-2019 01:20:00 2.8 C 5.1 g/m*3 -0.26 C 11.3 km/h
3186 13-12-2019 01:25:00 2.9 C 5.14 g/m*3 2.9 C 4.8 km/h
3187 13-12-2019 01:30:00 2.9 C 5.14 g/m*3 0.22 C 9.7 km/h
3188 13-12-2019 01:35:00 2.9 C 5.14 g/m*3 -1.02 C 16.1 km/h
3189 13-12-2019 01:40:00 2.9 C 5.08 g/m*3 -1.02 C 16.1 km/h
3190 13-12-2019 01:45:00 2.9 C 5.08 g/m*3 -0.46 C 12.9 km/h
3191 13-12-2019 01:50:00 2.9 C 5.14 g/m*3 0.64 C 8.1 km/h
3192 13-12-2019 01:55:00 2.9 C 5.14 g/m*3 1.17 C 6.4 km/h
3193 13-12-2019 02:00:00 2.9 C 5.14 g/m*3 2.9 C 4.8 km/h
3194 13-12-2019 02:05:00 2.9 C 5.14 g/m*3 0.64 C 8.1 km/h
3195 13-12-2019 02:10:00 2.9 C 5.08 g/m*3 1.17 C 6.4 km/h
3196 13-12-2019 02:15:00 2.9 C 5.14 g/m*3 2.9 C 4.8 km/h
3197 13-12-2019 02:20:00 2.9 C 5.14 g/m*3 0.22 C 9.7 km/h
3198 13-12-2019 02:25:00 2.9 C 5.14 g/m*3 0.64 C 8.1 km/h
3199 13-12-2019 02:30:00 2.9 C 5.14 g/m*3 1.17 C 6.4 km/h
3200 13-12-2019 02:35:00 2.9 C 5.14 g/m*3 -0.14 C 11.3 km/h
Sensor: Nr:Datum:Temp:Abs-Feuchte:Windchill:Wind:
Aussen-T/F 3201 13-12-2019 02:40:00 2.9 C 5.08 g/m*3 -0.76 C 14.5 km/h
3202 13-12-2019 02:45:00 2.9 C 5.14 g/m*3 2.9 C 4.8 km/h
3203 13-12-2019 02:50:00 2.9 C 5.14 g/m*3 -0.14 C 11.3 km/h
3204 13-12-2019 02:55:00 2.9 C 5.14 g/m*3 -0.76 C 14.5 km/h
3205 13-12-2019 03:00:00 2.8 C 5.1 g/m*3 -0.26 C 11.3 km/h
3206 13-12-2019 03:05:00 2.8 C 5.1 g/m*3 -0.59 C 12.9 km/h
3207 13-12-2019 03:10:00 2.8 C 5.1 g/m*3 0.52 C 8.1 km/h
3208 13-12-2019 03:15:00 2.8 C 5.1 g/m*3 -1.39 C 17.7 km/h
3209 13-12-2019 03:20:00 2.7 C 5.13 g/m*3 -1 C 14.5 km/h
3210 13-12-2019 03:25:00 2.7 C 5.13 g/m*3 2.7 C 4.8 km/h
3211 13-12-2019 03:30:00 2.7 C 5.13 g/m*3 0.4 C 8.1 km/h
3212 13-12-2019 03:35:00 2.7 C 5.13 g/m*3 -0.02 C 9.7 km/h
3213 13-12-2019 03:40:00 2.7 C 5.13 g/m*3 0.94 C 6.4 km/h
3214 13-12-2019 03:45:00 2.7 C 5.19 g/m*3 -0.02 C 9.7 km/h
3215 13-12-2019 03:50:00 2.7 C 5.19 g/m*3 -0.02 C 9.7 km/h
3216 13-12-2019 03:55:00 2.6 C 5.15 g/m*3 2.6 C 4.8 km/h
3217 13-12-2019 04:00:00 2.6 C 5.15 g/m*3 -0.14 C 9.7 km/h
3218 13-12-2019 04:05:00 2.6 C 5.15 g/m*3 2.6 C 4.8 km/h
3219 13-12-2019 04:10:00 2.6 C 5.21 g/m*3 0.29 C 8.1 km/h
3220 13-12-2019 04:15:00 2.5 C 5.17 g/m*3 -0.26 C 9.7 km/h
3221 13-12-2019 04:20:00 2.5 C 5.17 g/m*3 -1.25 C 14.5 km/h
3222 13-12-2019 04:25:00 2.5 C 5.17 g/m*3 -0.95 C 12.9 km/h
3223 13-12-2019 04:30:00 2.5 C 5.17 g/m*3 -0.26 C 9.7 km/h
3224 13-12-2019 04:35:00 2.5 C 5.17 g/m*3 -0.26 C 9.7 km/h
3225 13-12-2019 04:40:00 2.5 C 5.17 g/m*3 -0.26 C 9.7 km/h
Sensor: Nr:Datum:Temp:Abs-Feuchte:Windchill:Wind:
Aussen-T/F 3226 13-12-2019 04:45:00 2.5 C 5.23 g/m*3 -0.62 C 11.3 km/h
3227 13-12-2019 04:50:00 2.5 C 5.23 g/m*3 0.71 C 6.4 km/h
32